<?xml version="1.0" encoding="UTF-8" standalone="no" ?>
<gpx xmlns="http://www.topografix.com/GPX/1/1" xmlns:xsi="http://www.w3.org/2001/XMLSchema-instance" xsi:schemaLocation="http://www.topografix.com/GPX/1/1 http://www.topografix.com/GPX/1/1/gpx.xsd" version="1.1" creator="VisuGPX - https://www.visugpx.com">
  <metadata>
    <name>Tour de l\'Oisans, j12, Le Désert-en-Valjouffray - Valsenestre</name>
    <desc><![CDATA[Tour de l\'Oisans, j12, Le Désert-en-Valjouffray - Valsenestre ; une organisation de [url=http://benb.eu.org]Bassée en Balade[/url].]]></desc>
  </metadata>
  <trk>
    <name><![CDATA[JUIL-25-13 13:56:43]]></name>
    <trkseg>
      <trkpt lat="44.86944" lon="6.09031">
        <ele>1230.14</ele>
        <time>2013-07-25T05:09:54Z</time>
      </trkpt>
      <trkpt lat="44.86944" lon="6.09026">
        <ele>1229.66</ele>
        <time>2013-07-25T05:09:59Z</time>
      </trkpt>
      <trkpt lat="44.86944" lon="6.09026">
        <ele>1230.62</ele>
        <time>2013-07-25T05:10:01Z</time>
      </trkpt>
      <trkpt lat="44.86935" lon="6.09041">
        <ele>1234.95</ele>
        <time>2013-07-25T05:10:09Z</time>
      </trkpt>
      <trkpt lat="44.86936" lon="6.0904">
        <ele>1237.35</ele>
        <time>2013-07-25T05:10:11Z</time>
      </trkpt>
      <trkpt lat="44.86936" lon="6.09039">
        <ele>1241.68</ele>
        <time>2013-07-25T05:10:13Z</time>
      </trkpt>
      <trkpt lat="44.86935" lon="6.09042">
        <ele>1247.45</ele>
        <time>2013-07-25T05:10:16Z</time>
      </trkpt>
      <trkpt lat="44.86934" lon="6.09044">
        <ele>1249.37</ele>
        <time>2013-07-25T05:10:19Z</time>
      </trkpt>
      <trkpt lat="44.86934" lon="6.09045">
        <ele>1252.74</ele>
        <time>2013-07-25T05:10:20Z</time>
      </trkpt>
      <trkpt lat="44.86933" lon="6.09048">
        <ele>1256.1</ele>
        <time>2013-07-25T05:10:23Z</time>
      </trkpt>
      <trkpt lat="44.86932" lon="6.09047">
        <ele>1259.46</ele>
        <time>2013-07-25T05:10:26Z</time>
      </trkpt>
      <trkpt lat="44.86932" lon="6.09047">
        <ele>1262.83</ele>
        <time>2013-07-25T05:10:29Z</time>
      </trkpt>
      <trkpt lat="44.86932" lon="6.09047">
        <ele>1266.19</ele>
        <time>2013-07-25T05:10:33Z</time>
      </trkpt>
      <trkpt lat="44.86932" lon="6.09047">
        <ele>1269.08</ele>
        <time>2013-07-25T05:10:36Z</time>
      </trkpt>
      <trkpt lat="44.86932" lon="6.09047">
        <ele>1270.52</ele>
        <time>2013-07-25T05:10:39Z</time>
      </trkpt>
      <trkpt lat="44.8693" lon="6.09048">
        <ele>1271.96</ele>
        <time>2013-07-25T05:10:42Z</time>
      </trkpt>
      <trkpt lat="44.86926" lon="6.09049">
        <ele>1275.33</ele>
        <time>2013-07-25T05:10:48Z</time>
      </trkpt>
      <trkpt lat="44.86922" lon="6.09049">
        <ele>1278.69</ele>
        <time>2013-07-25T05:10:55Z</time>
      </trkpt>
      <trkpt lat="44.86912" lon="6.0905">
        <ele>1280.61</ele>
        <time>2013-07-25T05:11:13Z</time>
      </trkpt>
      <trkpt lat="44.86906" lon="6.09054">
        <ele>1281.09</ele>
        <time>2013-07-25T05:11:32Z</time>
      </trkpt>
      <trkpt lat="44.869" lon="6.09052">
        <ele>1280.13</ele>
        <time>2013-07-25T05:11:47Z</time>
      </trkpt>
      <trkpt lat="44.86896" lon="6.09063">
        <ele>1279.17</ele>
        <time>2013-07-25T05:12:03Z</time>
      </trkpt>
      <trkpt lat="44.86883" lon="6.09073">
        <ele>1277.73</ele>
        <time>2013-07-25T05:12:18Z</time>
      </trkpt>
      <trkpt lat="44.86878" lon="6.0907">
        <ele>1276.29</ele>
        <time>2013-07-25T05:12:24Z</time>
      </trkpt>
      <trkpt lat="44.86872" lon="6.09066">
        <ele>1275.33</ele>
        <time>2013-07-25T05:12:33Z</time>
      </trkpt>
      <trkpt lat="44.86866" lon="6.09082">
        <ele>1274.36</ele>
        <time>2013-07-25T05:12:46Z</time>
      </trkpt>
      <trkpt lat="44.86866" lon="6.09089">
        <ele>1273.88</ele>
        <time>2013-07-25T05:12:50Z</time>
      </trkpt>
      <trkpt lat="44.86866" lon="6.09092">
        <ele>1273.4</ele>
        <time>2013-07-25T05:12:52Z</time>
      </trkpt>
      <trkpt lat="44.86864" lon="6.09108">
        <ele>1273.88</ele>
        <time>2013-07-25T05:13:03Z</time>
      </trkpt>
      <trkpt lat="44.86866" lon="6.09126">
        <ele>1274.36</ele>
        <time>2013-07-25T05:13:17Z</time>
      </trkpt>
      <trkpt lat="44.86863" lon="6.09143">
        <ele>1274.85</ele>
        <time>2013-07-25T05:13:28Z</time>
      </trkpt>
      <trkpt lat="44.86862" lon="6.09153">
        <ele>1274.85</ele>
        <time>2013-07-25T05:13:36Z</time>
      </trkpt>
      <trkpt lat="44.86861" lon="6.09161">
        <ele>1274.36</ele>
        <time>2013-07-25T05:13:41Z</time>
      </trkpt>
      <trkpt lat="44.86862" lon="6.09186">
        <ele>1272.92</ele>
        <time>2013-07-25T05:13:57Z</time>
      </trkpt>
      <trkpt lat="44.86862" lon="6.09189">
        <ele>1272.44</ele>
        <time>2013-07-25T05:13:59Z</time>
      </trkpt>
      <trkpt lat="44.86864" lon="6.09194">
        <ele>1272.44</ele>
        <time>2013-07-25T05:14:03Z</time>
      </trkpt>
      <trkpt lat="44.86867" lon="6.09202">
        <ele>1271.96</ele>
        <time>2013-07-25T05:14:09Z</time>
      </trkpt>
      <trkpt lat="44.86868" lon="6.09209">
        <ele>1271.48</ele>
        <time>2013-07-25T05:14:13Z</time>
      </trkpt>
      <trkpt lat="44.86869" lon="6.09212">
        <ele>1271.96</ele>
        <time>2013-07-25T05:14:15Z</time>
      </trkpt>
      <trkpt lat="44.8687" lon="6.09216">
        <ele>1272.44</ele>
        <time>2013-07-25T05:14:18Z</time>
      </trkpt>
      <trkpt lat="44.86884" lon="6.09231">
        <ele>1273.88</ele>
        <time>2013-07-25T05:14:36Z</time>
      </trkpt>
      <trkpt lat="44.86892" lon="6.09231">
        <ele>1274.85</ele>
        <time>2013-07-25T05:14:45Z</time>
      </trkpt>
      <trkpt lat="44.86894" lon="6.09231">
        <ele>1275.33</ele>
        <time>2013-07-25T05:14:47Z</time>
      </trkpt>
      <trkpt lat="44.86899" lon="6.09231">
        <ele>1275.33</ele>
        <time>2013-07-25T05:14:52Z</time>
      </trkpt>
      <trkpt lat="44.86904" lon="6.0923">
        <ele>1276.77</ele>
        <time>2013-07-25T05:14:57Z</time>
      </trkpt>
      <trkpt lat="44.86915" lon="6.09233">
        <ele>1278.21</ele>
        <time>2013-07-25T05:15:11Z</time>
      </trkpt>
      <trkpt lat="44.86927" lon="6.09229">
        <ele>1281.09</ele>
        <time>2013-07-25T05:15:29Z</time>
      </trkpt>
      <trkpt lat="44.86938" lon="6.09224">
        <ele>1282.54</ele>
        <time>2013-07-25T05:15:43Z</time>
      </trkpt>
      <trkpt lat="44.86947" lon="6.09219">
        <ele>1284.46</ele>
        <time>2013-07-25T05:15:57Z</time>
      </trkpt>
      <trkpt lat="44.8696" lon="6.09212">
        <ele>1286.86</ele>
        <time>2013-07-25T05:16:13Z</time>
      </trkpt>
      <trkpt lat="44.86963" lon="6.09205">
        <ele>1288.3</ele>
        <time>2013-07-25T05:16:23Z</time>
      </trkpt>
      <trkpt lat="44.86974" lon="6.09198">
        <ele>1289.27</ele>
        <time>2013-07-25T05:16:38Z</time>
      </trkpt>
      <trkpt lat="44.86979" lon="6.09198">
        <ele>1290.71</ele>
        <time>2013-07-25T05:16:44Z</time>
      </trkpt>
      <trkpt lat="44.86984" lon="6.09194">
        <ele>1291.19</ele>
        <time>2013-07-25T05:16:51Z</time>
      </trkpt>
      <trkpt lat="44.86996" lon="6.09186">
        <ele>1293.11</ele>
        <time>2013-07-25T05:17:08Z</time>
      </trkpt>
      <trkpt lat="44.87008" lon="6.09184">
        <ele>1295.03</ele>
        <time>2013-07-25T05:17:25Z</time>
      </trkpt>
      <trkpt lat="44.87017" lon="6.09186">
        <ele>1296.96</ele>
        <time>2013-07-25T05:17:40Z</time>
      </trkpt>
      <trkpt lat="44.87024" lon="6.09187">
        <ele>1298.4</ele>
        <time>2013-07-25T05:17:57Z</time>
      </trkpt>
      <trkpt lat="44.87035" lon="6.09186">
        <ele>1300.8</ele>
        <time>2013-07-25T05:18:14Z</time>
      </trkpt>
      <trkpt lat="44.87039" lon="6.09187">
        <ele>1301.28</ele>
        <time>2013-07-25T05:18:20Z</time>
      </trkpt>
      <trkpt lat="44.87048" lon="6.0919">
        <ele>1304.65</ele>
        <time>2013-07-25T05:18:30Z</time>
      </trkpt>
      <trkpt lat="44.8705" lon="6.09191">
        <ele>1301.28</ele>
        <time>2013-07-25T05:18:35Z</time>
      </trkpt>
      <trkpt lat="44.87051" lon="6.09191">
        <ele>1301.28</ele>
        <time>2013-07-25T05:18:36Z</time>
      </trkpt>
      <trkpt lat="44.87053" lon="6.09193">
        <ele>1305.61</ele>
        <time>2013-07-25T05:18:43Z</time>
      </trkpt>
      <trkpt lat="44.87063" lon="6.09193">
        <ele>1306.57</ele>
        <time>2013-07-25T05:19:00Z</time>
      </trkpt>
      <trkpt lat="44.87073" lon="6.09195">
        <ele>1308.01</ele>
        <time>2013-07-25T05:19:16Z</time>
      </trkpt>
      <trkpt lat="44.87083" lon="6.09196">
        <ele>1310.41</ele>
        <time>2013-07-25T05:19:29Z</time>
      </trkpt>
      <trkpt lat="44.8709" lon="6.09207">
        <ele>1311.38</ele>
        <time>2013-07-25T05:19:44Z</time>
      </trkpt>
      <trkpt lat="44.87095" lon="6.09218">
        <ele>1313.3</ele>
        <time>2013-07-25T05:19:57Z</time>
      </trkpt>
      <trkpt lat="44.87104" lon="6.09221">
        <ele>1315.22</ele>
        <time>2013-07-25T05:20:11Z</time>
      </trkpt>
      <trkpt lat="44.87112" lon="6.09225">
        <ele>1317.62</ele>
        <time>2013-07-25T05:20:27Z</time>
      </trkpt>
      <trkpt lat="44.87122" lon="6.09234">
        <ele>1319.55</ele>
        <time>2013-07-25T05:20:44Z</time>
      </trkpt>
      <trkpt lat="44.87128" lon="6.09248">
        <ele>1322.43</ele>
        <time>2013-07-25T05:21:01Z</time>
      </trkpt>
      <trkpt lat="44.87135" lon="6.09256">
        <ele>1324.35</ele>
        <time>2013-07-25T05:21:15Z</time>
      </trkpt>
      <trkpt lat="44.87144" lon="6.0926">
        <ele>1326.28</ele>
        <time>2013-07-25T05:21:32Z</time>
      </trkpt>
      <trkpt lat="44.87152" lon="6.09265">
        <ele>1328.2</ele>
        <time>2013-07-25T05:21:47Z</time>
      </trkpt>
      <trkpt lat="44.87155" lon="6.09265">
        <ele>1329.16</ele>
        <time>2013-07-25T05:21:52Z</time>
      </trkpt>
      <trkpt lat="44.87159" lon="6.09268">
        <ele>1329.16</ele>
        <time>2013-07-25T05:21:56Z</time>
      </trkpt>
      <trkpt lat="44.87166" lon="6.09281">
        <ele>1331.56</ele>
        <time>2013-07-25T05:22:12Z</time>
      </trkpt>
      <trkpt lat="44.87171" lon="6.09284">
        <ele>1332.52</ele>
        <time>2013-07-25T05:22:23Z</time>
      </trkpt>
      <trkpt lat="44.87175" lon="6.09291">
        <ele>1333.97</ele>
        <time>2013-07-25T05:22:37Z</time>
      </trkpt>
      <trkpt lat="44.87183" lon="6.09298">
        <ele>1335.41</ele>
        <time>2013-07-25T05:22:52Z</time>
      </trkpt>
      <trkpt lat="44.87191" lon="6.09297">
        <ele>1337.81</ele>
        <time>2013-07-25T05:23:07Z</time>
      </trkpt>
      <trkpt lat="44.872" lon="6.09303">
        <ele>1339.25</ele>
        <time>2013-07-25T05:23:25Z</time>
      </trkpt>
      <trkpt lat="44.87212" lon="6.09306">
        <ele>1341.66</ele>
        <time>2013-07-25T05:23:43Z</time>
      </trkpt>
      <trkpt lat="44.87222" lon="6.09311">
        <ele>1342.14</ele>
        <time>2013-07-25T05:23:57Z</time>
      </trkpt>
      <trkpt lat="44.8723" lon="6.0931">
        <ele>1344.54</ele>
        <time>2013-07-25T05:24:11Z</time>
      </trkpt>
      <trkpt lat="44.87237" lon="6.0931">
        <ele>1346.46</ele>
        <time>2013-07-25T05:24:26Z</time>
      </trkpt>
      <trkpt lat="44.87248" lon="6.09307">
        <ele>1347.91</ele>
        <time>2013-07-25T05:24:41Z</time>
      </trkpt>
      <trkpt lat="44.87259" lon="6.09309">
        <ele>1349.83</ele>
        <time>2013-07-25T05:24:58Z</time>
      </trkpt>
      <trkpt lat="44.87268" lon="6.09315">
        <ele>1352.23</ele>
        <time>2013-07-25T05:25:14Z</time>
      </trkpt>
      <trkpt lat="44.87277" lon="6.09321">
        <ele>1354.15</ele>
        <time>2013-07-25T05:25:31Z</time>
      </trkpt>
      <trkpt lat="44.87284" lon="6.09322">
        <ele>1355.6</ele>
        <time>2013-07-25T05:25:47Z</time>
      </trkpt>
      <trkpt lat="44.87292" lon="6.09322">
        <ele>1358</ele>
        <time>2013-07-25T05:26:04Z</time>
      </trkpt>
      <trkpt lat="44.873" lon="6.0932">
        <ele>1359.92</ele>
        <time>2013-07-25T05:26:19Z</time>
      </trkpt>
      <trkpt lat="44.87307" lon="6.09324">
        <ele>1361.84</ele>
        <time>2013-07-25T05:26:32Z</time>
      </trkpt>
      <trkpt lat="44.87314" lon="6.09321">
        <ele>1362.81</ele>
        <time>2013-07-25T05:26:45Z</time>
      </trkpt>
      <trkpt lat="44.8732" lon="6.09312">
        <ele>1364.25</ele>
        <time>2013-07-25T05:27:00Z</time>
      </trkpt>
      <trkpt lat="44.87325" lon="6.09306">
        <ele>1365.69</ele>
        <time>2013-07-25T05:27:14Z</time>
      </trkpt>
      <trkpt lat="44.87331" lon="6.09299">
        <ele>1367.61</ele>
        <time>2013-07-25T05:27:30Z</time>
      </trkpt>
      <trkpt lat="44.87334" lon="6.09293">
        <ele>1370.5</ele>
        <time>2013-07-25T05:27:45Z</time>
      </trkpt>
      <trkpt lat="44.87335" lon="6.09283">
        <ele>1372.42</ele>
        <time>2013-07-25T05:28:01Z</time>
      </trkpt>
      <trkpt lat="44.87334" lon="6.09272">
        <ele>1374.82</ele>
        <time>2013-07-25T05:28:19Z</time>
      </trkpt>
      <trkpt lat="44.87342" lon="6.09266">
        <ele>1377.23</ele>
        <time>2013-07-25T05:28:35Z</time>
      </trkpt>
      <trkpt lat="44.87351" lon="6.09266">
        <ele>1379.15</ele>
        <time>2013-07-25T05:28:51Z</time>
      </trkpt>
      <trkpt lat="44.87359" lon="6.0927">
        <ele>1381.07</ele>
        <time>2013-07-25T05:29:07Z</time>
      </trkpt>
      <trkpt lat="44.87365" lon="6.09281">
        <ele>1384.44</ele>
        <time>2013-07-25T05:29:22Z</time>
      </trkpt>
      <trkpt lat="44.8737" lon="6.09276">
        <ele>1386.36</ele>
        <time>2013-07-25T05:29:38Z</time>
      </trkpt>
      <trkpt lat="44.87375" lon="6.09266">
        <ele>1388.28</ele>
        <time>2013-07-25T05:29:55Z</time>
      </trkpt>
      <trkpt lat="44.87384" lon="6.0926">
        <ele>1389.24</ele>
        <time>2013-07-25T05:30:12Z</time>
      </trkpt>
      <trkpt lat="44.87393" lon="6.09267">
        <ele>1388.28</ele>
        <time>2013-07-25T05:30:26Z</time>
      </trkpt>
      <trkpt lat="44.87402" lon="6.09275">
        <ele>1385.4</ele>
        <time>2013-07-25T05:30:40Z</time>
      </trkpt>
      <trkpt lat="44.87407" lon="6.09278">
        <ele>1384.92</ele>
        <time>2013-07-25T05:30:46Z</time>
      </trkpt>
      <trkpt lat="44.87417" lon="6.0928">
        <ele>1386.36</ele>
        <time>2013-07-25T05:31:01Z</time>
      </trkpt>
      <trkpt lat="44.87425" lon="6.09274">
        <ele>1388.76</ele>
        <time>2013-07-25T05:31:18Z</time>
      </trkpt>
      <trkpt lat="44.87431" lon="6.0927">
        <ele>1390.68</ele>
        <time>2013-07-25T05:31:32Z</time>
      </trkpt>
      <trkpt lat="44.87439" lon="6.09264">
        <ele>1393.09</ele>
        <time>2013-07-25T05:31:47Z</time>
      </trkpt>
      <trkpt lat="44.87449" lon="6.09258">
        <ele>1395.01</ele>
        <time>2013-07-25T05:32:04Z</time>
      </trkpt>
      <trkpt lat="44.87454" lon="6.09254">
        <ele>1396.45</ele>
        <time>2013-07-25T05:32:20Z</time>
      </trkpt>
      <trkpt lat="44.87461" lon="6.0925">
        <ele>1398.37</ele>
        <time>2013-07-25T05:32:34Z</time>
      </trkpt>
      <trkpt lat="44.87467" lon="6.09244">
        <ele>1399.82</ele>
        <time>2013-07-25T05:32:50Z</time>
      </trkpt>
      <trkpt lat="44.87477" lon="6.09236">
        <ele>1401.74</ele>
        <time>2013-07-25T05:33:08Z</time>
      </trkpt>
      <trkpt lat="44.87483" lon="6.09233">
        <ele>1403.66</ele>
        <time>2013-07-25T05:33:23Z</time>
      </trkpt>
      <trkpt lat="44.87486" lon="6.09229">
        <ele>1404.62</ele>
        <time>2013-07-25T05:33:33Z</time>
      </trkpt>
      <trkpt lat="44.87495" lon="6.09219">
        <ele>1406.55</ele>
        <time>2013-07-25T05:33:49Z</time>
      </trkpt>
      <trkpt lat="44.87502" lon="6.09215">
        <ele>1407.99</ele>
        <time>2013-07-25T05:34:04Z</time>
      </trkpt>
      <trkpt lat="44.87509" lon="6.09211">
        <ele>1409.91</ele>
        <time>2013-07-25T05:34:16Z</time>
      </trkpt>
      <trkpt lat="44.87515" lon="6.09208">
        <ele>1411.35</ele>
        <time>2013-07-25T05:34:27Z</time>
      </trkpt>
      <trkpt lat="44.87522" lon="6.09204">
        <ele>1412.31</ele>
        <time>2013-07-25T05:34:42Z</time>
      </trkpt>
      <trkpt lat="44.87527" lon="6.09198">
        <ele>1414.72</ele>
        <time>2013-07-25T05:34:57Z</time>
      </trkpt>
      <trkpt lat="44.87535" lon="6.09192">
        <ele>1416.64</ele>
        <time>2013-07-25T05:35:15Z</time>
      </trkpt>
      <trkpt lat="44.87539" lon="6.09188">
        <ele>1418.08</ele>
        <time>2013-07-25T05:35:30Z</time>
      </trkpt>
      <trkpt lat="44.87546" lon="6.09187">
        <ele>1417.6</ele>
        <time>2013-07-25T05:35:43Z</time>
      </trkpt>
      <trkpt lat="44.87554" lon="6.09183">
        <ele>1420</ele>
        <time>2013-07-25T05:35:57Z</time>
      </trkpt>
      <trkpt lat="44.87557" lon="6.09182">
        <ele>1421.45</ele>
        <time>2013-07-25T05:36:06Z</time>
      </trkpt>
      <trkpt lat="44.87561" lon="6.09178">
        <ele>1422.41</ele>
        <time>2013-07-25T05:36:20Z</time>
      </trkpt>
      <trkpt lat="44.87567" lon="6.09175">
        <ele>1423.37</ele>
        <time>2013-07-25T05:36:36Z</time>
      </trkpt>
      <trkpt lat="44.87572" lon="6.0917">
        <ele>1425.77</ele>
        <time>2013-07-25T05:36:52Z</time>
      </trkpt>
      <trkpt lat="44.8758" lon="6.09165">
        <ele>1427.7</ele>
        <time>2013-07-25T05:37:06Z</time>
      </trkpt>
      <trkpt lat="44.87587" lon="6.0916">
        <ele>1429.62</ele>
        <time>2013-07-25T05:37:20Z</time>
      </trkpt>
      <trkpt lat="44.87593" lon="6.09156">
        <ele>1431.54</ele>
        <time>2013-07-25T05:37:36Z</time>
      </trkpt>
      <trkpt lat="44.87598" lon="6.09157">
        <ele>1433.46</ele>
        <time>2013-07-25T05:37:53Z</time>
      </trkpt>
      <trkpt lat="44.87605" lon="6.09151">
        <ele>1435.39</ele>
        <time>2013-07-25T05:38:09Z</time>
      </trkpt>
      <trkpt lat="44.87613" lon="6.09149">
        <ele>1436.83</ele>
        <time>2013-07-25T05:38:23Z</time>
      </trkpt>
      <trkpt lat="44.87618" lon="6.09145">
        <ele>1439.23</ele>
        <time>2013-07-25T05:38:39Z</time>
      </trkpt>
      <trkpt lat="44.87625" lon="6.09142">
        <ele>1440.67</ele>
        <time>2013-07-25T05:38:53Z</time>
      </trkpt>
      <trkpt lat="44.87628" lon="6.09139">
        <ele>1441.63</ele>
        <time>2013-07-25T05:39:00Z</time>
      </trkpt>
      <trkpt lat="44.87635" lon="6.09134">
        <ele>1443.08</ele>
        <time>2013-07-25T05:39:15Z</time>
      </trkpt>
      <trkpt lat="44.8764" lon="6.09129">
        <ele>1444.52</ele>
        <time>2013-07-25T05:39:29Z</time>
      </trkpt>
      <trkpt lat="44.87647" lon="6.09127">
        <ele>1446.44</ele>
        <time>2013-07-25T05:39:44Z</time>
      </trkpt>
      <trkpt lat="44.87658" lon="6.0912">
        <ele>1447.88</ele>
        <time>2013-07-25T05:39:58Z</time>
      </trkpt>
      <trkpt lat="44.87661" lon="6.09119">
        <ele>1449.81</ele>
        <time>2013-07-25T05:40:13Z</time>
      </trkpt>
      <trkpt lat="44.87664" lon="6.09116">
        <ele>1451.73</ele>
        <time>2013-07-25T05:40:28Z</time>
      </trkpt>
      <trkpt lat="44.87667" lon="6.09113">
        <ele>1453.65</ele>
        <time>2013-07-25T05:40:42Z</time>
      </trkpt>
      <trkpt lat="44.87674" lon="6.09114">
        <ele>1455.09</ele>
        <time>2013-07-25T05:40:57Z</time>
      </trkpt>
      <trkpt lat="44.87681" lon="6.0911">
        <ele>1457.5</ele>
        <time>2013-07-25T05:41:13Z</time>
      </trkpt>
      <trkpt lat="44.87686" lon="6.09108">
        <ele>1459.9</ele>
        <time>2013-07-25T05:41:28Z</time>
      </trkpt>
      <trkpt lat="44.87692" lon="6.09106">
        <ele>1460.86</ele>
        <time>2013-07-25T05:41:43Z</time>
      </trkpt>
      <trkpt lat="44.87698" lon="6.09104">
        <ele>1462.78</ele>
        <time>2013-07-25T05:41:59Z</time>
      </trkpt>
      <trkpt lat="44.87705" lon="6.09101">
        <ele>1464.71</ele>
        <time>2013-07-25T05:42:14Z</time>
      </trkpt>
      <trkpt lat="44.8771" lon="6.09098">
        <ele>1466.63</ele>
        <time>2013-07-25T05:42:30Z</time>
      </trkpt>
      <trkpt lat="44.87716" lon="6.09093">
        <ele>1468.07</ele>
        <time>2013-07-25T05:42:44Z</time>
      </trkpt>
      <trkpt lat="44.87721" lon="6.09086">
        <ele>1470.47</ele>
        <time>2013-07-25T05:43:00Z</time>
      </trkpt>
      <trkpt lat="44.87729" lon="6.09081">
        <ele>1471.92</ele>
        <time>2013-07-25T05:43:16Z</time>
      </trkpt>
      <trkpt lat="44.87735" lon="6.09072">
        <ele>1473.36</ele>
        <time>2013-07-25T05:43:30Z</time>
      </trkpt>
      <trkpt lat="44.87741" lon="6.09064">
        <ele>1474.8</ele>
        <time>2013-07-25T05:43:44Z</time>
      </trkpt>
      <trkpt lat="44.87749" lon="6.09065">
        <ele>1477.68</ele>
        <time>2013-07-25T05:43:59Z</time>
      </trkpt>
      <trkpt lat="44.87756" lon="6.09063">
        <ele>1479.61</ele>
        <time>2013-07-25T05:44:15Z</time>
      </trkpt>
      <trkpt lat="44.8776" lon="6.09057">
        <ele>1481.05</ele>
        <time>2013-07-25T05:44:29Z</time>
      </trkpt>
      <trkpt lat="44.87763" lon="6.09054">
        <ele>1483.93</ele>
        <time>2013-07-25T05:44:45Z</time>
      </trkpt>
      <trkpt lat="44.87766" lon="6.09052">
        <ele>1485.85</ele>
        <time>2013-07-25T05:45:00Z</time>
      </trkpt>
      <trkpt lat="44.87772" lon="6.09049">
        <ele>1487.78</ele>
        <time>2013-07-25T05:45:17Z</time>
      </trkpt>
      <trkpt lat="44.87775" lon="6.09045">
        <ele>1489.7</ele>
        <time>2013-07-25T05:45:33Z</time>
      </trkpt>
      <trkpt lat="44.8778" lon="6.09041">
        <ele>1492.1</ele>
        <time>2013-07-25T05:45:52Z</time>
      </trkpt>
      <trkpt lat="44.87784" lon="6.09038">
        <ele>1494.03</ele>
        <time>2013-07-25T05:46:06Z</time>
      </trkpt>
      <trkpt lat="44.8779" lon="6.09033">
        <ele>1495.47</ele>
        <time>2013-07-25T05:46:21Z</time>
      </trkpt>
      <trkpt lat="44.87797" lon="6.09029">
        <ele>1497.39</ele>
        <time>2013-07-25T05:46:35Z</time>
      </trkpt>
      <trkpt lat="44.87804" lon="6.09028">
        <ele>1498.83</ele>
        <time>2013-07-25T05:46:49Z</time>
      </trkpt>
      <trkpt lat="44.87813" lon="6.09026">
        <ele>1500.76</ele>
        <time>2013-07-25T05:47:05Z</time>
      </trkpt>
      <trkpt lat="44.8782" lon="6.09026">
        <ele>1502.68</ele>
        <time>2013-07-25T05:47:18Z</time>
      </trkpt>
      <trkpt lat="44.87826" lon="6.09026">
        <ele>1504.6</ele>
        <time>2013-07-25T05:47:33Z</time>
      </trkpt>
      <trkpt lat="44.8783" lon="6.09024">
        <ele>1506.04</ele>
        <time>2013-07-25T05:47:48Z</time>
      </trkpt>
      <trkpt lat="44.87836" lon="6.0902">
        <ele>1507.97</ele>
        <time>2013-07-25T05:48:03Z</time>
      </trkpt>
      <trkpt lat="44.87843" lon="6.09014">
        <ele>1509.41</ele>
        <time>2013-07-25T05:48:17Z</time>
      </trkpt>
      <trkpt lat="44.87849" lon="6.09009">
        <ele>1511.33</ele>
        <time>2013-07-25T05:48:32Z</time>
      </trkpt>
      <trkpt lat="44.87853" lon="6.09008">
        <ele>1513.25</ele>
        <time>2013-07-25T05:48:48Z</time>
      </trkpt>
      <trkpt lat="44.87857" lon="6.09007">
        <ele>1515.18</ele>
        <time>2013-07-25T05:49:02Z</time>
      </trkpt>
      <trkpt lat="44.87861" lon="6.09003">
        <ele>1516.62</ele>
        <time>2013-07-25T05:49:16Z</time>
      </trkpt>
      <trkpt lat="44.87866" lon="6.08999">
        <ele>1518.54</ele>
        <time>2013-07-25T05:49:31Z</time>
      </trkpt>
      <trkpt lat="44.87872" lon="6.08994">
        <ele>1520.46</ele>
        <time>2013-07-25T05:49:44Z</time>
      </trkpt>
      <trkpt lat="44.87876" lon="6.08993">
        <ele>1521.42</ele>
        <time>2013-07-25T05:49:56Z</time>
      </trkpt>
      <trkpt lat="44.87879" lon="6.08992">
        <ele>1523.35</ele>
        <time>2013-07-25T05:50:10Z</time>
      </trkpt>
      <trkpt lat="44.87883" lon="6.08991">
        <ele>1525.27</ele>
        <time>2013-07-25T05:50:29Z</time>
      </trkpt>
      <trkpt lat="44.87891" lon="6.08991">
        <ele>1527.67</ele>
        <time>2013-07-25T05:50:46Z</time>
      </trkpt>
      <trkpt lat="44.87895" lon="6.0899">
        <ele>1528.63</ele>
        <time>2013-07-25T05:51:02Z</time>
      </trkpt>
      <trkpt lat="44.87901" lon="6.0899">
        <ele>1531.04</ele>
        <time>2013-07-25T05:51:20Z</time>
      </trkpt>
      <trkpt lat="44.87905" lon="6.08986">
        <ele>1532</ele>
        <time>2013-07-25T05:51:33Z</time>
      </trkpt>
      <trkpt lat="44.87913" lon="6.08987">
        <ele>1533.44</ele>
        <time>2013-07-25T05:51:48Z</time>
      </trkpt>
      <trkpt lat="44.87917" lon="6.08985">
        <ele>1534.88</ele>
        <time>2013-07-25T05:52:02Z</time>
      </trkpt>
      <trkpt lat="44.8792" lon="6.08985">
        <ele>1536.8</ele>
        <time>2013-07-25T05:52:20Z</time>
      </trkpt>
      <trkpt lat="44.87923" lon="6.08984">
        <ele>1537.29</ele>
        <time>2013-07-25T05:52:35Z</time>
      </trkpt>
      <trkpt lat="44.87923" lon="6.08984">
        <ele>1537.29</ele>
        <time>2013-07-25T05:52:57Z</time>
      </trkpt>
      <trkpt lat="44.87927" lon="6.08982">
        <ele>1538.25</ele>
        <time>2013-07-25T05:53:17Z</time>
      </trkpt>
      <trkpt lat="44.87927" lon="6.08983">
        <ele>1536.8</ele>
        <time>2013-07-25T05:53:37Z</time>
      </trkpt>
      <trkpt lat="44.87928" lon="6.08981">
        <ele>1538.25</ele>
        <time>2013-07-25T05:55:29Z</time>
      </trkpt>
      <trkpt lat="44.87926" lon="6.08985">
        <ele>1538.73</ele>
        <time>2013-07-25T05:55:49Z</time>
      </trkpt>
      <trkpt lat="44.87927" lon="6.08985">
        <ele>1538.73</ele>
        <time>2013-07-25T05:56:20Z</time>
      </trkpt>
      <trkpt lat="44.87929" lon="6.08983">
        <ele>1540.17</ele>
        <time>2013-07-25T05:56:33Z</time>
      </trkpt>
      <trkpt lat="44.87935" lon="6.08981">
        <ele>1541.13</ele>
        <time>2013-07-25T05:56:48Z</time>
      </trkpt>
      <trkpt lat="44.87938" lon="6.08979">
        <ele>1543.05</ele>
        <time>2013-07-25T05:57:01Z</time>
      </trkpt>
      <trkpt lat="44.87942" lon="6.08977">
        <ele>1544.5</ele>
        <time>2013-07-25T05:57:17Z</time>
      </trkpt>
      <trkpt lat="44.87942" lon="6.08977">
        <ele>1546.42</ele>
        <time>2013-07-25T05:57:32Z</time>
      </trkpt>
      <trkpt lat="44.87942" lon="6.08977">
        <ele>1547.86</ele>
        <time>2013-07-25T05:57:52Z</time>
      </trkpt>
      <trkpt lat="44.87942" lon="6.08977">
        <ele>1549.78</ele>
        <time>2013-07-25T05:58:09Z</time>
      </trkpt>
      <trkpt lat="44.87949" lon="6.08975">
        <ele>1551.71</ele>
        <time>2013-07-25T05:58:22Z</time>
      </trkpt>
      <trkpt lat="44.87954" lon="6.08975">
        <ele>1553.63</ele>
        <time>2013-07-25T05:58:40Z</time>
      </trkpt>
      <trkpt lat="44.8796" lon="6.08973">
        <ele>1555.07</ele>
        <time>2013-07-25T05:58:57Z</time>
      </trkpt>
      <trkpt lat="44.8796" lon="6.08973">
        <ele>1556.99</ele>
        <time>2013-07-25T05:59:14Z</time>
      </trkpt>
      <trkpt lat="44.87964" lon="6.08972">
        <ele>1558.92</ele>
        <time>2013-07-25T05:59:32Z</time>
      </trkpt>
      <trkpt lat="44.87979" lon="6.08964">
        <ele>1559.4</ele>
        <time>2013-07-25T05:59:41Z</time>
      </trkpt>
      <trkpt lat="44.87988" lon="6.08957">
        <ele>1561.32</ele>
        <time>2013-07-25T05:59:56Z</time>
      </trkpt>
      <trkpt lat="44.87988" lon="6.08957">
        <ele>1562.76</ele>
        <time>2013-07-25T06:00:16Z</time>
      </trkpt>
      <trkpt lat="44.88001" lon="6.08949">
        <ele>1565.16</ele>
        <time>2013-07-25T06:00:30Z</time>
      </trkpt>
      <trkpt lat="44.88002" lon="6.08949">
        <ele>1565.16</ele>
        <time>2013-07-25T06:00:32Z</time>
      </trkpt>
      <trkpt lat="44.88019" lon="6.08936">
        <ele>1566.61</ele>
        <time>2013-07-25T06:00:48Z</time>
      </trkpt>
      <trkpt lat="44.88023" lon="6.08933">
        <ele>1567.09</ele>
        <time>2013-07-25T06:00:55Z</time>
      </trkpt>
      <trkpt lat="44.88039" lon="6.08928">
        <ele>1568.53</ele>
        <time>2013-07-25T06:01:11Z</time>
      </trkpt>
      <trkpt lat="44.88046" lon="6.08927">
        <ele>1569.97</ele>
        <time>2013-07-25T06:01:26Z</time>
      </trkpt>
      <trkpt lat="44.88053" lon="6.08925">
        <ele>1571.89</ele>
        <time>2013-07-25T06:01:43Z</time>
      </trkpt>
      <trkpt lat="44.88056" lon="6.08924">
        <ele>1573.82</ele>
        <time>2013-07-25T06:02:03Z</time>
      </trkpt>
      <trkpt lat="44.8806" lon="6.08923">
        <ele>1576.22</ele>
        <time>2013-07-25T06:02:19Z</time>
      </trkpt>
      <trkpt lat="44.88062" lon="6.08921">
        <ele>1578.62</ele>
        <time>2013-07-25T06:02:41Z</time>
      </trkpt>
      <trkpt lat="44.88078" lon="6.08905">
        <ele>1581.03</ele>
        <time>2013-07-25T06:03:01Z</time>
      </trkpt>
      <trkpt lat="44.88085" lon="6.08903">
        <ele>1582.95</ele>
        <time>2013-07-25T06:03:20Z</time>
      </trkpt>
      <trkpt lat="44.88093" lon="6.08901">
        <ele>1584.39</ele>
        <time>2013-07-25T06:03:38Z</time>
      </trkpt>
      <trkpt lat="44.88096" lon="6.08896">
        <ele>1586.79</ele>
        <time>2013-07-25T06:03:56Z</time>
      </trkpt>
      <trkpt lat="44.88101" lon="6.08893">
        <ele>1589.2</ele>
        <time>2013-07-25T06:04:18Z</time>
      </trkpt>
      <trkpt lat="44.88109" lon="6.0889">
        <ele>1591.6</ele>
        <time>2013-07-25T06:04:39Z</time>
      </trkpt>
      <trkpt lat="44.88116" lon="6.08881">
        <ele>1593.04</ele>
        <time>2013-07-25T06:04:54Z</time>
      </trkpt>
      <trkpt lat="44.88122" lon="6.08874">
        <ele>1594.48</ele>
        <time>2013-07-25T06:05:13Z</time>
      </trkpt>
      <trkpt lat="44.8813" lon="6.08864">
        <ele>1595.93</ele>
        <time>2013-07-25T06:05:28Z</time>
      </trkpt>
      <trkpt lat="44.88137" lon="6.08863">
        <ele>1597.37</ele>
        <time>2013-07-25T06:05:46Z</time>
      </trkpt>
      <trkpt lat="44.88146" lon="6.0886">
        <ele>1599.29</ele>
        <time>2013-07-25T06:06:02Z</time>
      </trkpt>
      <trkpt lat="44.8815" lon="6.08858">
        <ele>1600.73</ele>
        <time>2013-07-25T06:06:20Z</time>
      </trkpt>
      <trkpt lat="44.8815" lon="6.08858">
        <ele>1601.69</ele>
        <time>2013-07-25T06:06:22Z</time>
      </trkpt>
      <trkpt lat="44.88153" lon="6.0886">
        <ele>1602.66</ele>
        <time>2013-07-25T06:06:38Z</time>
      </trkpt>
      <trkpt lat="44.88159" lon="6.08859">
        <ele>1603.14</ele>
        <time>2013-07-25T06:06:48Z</time>
      </trkpt>
      <trkpt lat="44.88163" lon="6.08861">
        <ele>1605.06</ele>
        <time>2013-07-25T06:07:03Z</time>
      </trkpt>
      <trkpt lat="44.88166" lon="6.08859">
        <ele>1606.5</ele>
        <time>2013-07-25T06:07:16Z</time>
      </trkpt>
      <trkpt lat="44.8817" lon="6.08859">
        <ele>1608.9</ele>
        <time>2013-07-25T06:07:36Z</time>
      </trkpt>
      <trkpt lat="44.88178" lon="6.08855">
        <ele>1610.35</ele>
        <time>2013-07-25T06:07:54Z</time>
      </trkpt>
      <trkpt lat="44.88189" lon="6.08846">
        <ele>1611.31</ele>
        <time>2013-07-25T06:08:09Z</time>
      </trkpt>
      <trkpt lat="44.88192" lon="6.08846">
        <ele>1613.23</ele>
        <time>2013-07-25T06:08:24Z</time>
      </trkpt>
      <trkpt lat="44.88194" lon="6.08846">
        <ele>1615.63</ele>
        <time>2013-07-25T06:08:43Z</time>
      </trkpt>
      <trkpt lat="44.88194" lon="6.08846">
        <ele>1617.56</ele>
        <time>2013-07-25T06:09:00Z</time>
      </trkpt>
      <trkpt lat="44.88195" lon="6.08846">
        <ele>1619.48</ele>
        <time>2013-07-25T06:09:16Z</time>
      </trkpt>
      <trkpt lat="44.88199" lon="6.08842">
        <ele>1620.44</ele>
        <time>2013-07-25T06:09:31Z</time>
      </trkpt>
      <trkpt lat="44.88199" lon="6.08842">
        <ele>1621.4</ele>
        <time>2013-07-25T06:10:01Z</time>
      </trkpt>
      <trkpt lat="44.88208" lon="6.08835">
        <ele>1622.36</ele>
        <time>2013-07-25T06:10:16Z</time>
      </trkpt>
      <trkpt lat="44.88213" lon="6.08832">
        <ele>1624.77</ele>
        <time>2013-07-25T06:10:32Z</time>
      </trkpt>
      <trkpt lat="44.8822" lon="6.0883">
        <ele>1627.17</ele>
        <time>2013-07-25T06:10:52Z</time>
      </trkpt>
      <trkpt lat="44.88222" lon="6.08829">
        <ele>1629.09</ele>
        <time>2013-07-25T06:11:07Z</time>
      </trkpt>
      <trkpt lat="44.88233" lon="6.08823">
        <ele>1629.57</ele>
        <time>2013-07-25T06:11:20Z</time>
      </trkpt>
      <trkpt lat="44.88244" lon="6.0882">
        <ele>1631.98</ele>
        <time>2013-07-25T06:11:36Z</time>
      </trkpt>
      <trkpt lat="44.88247" lon="6.08818">
        <ele>1632.46</ele>
        <time>2013-07-25T06:11:49Z</time>
      </trkpt>
      <trkpt lat="44.88255" lon="6.08816">
        <ele>1633.9</ele>
        <time>2013-07-25T06:12:05Z</time>
      </trkpt>
      <trkpt lat="44.88255" lon="6.08817">
        <ele>1636.3</ele>
        <time>2013-07-25T06:12:25Z</time>
      </trkpt>
      <trkpt lat="44.88261" lon="6.08816">
        <ele>1639.19</ele>
        <time>2013-07-25T06:12:43Z</time>
      </trkpt>
      <trkpt lat="44.88266" lon="6.08815">
        <ele>1641.11</ele>
        <time>2013-07-25T06:12:58Z</time>
      </trkpt>
      <trkpt lat="44.88276" lon="6.08808">
        <ele>1643.03</ele>
        <time>2013-07-25T06:13:16Z</time>
      </trkpt>
      <trkpt lat="44.88283" lon="6.08805">
        <ele>1644.47</ele>
        <time>2013-07-25T06:13:33Z</time>
      </trkpt>
      <trkpt lat="44.88284" lon="6.08806">
        <ele>1647.84</ele>
        <time>2013-07-25T06:13:55Z</time>
      </trkpt>
      <trkpt lat="44.88288" lon="6.08808">
        <ele>1649.28</ele>
        <time>2013-07-25T06:14:12Z</time>
      </trkpt>
      <trkpt lat="44.88291" lon="6.0881">
        <ele>1650.72</ele>
        <time>2013-07-25T06:14:28Z</time>
      </trkpt>
      <trkpt lat="44.88295" lon="6.08809">
        <ele>1653.12</ele>
        <time>2013-07-25T06:14:46Z</time>
      </trkpt>
      <trkpt lat="44.88298" lon="6.0881">
        <ele>1654.57</ele>
        <time>2013-07-25T06:15:03Z</time>
      </trkpt>
      <trkpt lat="44.88305" lon="6.08807">
        <ele>1656.49</ele>
        <time>2013-07-25T06:15:19Z</time>
      </trkpt>
      <trkpt lat="44.8831" lon="6.08806">
        <ele>1657.93</ele>
        <time>2013-07-25T06:15:33Z</time>
      </trkpt>
      <trkpt lat="44.88314" lon="6.08801">
        <ele>1660.33</ele>
        <time>2013-07-25T06:15:51Z</time>
      </trkpt>
      <trkpt lat="44.88318" lon="6.08796">
        <ele>1662.74</ele>
        <time>2013-07-25T06:16:15Z</time>
      </trkpt>
      <trkpt lat="44.88328" lon="6.0879">
        <ele>1664.66</ele>
        <time>2013-07-25T06:16:33Z</time>
      </trkpt>
      <trkpt lat="44.88332" lon="6.08787">
        <ele>1665.62</ele>
        <time>2013-07-25T06:16:48Z</time>
      </trkpt>
      <trkpt lat="44.88337" lon="6.08791">
        <ele>1668.99</ele>
        <time>2013-07-25T06:17:04Z</time>
      </trkpt>
      <trkpt lat="44.88347" lon="6.08782">
        <ele>1670.43</ele>
        <time>2013-07-25T06:17:22Z</time>
      </trkpt>
      <trkpt lat="44.88352" lon="6.08776">
        <ele>1672.35</ele>
        <time>2013-07-25T06:17:41Z</time>
      </trkpt>
      <trkpt lat="44.88352" lon="6.08777">
        <ele>1673.31</ele>
        <time>2013-07-25T06:17:48Z</time>
      </trkpt>
      <trkpt lat="44.88355" lon="6.08784">
        <ele>1674.75</ele>
        <time>2013-07-25T06:18:02Z</time>
      </trkpt>
      <trkpt lat="44.88359" lon="6.08781">
        <ele>1676.2</ele>
        <time>2013-07-25T06:18:10Z</time>
      </trkpt>
      <trkpt lat="44.88364" lon="6.08776">
        <ele>1677.64</ele>
        <time>2013-07-25T06:18:26Z</time>
      </trkpt>
      <trkpt lat="44.88369" lon="6.08774">
        <ele>1679.56</ele>
        <time>2013-07-25T06:18:39Z</time>
      </trkpt>
      <trkpt lat="44.88376" lon="6.08777">
        <ele>1681.48</ele>
        <time>2013-07-25T06:18:56Z</time>
      </trkpt>
      <trkpt lat="44.88383" lon="6.08777">
        <ele>1683.41</ele>
        <time>2013-07-25T06:19:13Z</time>
      </trkpt>
      <trkpt lat="44.88386" lon="6.08779">
        <ele>1685.33</ele>
        <time>2013-07-25T06:19:31Z</time>
      </trkpt>
      <trkpt lat="44.88386" lon="6.08779">
        <ele>1687.73</ele>
        <time>2013-07-25T06:19:51Z</time>
      </trkpt>
      <trkpt lat="44.88387" lon="6.08778">
        <ele>1687.73</ele>
        <time>2013-07-25T06:20:08Z</time>
      </trkpt>
      <trkpt lat="44.8839" lon="6.08777">
        <ele>1688.21</ele>
        <time>2013-07-25T06:20:24Z</time>
      </trkpt>
      <trkpt lat="44.8839" lon="6.08777">
        <ele>1691.1</ele>
        <time>2013-07-25T06:20:46Z</time>
      </trkpt>
      <trkpt lat="44.884" lon="6.08775">
        <ele>1692.06</ele>
        <time>2013-07-25T06:21:05Z</time>
      </trkpt>
      <trkpt lat="44.884" lon="6.08775">
        <ele>1693.98</ele>
        <time>2013-07-25T06:21:21Z</time>
      </trkpt>
      <trkpt lat="44.88403" lon="6.08776">
        <ele>1693.5</ele>
        <time>2013-07-25T06:21:42Z</time>
      </trkpt>
      <trkpt lat="44.88405" lon="6.08777">
        <ele>1692.06</ele>
        <time>2013-07-25T06:22:54Z</time>
      </trkpt>
      <trkpt lat="44.88413" lon="6.0878">
        <ele>1692.54</ele>
        <time>2013-07-25T06:25:28Z</time>
      </trkpt>
      <trkpt lat="44.88415" lon="6.0878">
        <ele>1693.02</ele>
        <time>2013-07-25T06:26:50Z</time>
      </trkpt>
      <trkpt lat="44.88415" lon="6.08781">
        <ele>1692.54</ele>
        <time>2013-07-25T06:27:08Z</time>
      </trkpt>
      <trkpt lat="44.88415" lon="6.08779">
        <ele>1693.5</ele>
        <time>2013-07-25T06:27:25Z</time>
      </trkpt>
      <trkpt lat="44.88416" lon="6.08777">
        <ele>1694.46</ele>
        <time>2013-07-25T06:27:39Z</time>
      </trkpt>
      <trkpt lat="44.88416" lon="6.08777">
        <ele>1696.86</ele>
        <time>2013-07-25T06:27:55Z</time>
      </trkpt>
      <trkpt lat="44.88416" lon="6.08777">
        <ele>1699.27</ele>
        <time>2013-07-25T06:28:10Z</time>
      </trkpt>
      <trkpt lat="44.88416" lon="6.08777">
        <ele>1701.19</ele>
        <time>2013-07-25T06:28:30Z</time>
      </trkpt>
      <trkpt lat="44.88422" lon="6.08768">
        <ele>1703.11</ele>
        <time>2013-07-25T06:28:45Z</time>
      </trkpt>
      <trkpt lat="44.88422" lon="6.08768">
        <ele>1706</ele>
        <time>2013-07-25T06:29:03Z</time>
      </trkpt>
      <trkpt lat="44.88422" lon="6.08768">
        <ele>1707.92</ele>
        <time>2013-07-25T06:29:22Z</time>
      </trkpt>
      <trkpt lat="44.88427" lon="6.08764">
        <ele>1709.36</ele>
        <time>2013-07-25T06:29:36Z</time>
      </trkpt>
      <trkpt lat="44.88427" lon="6.08764">
        <ele>1710.32</ele>
        <time>2013-07-25T06:29:51Z</time>
      </trkpt>
      <trkpt lat="44.88432" lon="6.0876">
        <ele>1711.76</ele>
        <time>2013-07-25T06:30:07Z</time>
      </trkpt>
      <trkpt lat="44.88432" lon="6.0876">
        <ele>1715.13</ele>
        <time>2013-07-25T06:30:28Z</time>
      </trkpt>
      <trkpt lat="44.88432" lon="6.0876">
        <ele>1715.61</ele>
        <time>2013-07-25T06:30:43Z</time>
      </trkpt>
      <trkpt lat="44.88435" lon="6.08756">
        <ele>1717.53</ele>
        <time>2013-07-25T06:30:57Z</time>
      </trkpt>
      <trkpt lat="44.88435" lon="6.08756">
        <ele>1718.97</ele>
        <time>2013-07-25T06:31:14Z</time>
      </trkpt>
      <trkpt lat="44.88438" lon="6.08754">
        <ele>1720.9</ele>
        <time>2013-07-25T06:31:31Z</time>
      </trkpt>
      <trkpt lat="44.88438" lon="6.08754">
        <ele>1722.82</ele>
        <time>2013-07-25T06:31:51Z</time>
      </trkpt>
      <trkpt lat="44.88443" lon="6.08742">
        <ele>1724.26</ele>
        <time>2013-07-25T06:32:09Z</time>
      </trkpt>
      <trkpt lat="44.88443" lon="6.08739">
        <ele>1727.15</ele>
        <time>2013-07-25T06:32:27Z</time>
      </trkpt>
      <trkpt lat="44.88443" lon="6.08739">
        <ele>1728.11</ele>
        <time>2013-07-25T06:32:32Z</time>
      </trkpt>
      <trkpt lat="44.88443" lon="6.08739">
        <ele>1728.11</ele>
        <time>2013-07-25T06:32:47Z</time>
      </trkpt>
      <trkpt lat="44.88447" lon="6.08736">
        <ele>1730.99</ele>
        <time>2013-07-25T06:33:05Z</time>
      </trkpt>
      <trkpt lat="44.88447" lon="6.08736">
        <ele>1732.43</ele>
        <time>2013-07-25T06:33:23Z</time>
      </trkpt>
      <trkpt lat="44.88447" lon="6.08736">
        <ele>1733.88</ele>
        <time>2013-07-25T06:33:38Z</time>
      </trkpt>
      <trkpt lat="44.88453" lon="6.08729">
        <ele>1735.32</ele>
        <time>2013-07-25T06:33:52Z</time>
      </trkpt>
      <trkpt lat="44.88463" lon="6.08724">
        <ele>1736.76</ele>
        <time>2013-07-25T06:34:07Z</time>
      </trkpt>
      <trkpt lat="44.88463" lon="6.08724">
        <ele>1738.68</ele>
        <time>2013-07-25T06:34:31Z</time>
      </trkpt>
      <trkpt lat="44.88466" lon="6.08724">
        <ele>1740.12</ele>
        <time>2013-07-25T06:34:49Z</time>
      </trkpt>
      <trkpt lat="44.88466" lon="6.08724">
        <ele>1742.05</ele>
        <time>2013-07-25T06:35:03Z</time>
      </trkpt>
      <trkpt lat="44.88468" lon="6.08724">
        <ele>1742.53</ele>
        <time>2013-07-25T06:35:31Z</time>
      </trkpt>
      <trkpt lat="44.88468" lon="6.08724">
        <ele>1745.41</ele>
        <time>2013-07-25T06:35:50Z</time>
      </trkpt>
      <trkpt lat="44.88471" lon="6.08723">
        <ele>1746.37</ele>
        <time>2013-07-25T06:36:10Z</time>
      </trkpt>
      <trkpt lat="44.88473" lon="6.08723">
        <ele>1748.29</ele>
        <time>2013-07-25T06:36:29Z</time>
      </trkpt>
      <trkpt lat="44.88476" lon="6.08721">
        <ele>1750.22</ele>
        <time>2013-07-25T06:36:42Z</time>
      </trkpt>
      <trkpt lat="44.88476" lon="6.08721">
        <ele>1750.7</ele>
        <time>2013-07-25T06:36:58Z</time>
      </trkpt>
      <trkpt lat="44.88479" lon="6.08721">
        <ele>1752.62</ele>
        <time>2013-07-25T06:37:20Z</time>
      </trkpt>
      <trkpt lat="44.88479" lon="6.08721">
        <ele>1754.54</ele>
        <time>2013-07-25T06:37:36Z</time>
      </trkpt>
      <trkpt lat="44.8848" lon="6.0872">
        <ele>1755.02</ele>
        <time>2013-07-25T06:37:52Z</time>
      </trkpt>
      <trkpt lat="44.8848" lon="6.0872">
        <ele>1756.47</ele>
        <time>2013-07-25T06:38:08Z</time>
      </trkpt>
      <trkpt lat="44.8848" lon="6.0872">
        <ele>1756.95</ele>
        <time>2013-07-25T06:38:24Z</time>
      </trkpt>
      <trkpt lat="44.88482" lon="6.0872">
        <ele>1759.35</ele>
        <time>2013-07-25T06:38:42Z</time>
      </trkpt>
      <trkpt lat="44.88482" lon="6.0872">
        <ele>1759.83</ele>
        <time>2013-07-25T06:39:00Z</time>
      </trkpt>
      <trkpt lat="44.88485" lon="6.08719">
        <ele>1760.79</ele>
        <time>2013-07-25T06:39:14Z</time>
      </trkpt>
      <trkpt lat="44.88485" lon="6.08719">
        <ele>1762.23</ele>
        <time>2013-07-25T06:39:30Z</time>
      </trkpt>
      <trkpt lat="44.88492" lon="6.08718">
        <ele>1764.16</ele>
        <time>2013-07-25T06:39:47Z</time>
      </trkpt>
      <trkpt lat="44.88492" lon="6.08718">
        <ele>1765.12</ele>
        <time>2013-07-25T06:40:03Z</time>
      </trkpt>
      <trkpt lat="44.88495" lon="6.08717">
        <ele>1765.6</ele>
        <time>2013-07-25T06:40:20Z</time>
      </trkpt>
      <trkpt lat="44.88499" lon="6.08717">
        <ele>1767.04</ele>
        <time>2013-07-25T06:40:36Z</time>
      </trkpt>
      <trkpt lat="44.88506" lon="6.08714">
        <ele>1768.48</ele>
        <time>2013-07-25T06:40:52Z</time>
      </trkpt>
      <trkpt lat="44.88506" lon="6.08714">
        <ele>1769.92</ele>
        <time>2013-07-25T06:41:07Z</time>
      </trkpt>
      <trkpt lat="44.88507" lon="6.08712">
        <ele>1771.37</ele>
        <time>2013-07-25T06:41:24Z</time>
      </trkpt>
      <trkpt lat="44.88521" lon="6.0871">
        <ele>1771.85</ele>
        <time>2013-07-25T06:41:36Z</time>
      </trkpt>
      <trkpt lat="44.88521" lon="6.0871">
        <ele>1772.81</ele>
        <time>2013-07-25T06:41:50Z</time>
      </trkpt>
      <trkpt lat="44.88529" lon="6.08706">
        <ele>1773.77</ele>
        <time>2013-07-25T06:42:05Z</time>
      </trkpt>
      <trkpt lat="44.88529" lon="6.08706">
        <ele>1774.73</ele>
        <time>2013-07-25T06:42:19Z</time>
      </trkpt>
      <trkpt lat="44.88529" lon="6.08706">
        <ele>1775.21</ele>
        <time>2013-07-25T06:42:31Z</time>
      </trkpt>
      <trkpt lat="44.88538" lon="6.08703">
        <ele>1776.65</ele>
        <time>2013-07-25T06:42:43Z</time>
      </trkpt>
      <trkpt lat="44.88543" lon="6.08702">
        <ele>1776.65</ele>
        <time>2013-07-25T06:42:58Z</time>
      </trkpt>
      <trkpt lat="44.88543" lon="6.08702">
        <ele>1777.61</ele>
        <time>2013-07-25T06:43:10Z</time>
      </trkpt>
      <trkpt lat="44.8855" lon="6.08698">
        <ele>1778.58</ele>
        <time>2013-07-25T06:43:23Z</time>
      </trkpt>
      <trkpt lat="44.8855" lon="6.08698">
        <ele>1779.06</ele>
        <time>2013-07-25T06:43:34Z</time>
      </trkpt>
      <trkpt lat="44.8855" lon="6.08698">
        <ele>1780.98</ele>
        <time>2013-07-25T06:43:52Z</time>
      </trkpt>
      <trkpt lat="44.88552" lon="6.08697">
        <ele>1781.94</ele>
        <time>2013-07-25T06:44:07Z</time>
      </trkpt>
      <trkpt lat="44.88552" lon="6.08697">
        <ele>1783.86</ele>
        <time>2013-07-25T06:44:24Z</time>
      </trkpt>
      <trkpt lat="44.8855" lon="6.08681">
        <ele>1784.34</ele>
        <time>2013-07-25T06:44:37Z</time>
      </trkpt>
      <trkpt lat="44.88576" lon="6.08659">
        <ele>1786.27</ele>
        <time>2013-07-25T06:44:55Z</time>
      </trkpt>
      <trkpt lat="44.88594" lon="6.08645">
        <ele>1786.75</ele>
        <time>2013-07-25T06:45:06Z</time>
      </trkpt>
      <trkpt lat="44.88616" lon="6.08632">
        <ele>1788.19</ele>
        <time>2013-07-25T06:45:22Z</time>
      </trkpt>
      <trkpt lat="44.88616" lon="6.08631">
        <ele>1788.67</ele>
        <time>2013-07-25T06:45:34Z</time>
      </trkpt>
      <trkpt lat="44.8861" lon="6.08638">
        <ele>1791.07</ele>
        <time>2013-07-25T06:45:50Z</time>
      </trkpt>
      <trkpt lat="44.8861" lon="6.08642">
        <ele>1792.03</ele>
        <time>2013-07-25T06:46:09Z</time>
      </trkpt>
      <trkpt lat="44.88612" lon="6.08654">
        <ele>1794.44</ele>
        <time>2013-07-25T06:46:26Z</time>
      </trkpt>
      <trkpt lat="44.88615" lon="6.08656">
        <ele>1795.4</ele>
        <time>2013-07-25T06:46:37Z</time>
      </trkpt>
      <trkpt lat="44.88621" lon="6.08651">
        <ele>1796.84</ele>
        <time>2013-07-25T06:46:50Z</time>
      </trkpt>
      <trkpt lat="44.88628" lon="6.08642">
        <ele>1799.24</ele>
        <time>2013-07-25T06:47:09Z</time>
      </trkpt>
      <trkpt lat="44.88633" lon="6.08635">
        <ele>1800.21</ele>
        <time>2013-07-25T06:47:24Z</time>
      </trkpt>
      <trkpt lat="44.88627" lon="6.08645">
        <ele>1802.13</ele>
        <time>2013-07-25T06:47:41Z</time>
      </trkpt>
      <trkpt lat="44.88627" lon="6.08651">
        <ele>1803.57</ele>
        <time>2013-07-25T06:47:57Z</time>
      </trkpt>
      <trkpt lat="44.88634" lon="6.08644">
        <ele>1805.49</ele>
        <time>2013-07-25T06:48:12Z</time>
      </trkpt>
      <trkpt lat="44.8864" lon="6.08634">
        <ele>1807.9</ele>
        <time>2013-07-25T06:48:31Z</time>
      </trkpt>
      <trkpt lat="44.88644" lon="6.08628">
        <ele>1809.82</ele>
        <time>2013-07-25T06:48:45Z</time>
      </trkpt>
      <trkpt lat="44.8865" lon="6.08622">
        <ele>1811.74</ele>
        <time>2013-07-25T06:48:59Z</time>
      </trkpt>
      <trkpt lat="44.88648" lon="6.08631">
        <ele>1813.18</ele>
        <time>2013-07-25T06:49:13Z</time>
      </trkpt>
      <trkpt lat="44.88648" lon="6.08641">
        <ele>1814.63</ele>
        <time>2013-07-25T06:49:35Z</time>
      </trkpt>
      <trkpt lat="44.8865" lon="6.08639">
        <ele>1817.03</ele>
        <time>2013-07-25T06:49:51Z</time>
      </trkpt>
      <trkpt lat="44.88653" lon="6.08628">
        <ele>1819.43</ele>
        <time>2013-07-25T06:50:07Z</time>
      </trkpt>
      <trkpt lat="44.88657" lon="6.08621">
        <ele>1821.35</ele>
        <time>2013-07-25T06:50:22Z</time>
      </trkpt>
      <trkpt lat="44.88659" lon="6.08613">
        <ele>1822.32</ele>
        <time>2013-07-25T06:50:35Z</time>
      </trkpt>
      <trkpt lat="44.88662" lon="6.08603">
        <ele>1824.24</ele>
        <time>2013-07-25T06:50:51Z</time>
      </trkpt>
      <trkpt lat="44.88663" lon="6.08594">
        <ele>1827.12</ele>
        <time>2013-07-25T06:51:06Z</time>
      </trkpt>
      <trkpt lat="44.88668" lon="6.08586">
        <ele>1828.08</ele>
        <time>2013-07-25T06:51:21Z</time>
      </trkpt>
      <trkpt lat="44.8867" lon="6.08597">
        <ele>1829.53</ele>
        <time>2013-07-25T06:51:37Z</time>
      </trkpt>
      <trkpt lat="44.88673" lon="6.08608">
        <ele>1831.93</ele>
        <time>2013-07-25T06:51:51Z</time>
      </trkpt>
      <trkpt lat="44.88673" lon="6.0861">
        <ele>1832.89</ele>
        <time>2013-07-25T06:52:06Z</time>
      </trkpt>
      <trkpt lat="44.88676" lon="6.086">
        <ele>1834.81</ele>
        <time>2013-07-25T06:52:21Z</time>
      </trkpt>
      <trkpt lat="44.88676" lon="6.08597">
        <ele>1837.22</ele>
        <time>2013-07-25T06:52:35Z</time>
      </trkpt>
      <trkpt lat="44.88682" lon="6.08586">
        <ele>1838.18</ele>
        <time>2013-07-25T06:52:49Z</time>
      </trkpt>
      <trkpt lat="44.88683" lon="6.08581">
        <ele>1841.06</ele>
        <time>2013-07-25T06:53:02Z</time>
      </trkpt>
      <trkpt lat="44.88688" lon="6.08584">
        <ele>1842.5</ele>
        <time>2013-07-25T06:53:16Z</time>
      </trkpt>
      <trkpt lat="44.8869" lon="6.08597">
        <ele>1844.91</ele>
        <time>2013-07-25T06:53:34Z</time>
      </trkpt>
      <trkpt lat="44.8869" lon="6.08605">
        <ele>1846.83</ele>
        <time>2013-07-25T06:53:48Z</time>
      </trkpt>
      <trkpt lat="44.88689" lon="6.08621">
        <ele>1848.75</ele>
        <time>2013-07-25T06:54:08Z</time>
      </trkpt>
      <trkpt lat="44.8869" lon="6.08618">
        <ele>1850.68</ele>
        <time>2013-07-25T06:54:23Z</time>
      </trkpt>
      <trkpt lat="44.88694" lon="6.08606">
        <ele>1853.08</ele>
        <time>2013-07-25T06:54:40Z</time>
      </trkpt>
      <trkpt lat="44.88697" lon="6.08599">
        <ele>1855</ele>
        <time>2013-07-25T06:54:55Z</time>
      </trkpt>
      <trkpt lat="44.88701" lon="6.08586">
        <ele>1856.92</ele>
        <time>2013-07-25T06:55:10Z</time>
      </trkpt>
      <trkpt lat="44.88702" lon="6.08583">
        <ele>1856.92</ele>
        <time>2013-07-25T06:55:13Z</time>
      </trkpt>
      <trkpt lat="44.88706" lon="6.08575">
        <ele>1858.37</ele>
        <time>2013-07-25T06:55:28Z</time>
      </trkpt>
      <trkpt lat="44.88711" lon="6.08565">
        <ele>1860.29</ele>
        <time>2013-07-25T06:55:41Z</time>
      </trkpt>
      <trkpt lat="44.88713" lon="6.08553">
        <ele>1862.21</ele>
        <time>2013-07-25T06:55:58Z</time>
      </trkpt>
      <trkpt lat="44.88717" lon="6.08542">
        <ele>1864.13</ele>
        <time>2013-07-25T06:56:14Z</time>
      </trkpt>
      <trkpt lat="44.88719" lon="6.08532">
        <ele>1865.09</ele>
        <time>2013-07-25T06:56:31Z</time>
      </trkpt>
      <trkpt lat="44.88723" lon="6.08541">
        <ele>1867.5</ele>
        <time>2013-07-25T06:56:45Z</time>
      </trkpt>
      <trkpt lat="44.88725" lon="6.08554">
        <ele>1869.42</ele>
        <time>2013-07-25T06:57:01Z</time>
      </trkpt>
      <trkpt lat="44.88727" lon="6.08566">
        <ele>1871.82</ele>
        <time>2013-07-25T06:57:19Z</time>
      </trkpt>
      <trkpt lat="44.88728" lon="6.08559">
        <ele>1873.75</ele>
        <time>2013-07-25T06:57:32Z</time>
      </trkpt>
      <trkpt lat="44.8873" lon="6.08548">
        <ele>1875.19</ele>
        <time>2013-07-25T06:57:46Z</time>
      </trkpt>
      <trkpt lat="44.88732" lon="6.08536">
        <ele>1877.59</ele>
        <time>2013-07-25T06:58:00Z</time>
      </trkpt>
      <trkpt lat="44.88737" lon="6.08536">
        <ele>1879.03</ele>
        <time>2013-07-25T06:58:14Z</time>
      </trkpt>
      <trkpt lat="44.88739" lon="6.08545">
        <ele>1880.96</ele>
        <time>2013-07-25T06:58:29Z</time>
      </trkpt>
      <trkpt lat="44.8874" lon="6.08558">
        <ele>1883.36</ele>
        <time>2013-07-25T06:58:47Z</time>
      </trkpt>
      <trkpt lat="44.88742" lon="6.08566">
        <ele>1885.28</ele>
        <time>2013-07-25T06:59:03Z</time>
      </trkpt>
      <trkpt lat="44.88743" lon="6.08562">
        <ele>1888.17</ele>
        <time>2013-07-25T06:59:18Z</time>
      </trkpt>
      <trkpt lat="44.88747" lon="6.0855">
        <ele>1890.57</ele>
        <time>2013-07-25T06:59:36Z</time>
      </trkpt>
      <trkpt lat="44.88752" lon="6.08544">
        <ele>1892.01</ele>
        <time>2013-07-25T06:59:52Z</time>
      </trkpt>
      <trkpt lat="44.88758" lon="6.08548">
        <ele>1895.38</ele>
        <time>2013-07-25T07:00:11Z</time>
      </trkpt>
      <trkpt lat="44.8876" lon="6.0855">
        <ele>1896.82</ele>
        <time>2013-07-25T07:00:25Z</time>
      </trkpt>
      <trkpt lat="44.88757" lon="6.08564">
        <ele>1900.18</ele>
        <time>2013-07-25T07:00:48Z</time>
      </trkpt>
      <trkpt lat="44.88758" lon="6.08574">
        <ele>1901.63</ele>
        <time>2013-07-25T07:01:04Z</time>
      </trkpt>
      <trkpt lat="44.88759" lon="6.08571">
        <ele>1904.03</ele>
        <time>2013-07-25T07:01:22Z</time>
      </trkpt>
      <trkpt lat="44.88761" lon="6.08566">
        <ele>1905.47</ele>
        <time>2013-07-25T07:01:38Z</time>
      </trkpt>
      <trkpt lat="44.88768" lon="6.08558">
        <ele>1907.39</ele>
        <time>2013-07-25T07:01:53Z</time>
      </trkpt>
      <trkpt lat="44.88778" lon="6.0855">
        <ele>1909.32</ele>
        <time>2013-07-25T07:02:11Z</time>
      </trkpt>
      <trkpt lat="44.88785" lon="6.08543">
        <ele>1911.72</ele>
        <time>2013-07-25T07:02:28Z</time>
      </trkpt>
      <trkpt lat="44.8879" lon="6.0854">
        <ele>1913.64</ele>
        <time>2013-07-25T07:02:40Z</time>
      </trkpt>
      <trkpt lat="44.88796" lon="6.08537">
        <ele>1916.04</ele>
        <time>2013-07-25T07:02:55Z</time>
      </trkpt>
      <trkpt lat="44.888" lon="6.08533">
        <ele>1917.49</ele>
        <time>2013-07-25T07:03:13Z</time>
      </trkpt>
      <trkpt lat="44.88805" lon="6.08533">
        <ele>1919.41</ele>
        <time>2013-07-25T07:03:34Z</time>
      </trkpt>
      <trkpt lat="44.88806" lon="6.08541">
        <ele>1921.81</ele>
        <time>2013-07-25T07:03:49Z</time>
      </trkpt>
      <trkpt lat="44.88802" lon="6.08549">
        <ele>1925.66</ele>
        <time>2013-07-25T07:04:08Z</time>
      </trkpt>
      <trkpt lat="44.88807" lon="6.0855">
        <ele>1927.1</ele>
        <time>2013-07-25T07:04:22Z</time>
      </trkpt>
      <trkpt lat="44.88812" lon="6.08548">
        <ele>1928.06</ele>
        <time>2013-07-25T07:04:36Z</time>
      </trkpt>
      <trkpt lat="44.88818" lon="6.08546">
        <ele>1930.95</ele>
        <time>2013-07-25T07:04:53Z</time>
      </trkpt>
      <trkpt lat="44.88824" lon="6.08542">
        <ele>1931.91</ele>
        <time>2013-07-25T07:05:07Z</time>
      </trkpt>
      <trkpt lat="44.8883" lon="6.08539">
        <ele>1933.83</ele>
        <time>2013-07-25T07:05:22Z</time>
      </trkpt>
      <trkpt lat="44.88834" lon="6.08538">
        <ele>1935.27</ele>
        <time>2013-07-25T07:05:37Z</time>
      </trkpt>
      <trkpt lat="44.88838" lon="6.08538">
        <ele>1937.19</ele>
        <time>2013-07-25T07:05:51Z</time>
      </trkpt>
      <trkpt lat="44.8884" lon="6.08542">
        <ele>1939.6</ele>
        <time>2013-07-25T07:06:04Z</time>
      </trkpt>
      <trkpt lat="44.88845" lon="6.08543">
        <ele>1942.48</ele>
        <time>2013-07-25T07:06:22Z</time>
      </trkpt>
      <trkpt lat="44.88851" lon="6.08544">
        <ele>1943.44</ele>
        <time>2013-07-25T07:06:37Z</time>
      </trkpt>
      <trkpt lat="44.88855" lon="6.08547">
        <ele>1944.4</ele>
        <time>2013-07-25T07:06:53Z</time>
      </trkpt>
      <trkpt lat="44.88858" lon="6.08548">
        <ele>1947.77</ele>
        <time>2013-07-25T07:07:07Z</time>
      </trkpt>
      <trkpt lat="44.88862" lon="6.08545">
        <ele>1948.25</ele>
        <time>2013-07-25T07:07:26Z</time>
      </trkpt>
      <trkpt lat="44.88861" lon="6.08541">
        <ele>1950.17</ele>
        <time>2013-07-25T07:07:46Z</time>
      </trkpt>
      <trkpt lat="44.88859" lon="6.08527">
        <ele>1953.06</ele>
        <time>2013-07-25T07:08:05Z</time>
      </trkpt>
      <trkpt lat="44.88858" lon="6.08522">
        <ele>1954.98</ele>
        <time>2013-07-25T07:08:19Z</time>
      </trkpt>
      <trkpt lat="44.88857" lon="6.08516">
        <ele>1958.34</ele>
        <time>2013-07-25T07:08:36Z</time>
      </trkpt>
      <trkpt lat="44.88857" lon="6.08505">
        <ele>1959.78</ele>
        <time>2013-07-25T07:08:53Z</time>
      </trkpt>
      <trkpt lat="44.88857" lon="6.08501">
        <ele>1961.71</ele>
        <time>2013-07-25T07:09:12Z</time>
      </trkpt>
      <trkpt lat="44.88857" lon="6.08497">
        <ele>1964.59</ele>
        <time>2013-07-25T07:09:32Z</time>
      </trkpt>
      <trkpt lat="44.88857" lon="6.08483">
        <ele>1966.99</ele>
        <time>2013-07-25T07:09:49Z</time>
      </trkpt>
      <trkpt lat="44.88858" lon="6.08478">
        <ele>1968.44</ele>
        <time>2013-07-25T07:10:12Z</time>
      </trkpt>
      <trkpt lat="44.88857" lon="6.08468">
        <ele>1969.4</ele>
        <time>2013-07-25T07:10:30Z</time>
      </trkpt>
      <trkpt lat="44.88852" lon="6.08457">
        <ele>1972.28</ele>
        <time>2013-07-25T07:10:49Z</time>
      </trkpt>
      <trkpt lat="44.8885" lon="6.08449">
        <ele>1974.2</ele>
        <time>2013-07-25T07:11:05Z</time>
      </trkpt>
      <trkpt lat="44.88852" lon="6.08444">
        <ele>1976.61</ele>
        <time>2013-07-25T07:11:22Z</time>
      </trkpt>
      <trkpt lat="44.88852" lon="6.08441">
        <ele>1979.01</ele>
        <time>2013-07-25T07:11:42Z</time>
      </trkpt>
      <trkpt lat="44.88858" lon="6.08439">
        <ele>1980.45</ele>
        <time>2013-07-25T07:11:55Z</time>
      </trkpt>
      <trkpt lat="44.88859" lon="6.08438">
        <ele>1982.86</ele>
        <time>2013-07-25T07:12:08Z</time>
      </trkpt>
      <trkpt lat="44.88858" lon="6.08435">
        <ele>1985.26</ele>
        <time>2013-07-25T07:12:23Z</time>
      </trkpt>
      <trkpt lat="44.88855" lon="6.08426">
        <ele>1987.18</ele>
        <time>2013-07-25T07:12:41Z</time>
      </trkpt>
      <trkpt lat="44.88849" lon="6.08418">
        <ele>1989.1</ele>
        <time>2013-07-25T07:12:55Z</time>
      </trkpt>
      <trkpt lat="44.88846" lon="6.08415">
        <ele>1990.55</ele>
        <time>2013-07-25T07:13:11Z</time>
      </trkpt>
      <trkpt lat="44.88841" lon="6.08408">
        <ele>1992.47</ele>
        <time>2013-07-25T07:13:29Z</time>
      </trkpt>
      <trkpt lat="44.88839" lon="6.08403">
        <ele>1993.91</ele>
        <time>2013-07-25T07:13:48Z</time>
      </trkpt>
      <trkpt lat="44.88842" lon="6.08396">
        <ele>1996.32</ele>
        <time>2013-07-25T07:14:04Z</time>
      </trkpt>
      <trkpt lat="44.88846" lon="6.08398">
        <ele>1997.76</ele>
        <time>2013-07-25T07:14:10Z</time>
      </trkpt>
      <trkpt lat="44.8885" lon="6.08395">
        <ele>1999.68</ele>
        <time>2013-07-25T07:14:25Z</time>
      </trkpt>
      <trkpt lat="44.88851" lon="6.08397">
        <ele>1999.2</ele>
        <time>2013-07-25T07:14:42Z</time>
      </trkpt>
      <trkpt lat="44.88851" lon="6.08397">
        <ele>2002.56</ele>
        <time>2013-07-25T07:17:34Z</time>
      </trkpt>
      <trkpt lat="44.88851" lon="6.08398">
        <ele>2005.93</ele>
        <time>2013-07-25T07:21:56Z</time>
      </trkpt>
      <trkpt lat="44.8885" lon="6.08398">
        <ele>2008.33</ele>
        <time>2013-07-25T07:25:41Z</time>
      </trkpt>
      <trkpt lat="44.8885" lon="6.08398">
        <ele>2008.81</ele>
        <time>2013-07-25T07:27:16Z</time>
      </trkpt>
      <trkpt lat="44.8885" lon="6.08398">
        <ele>2009.29</ele>
        <time>2013-07-25T07:28:09Z</time>
      </trkpt>
      <trkpt lat="44.8885" lon="6.08398">
        <ele>2010.25</ele>
        <time>2013-07-25T07:28:48Z</time>
      </trkpt>
      <trkpt lat="44.8885" lon="6.08397">
        <ele>2010.73</ele>
        <time>2013-07-25T07:29:43Z</time>
      </trkpt>
      <trkpt lat="44.88849" lon="6.08397">
        <ele>2011.22</ele>
        <time>2013-07-25T07:30:49Z</time>
      </trkpt>
      <trkpt lat="44.88851" lon="6.08392">
        <ele>2011.22</ele>
        <time>2013-07-25T07:31:24Z</time>
      </trkpt>
      <trkpt lat="44.88851" lon="6.08393">
        <ele>2011.22</ele>
        <time>2013-07-25T07:31:27Z</time>
      </trkpt>
      <trkpt lat="44.88852" lon="6.08398">
        <ele>2011.7</ele>
        <time>2013-07-25T07:31:52Z</time>
      </trkpt>
      <trkpt lat="44.88851" lon="6.0839">
        <ele>2011.7</ele>
        <time>2013-07-25T07:32:27Z</time>
      </trkpt>
      <trkpt lat="44.88851" lon="6.08395">
        <ele>2012.18</ele>
        <time>2013-07-25T07:34:00Z</time>
      </trkpt>
      <trkpt lat="44.88848" lon="6.08398">
        <ele>2013.62</ele>
        <time>2013-07-25T07:34:40Z</time>
      </trkpt>
      <trkpt lat="44.88848" lon="6.08397">
        <ele>2014.1</ele>
        <time>2013-07-25T07:35:10Z</time>
      </trkpt>
      <trkpt lat="44.88848" lon="6.08398">
        <ele>2015.54</ele>
        <time>2013-07-25T07:35:50Z</time>
      </trkpt>
      <trkpt lat="44.88849" lon="6.08392">
        <ele>2016.98</ele>
        <time>2013-07-25T07:36:14Z</time>
      </trkpt>
      <trkpt lat="44.88849" lon="6.08385">
        <ele>2018.91</ele>
        <time>2013-07-25T07:36:27Z</time>
      </trkpt>
      <trkpt lat="44.88848" lon="6.08377">
        <ele>2020.83</ele>
        <time>2013-07-25T07:36:40Z</time>
      </trkpt>
      <trkpt lat="44.88847" lon="6.0837">
        <ele>2022.27</ele>
        <time>2013-07-25T07:36:54Z</time>
      </trkpt>
      <trkpt lat="44.88846" lon="6.08364">
        <ele>2024.67</ele>
        <time>2013-07-25T07:37:09Z</time>
      </trkpt>
      <trkpt lat="44.88847" lon="6.08358">
        <ele>2025.64</ele>
        <time>2013-07-25T07:37:21Z</time>
      </trkpt>
      <trkpt lat="44.88849" lon="6.08351">
        <ele>2028.52</ele>
        <time>2013-07-25T07:37:44Z</time>
      </trkpt>
      <trkpt lat="44.8885" lon="6.08346">
        <ele>2029.96</ele>
        <time>2013-07-25T07:38:01Z</time>
      </trkpt>
      <trkpt lat="44.88851" lon="6.08339">
        <ele>2032.84</ele>
        <time>2013-07-25T07:38:18Z</time>
      </trkpt>
      <trkpt lat="44.88851" lon="6.08332">
        <ele>2033.33</ele>
        <time>2013-07-25T07:38:32Z</time>
      </trkpt>
      <trkpt lat="44.88853" lon="6.08326">
        <ele>2035.25</ele>
        <time>2013-07-25T07:38:56Z</time>
      </trkpt>
      <trkpt lat="44.88851" lon="6.08317">
        <ele>2036.69</ele>
        <time>2013-07-25T07:39:16Z</time>
      </trkpt>
      <trkpt lat="44.88849" lon="6.08311">
        <ele>2038.61</ele>
        <time>2013-07-25T07:39:30Z</time>
      </trkpt>
      <trkpt lat="44.8885" lon="6.08307">
        <ele>2040.54</ele>
        <time>2013-07-25T07:39:45Z</time>
      </trkpt>
      <trkpt lat="44.88857" lon="6.08302">
        <ele>2042.94</ele>
        <time>2013-07-25T07:40:05Z</time>
      </trkpt>
      <trkpt lat="44.88857" lon="6.08298">
        <ele>2044.86</ele>
        <time>2013-07-25T07:40:23Z</time>
      </trkpt>
      <trkpt lat="44.88855" lon="6.08293">
        <ele>2047.26</ele>
        <time>2013-07-25T07:40:36Z</time>
      </trkpt>
      <trkpt lat="44.8886" lon="6.08287">
        <ele>2048.71</ele>
        <time>2013-07-25T07:40:52Z</time>
      </trkpt>
      <trkpt lat="44.88858" lon="6.08281">
        <ele>2051.11</ele>
        <time>2013-07-25T07:41:09Z</time>
      </trkpt>
      <trkpt lat="44.88853" lon="6.08274">
        <ele>2052.07</ele>
        <time>2013-07-25T07:41:22Z</time>
      </trkpt>
      <trkpt lat="44.88853" lon="6.08272">
        <ele>2053.03</ele>
        <time>2013-07-25T07:41:38Z</time>
      </trkpt>
      <trkpt lat="44.88857" lon="6.08273">
        <ele>2054.96</ele>
        <time>2013-07-25T07:41:51Z</time>
      </trkpt>
      <trkpt lat="44.88861" lon="6.08271">
        <ele>2056.4</ele>
        <time>2013-07-25T07:42:07Z</time>
      </trkpt>
      <trkpt lat="44.88858" lon="6.08263">
        <ele>2059.28</ele>
        <time>2013-07-25T07:42:28Z</time>
      </trkpt>
      <trkpt lat="44.88856" lon="6.08256">
        <ele>2060.72</ele>
        <time>2013-07-25T07:42:42Z</time>
      </trkpt>
      <trkpt lat="44.88858" lon="6.08253">
        <ele>2062.17</ele>
        <time>2013-07-25T07:43:00Z</time>
      </trkpt>
      <trkpt lat="44.8887" lon="6.08249">
        <ele>2063.61</ele>
        <time>2013-07-25T07:43:18Z</time>
      </trkpt>
      <trkpt lat="44.88867" lon="6.08246">
        <ele>2065.53</ele>
        <time>2013-07-25T07:43:32Z</time>
      </trkpt>
      <trkpt lat="44.88871" lon="6.08242">
        <ele>2067.93</ele>
        <time>2013-07-25T07:43:49Z</time>
      </trkpt>
      <trkpt lat="44.88865" lon="6.08237">
        <ele>2069.38</ele>
        <time>2013-07-25T07:44:02Z</time>
      </trkpt>
      <trkpt lat="44.88858" lon="6.0823">
        <ele>2070.34</ele>
        <time>2013-07-25T07:44:19Z</time>
      </trkpt>
      <trkpt lat="44.88854" lon="6.08226">
        <ele>2070.82</ele>
        <time>2013-07-25T07:44:27Z</time>
      </trkpt>
      <trkpt lat="44.88851" lon="6.08222">
        <ele>2072.26</ele>
        <time>2013-07-25T07:44:40Z</time>
      </trkpt>
      <trkpt lat="44.8886" lon="6.08222">
        <ele>2074.18</ele>
        <time>2013-07-25T07:45:00Z</time>
      </trkpt>
      <trkpt lat="44.88864" lon="6.0822">
        <ele>2076.59</ele>
        <time>2013-07-25T07:45:14Z</time>
      </trkpt>
      <trkpt lat="44.88867" lon="6.08215">
        <ele>2078.03</ele>
        <time>2013-07-25T07:45:30Z</time>
      </trkpt>
      <trkpt lat="44.88864" lon="6.08209">
        <ele>2078.99</ele>
        <time>2013-07-25T07:45:43Z</time>
      </trkpt>
      <trkpt lat="44.88862" lon="6.08206">
        <ele>2080.91</ele>
        <time>2013-07-25T07:45:58Z</time>
      </trkpt>
      <trkpt lat="44.88858" lon="6.082">
        <ele>2082.83</ele>
        <time>2013-07-25T07:46:12Z</time>
      </trkpt>
      <trkpt lat="44.88861" lon="6.08199">
        <ele>2084.28</ele>
        <time>2013-07-25T07:46:25Z</time>
      </trkpt>
      <trkpt lat="44.88864" lon="6.08196">
        <ele>2087.16</ele>
        <time>2013-07-25T07:46:44Z</time>
      </trkpt>
      <trkpt lat="44.88864" lon="6.08196">
        <ele>2089.56</ele>
        <time>2013-07-25T07:47:01Z</time>
      </trkpt>
      <trkpt lat="44.88866" lon="6.08194">
        <ele>2090.52</ele>
        <time>2013-07-25T07:47:14Z</time>
      </trkpt>
      <trkpt lat="44.88876" lon="6.08183">
        <ele>2092.45</ele>
        <time>2013-07-25T07:47:31Z</time>
      </trkpt>
      <trkpt lat="44.88881" lon="6.08176">
        <ele>2094.37</ele>
        <time>2013-07-25T07:47:45Z</time>
      </trkpt>
      <trkpt lat="44.88889" lon="6.08176">
        <ele>2095.33</ele>
        <time>2013-07-25T07:48:01Z</time>
      </trkpt>
      <trkpt lat="44.88898" lon="6.08177">
        <ele>2096.77</ele>
        <time>2013-07-25T07:48:16Z</time>
      </trkpt>
      <trkpt lat="44.88905" lon="6.08177">
        <ele>2098.7</ele>
        <time>2013-07-25T07:48:45Z</time>
      </trkpt>
      <trkpt lat="44.88913" lon="6.0818">
        <ele>2100.14</ele>
        <time>2013-07-25T07:49:00Z</time>
      </trkpt>
      <trkpt lat="44.88921" lon="6.08188">
        <ele>2102.06</ele>
        <time>2013-07-25T07:49:16Z</time>
      </trkpt>
      <trkpt lat="44.88929" lon="6.08191">
        <ele>2103.5</ele>
        <time>2013-07-25T07:49:32Z</time>
      </trkpt>
      <trkpt lat="44.88933" lon="6.08196">
        <ele>2102.06</ele>
        <time>2013-07-25T07:49:40Z</time>
      </trkpt>
      <trkpt lat="44.88938" lon="6.08204">
        <ele>2103.98</ele>
        <time>2013-07-25T07:49:53Z</time>
      </trkpt>
      <trkpt lat="44.88941" lon="6.08218">
        <ele>2105.91</ele>
        <time>2013-07-25T07:50:10Z</time>
      </trkpt>
      <trkpt lat="44.88947" lon="6.08233">
        <ele>2106.39</ele>
        <time>2013-07-25T07:50:26Z</time>
      </trkpt>
      <trkpt lat="44.88951" lon="6.08246">
        <ele>2106.87</ele>
        <time>2013-07-25T07:50:42Z</time>
      </trkpt>
      <trkpt lat="44.88954" lon="6.08258">
        <ele>2108.31</ele>
        <time>2013-07-25T07:50:58Z</time>
      </trkpt>
      <trkpt lat="44.88957" lon="6.08259">
        <ele>2109.27</ele>
        <time>2013-07-25T07:51:17Z</time>
      </trkpt>
      <trkpt lat="44.88957" lon="6.08257">
        <ele>2109.75</ele>
        <time>2013-07-25T07:51:35Z</time>
      </trkpt>
      <trkpt lat="44.88956" lon="6.08255">
        <ele>2110.71</ele>
        <time>2013-07-25T07:51:51Z</time>
      </trkpt>
      <trkpt lat="44.88955" lon="6.08245">
        <ele>2112.15</ele>
        <time>2013-07-25T07:53:00Z</time>
      </trkpt>
      <trkpt lat="44.88957" lon="6.08233">
        <ele>2113.6</ele>
        <time>2013-07-25T07:53:15Z</time>
      </trkpt>
      <trkpt lat="44.88956" lon="6.08219">
        <ele>2115.52</ele>
        <time>2013-07-25T07:53:34Z</time>
      </trkpt>
      <trkpt lat="44.88959" lon="6.08207">
        <ele>2117.92</ele>
        <time>2013-07-25T07:53:53Z</time>
      </trkpt>
      <trkpt lat="44.88965" lon="6.08213">
        <ele>2119.84</ele>
        <time>2013-07-25T07:54:09Z</time>
      </trkpt>
      <trkpt lat="44.88969" lon="6.08219">
        <ele>2122.25</ele>
        <time>2013-07-25T07:54:25Z</time>
      </trkpt>
      <trkpt lat="44.88973" lon="6.08226">
        <ele>2124.17</ele>
        <time>2013-07-25T07:54:39Z</time>
      </trkpt>
      <trkpt lat="44.88978" lon="6.08234">
        <ele>2125.61</ele>
        <time>2013-07-25T07:54:57Z</time>
      </trkpt>
      <trkpt lat="44.88981" lon="6.08234">
        <ele>2128.02</ele>
        <time>2013-07-25T07:55:15Z</time>
      </trkpt>
      <trkpt lat="44.88983" lon="6.08226">
        <ele>2129.46</ele>
        <time>2013-07-25T07:55:28Z</time>
      </trkpt>
      <trkpt lat="44.88983" lon="6.08217">
        <ele>2131.38</ele>
        <time>2013-07-25T07:55:43Z</time>
      </trkpt>
      <trkpt lat="44.88985" lon="6.08205">
        <ele>2133.3</ele>
        <time>2013-07-25T07:56:00Z</time>
      </trkpt>
      <trkpt lat="44.88989" lon="6.08208">
        <ele>2135.23</ele>
        <time>2013-07-25T07:56:17Z</time>
      </trkpt>
      <trkpt lat="44.88996" lon="6.08215">
        <ele>2137.63</ele>
        <time>2013-07-25T07:56:35Z</time>
      </trkpt>
      <trkpt lat="44.89001" lon="6.08223">
        <ele>2139.55</ele>
        <time>2013-07-25T07:56:50Z</time>
      </trkpt>
      <trkpt lat="44.89002" lon="6.08221">
        <ele>2140.99</ele>
        <time>2013-07-25T07:57:13Z</time>
      </trkpt>
      <trkpt lat="44.89003" lon="6.08216">
        <ele>2142.44</ele>
        <time>2013-07-25T07:57:25Z</time>
      </trkpt>
      <trkpt lat="44.89003" lon="6.08203">
        <ele>2144.84</ele>
        <time>2013-07-25T07:57:46Z</time>
      </trkpt>
      <trkpt lat="44.89004" lon="6.08191">
        <ele>2144.84</ele>
        <time>2013-07-25T07:58:01Z</time>
      </trkpt>
      <trkpt lat="44.89005" lon="6.08186">
        <ele>2147.72</ele>
        <time>2013-07-25T07:58:15Z</time>
      </trkpt>
      <trkpt lat="44.89006" lon="6.0817">
        <ele>2149.16</ele>
        <time>2013-07-25T07:58:34Z</time>
      </trkpt>
      <trkpt lat="44.8901" lon="6.08172">
        <ele>2150.13</ele>
        <time>2013-07-25T07:58:53Z</time>
      </trkpt>
      <trkpt lat="44.89016" lon="6.08179">
        <ele>2152.53</ele>
        <time>2013-07-25T07:59:10Z</time>
      </trkpt>
      <trkpt lat="44.89021" lon="6.08189">
        <ele>2154.45</ele>
        <time>2013-07-25T07:59:27Z</time>
      </trkpt>
      <trkpt lat="44.89026" lon="6.082">
        <ele>2156.86</ele>
        <time>2013-07-25T07:59:45Z</time>
      </trkpt>
      <trkpt lat="44.8903" lon="6.08211">
        <ele>2157.82</ele>
        <time>2013-07-25T08:00:04Z</time>
      </trkpt>
      <trkpt lat="44.89029" lon="6.08207">
        <ele>2158.3</ele>
        <time>2013-07-25T08:00:23Z</time>
      </trkpt>
      <trkpt lat="44.8903" lon="6.08197">
        <ele>2159.74</ele>
        <time>2013-07-25T08:00:40Z</time>
      </trkpt>
      <trkpt lat="44.89029" lon="6.08187">
        <ele>2161.66</ele>
        <time>2013-07-25T08:00:55Z</time>
      </trkpt>
      <trkpt lat="44.89029" lon="6.08179">
        <ele>2163.1</ele>
        <time>2013-07-25T08:01:11Z</time>
      </trkpt>
      <trkpt lat="44.89038" lon="6.08185">
        <ele>2165.51</ele>
        <time>2013-07-25T08:01:31Z</time>
      </trkpt>
      <trkpt lat="44.89041" lon="6.08193">
        <ele>2167.43</ele>
        <time>2013-07-25T08:01:47Z</time>
      </trkpt>
      <trkpt lat="44.89042" lon="6.08188">
        <ele>2168.87</ele>
        <time>2013-07-25T08:02:05Z</time>
      </trkpt>
      <trkpt lat="44.89044" lon="6.08183">
        <ele>2170.31</ele>
        <time>2013-07-25T08:02:19Z</time>
      </trkpt>
      <trkpt lat="44.89044" lon="6.08172">
        <ele>2170.79</ele>
        <time>2013-07-25T08:02:33Z</time>
      </trkpt>
      <trkpt lat="44.89047" lon="6.08169">
        <ele>2173.2</ele>
        <time>2013-07-25T08:02:48Z</time>
      </trkpt>
      <trkpt lat="44.89052" lon="6.08181">
        <ele>2175.12</ele>
        <time>2013-07-25T08:03:07Z</time>
      </trkpt>
      <trkpt lat="44.89056" lon="6.08186">
        <ele>2177.04</ele>
        <time>2013-07-25T08:03:27Z</time>
      </trkpt>
      <trkpt lat="44.8906" lon="6.08193">
        <ele>2178.48</ele>
        <time>2013-07-25T08:03:40Z</time>
      </trkpt>
      <trkpt lat="44.89061" lon="6.08189">
        <ele>2182.33</ele>
        <time>2013-07-25T08:04:03Z</time>
      </trkpt>
      <trkpt lat="44.89063" lon="6.08178">
        <ele>2182.81</ele>
        <time>2013-07-25T08:04:21Z</time>
      </trkpt>
      <trkpt lat="44.89062" lon="6.08168">
        <ele>2183.77</ele>
        <time>2013-07-25T08:04:36Z</time>
      </trkpt>
      <trkpt lat="44.89067" lon="6.08174">
        <ele>2185.69</ele>
        <time>2013-07-25T08:04:52Z</time>
      </trkpt>
      <trkpt lat="44.89073" lon="6.08184">
        <ele>2188.58</ele>
        <time>2013-07-25T08:05:14Z</time>
      </trkpt>
      <trkpt lat="44.89076" lon="6.08193">
        <ele>2190.02</ele>
        <time>2013-07-25T08:05:30Z</time>
      </trkpt>
      <trkpt lat="44.89078" lon="6.08185">
        <ele>2191.94</ele>
        <time>2013-07-25T08:05:46Z</time>
      </trkpt>
      <trkpt lat="44.89078" lon="6.08175">
        <ele>2193.39</ele>
        <time>2013-07-25T08:06:02Z</time>
      </trkpt>
      <trkpt lat="44.89078" lon="6.08166">
        <ele>2195.79</ele>
        <time>2013-07-25T08:06:16Z</time>
      </trkpt>
      <trkpt lat="44.89079" lon="6.08156">
        <ele>2197.71</ele>
        <time>2013-07-25T08:06:32Z</time>
      </trkpt>
      <trkpt lat="44.89081" lon="6.08149">
        <ele>2198.19</ele>
        <time>2013-07-25T08:06:46Z</time>
      </trkpt>
      <trkpt lat="44.89083" lon="6.08139">
        <ele>2200.59</ele>
        <time>2013-07-25T08:07:03Z</time>
      </trkpt>
      <trkpt lat="44.89086" lon="6.08141">
        <ele>2202.04</ele>
        <time>2013-07-25T08:07:16Z</time>
      </trkpt>
      <trkpt lat="44.89091" lon="6.08145">
        <ele>2203.96</ele>
        <time>2013-07-25T08:07:29Z</time>
      </trkpt>
      <trkpt lat="44.89092" lon="6.08146">
        <ele>2205.4</ele>
        <time>2013-07-25T08:07:43Z</time>
      </trkpt>
      <trkpt lat="44.89094" lon="6.08145">
        <ele>2206.36</ele>
        <time>2013-07-25T08:07:48Z</time>
      </trkpt>
      <trkpt lat="44.89095" lon="6.08142">
        <ele>2206.36</ele>
        <time>2013-07-25T08:08:05Z</time>
      </trkpt>
      <trkpt lat="44.89098" lon="6.08147">
        <ele>2209.73</ele>
        <time>2013-07-25T08:08:23Z</time>
      </trkpt>
      <trkpt lat="44.89101" lon="6.08153">
        <ele>2209.73</ele>
        <time>2013-07-25T08:08:36Z</time>
      </trkpt>
      <trkpt lat="44.89105" lon="6.08162">
        <ele>2211.17</ele>
        <time>2013-07-25T08:08:53Z</time>
      </trkpt>
      <trkpt lat="44.89106" lon="6.08169">
        <ele>2212.61</ele>
        <time>2013-07-25T08:09:06Z</time>
      </trkpt>
      <trkpt lat="44.8911" lon="6.08164">
        <ele>2214.53</ele>
        <time>2013-07-25T08:09:20Z</time>
      </trkpt>
      <trkpt lat="44.89108" lon="6.08149">
        <ele>2215.98</ele>
        <time>2013-07-25T08:09:37Z</time>
      </trkpt>
      <trkpt lat="44.89109" lon="6.0814">
        <ele>2216.94</ele>
        <time>2013-07-25T08:09:52Z</time>
      </trkpt>
      <trkpt lat="44.8911" lon="6.08129">
        <ele>2217.9</ele>
        <time>2013-07-25T08:10:08Z</time>
      </trkpt>
      <trkpt lat="44.89112" lon="6.0812">
        <ele>2220.3</ele>
        <time>2013-07-25T08:10:27Z</time>
      </trkpt>
      <trkpt lat="44.89116" lon="6.08124">
        <ele>2221.74</ele>
        <time>2013-07-25T08:10:44Z</time>
      </trkpt>
      <trkpt lat="44.8912" lon="6.08135">
        <ele>2224.15</ele>
        <time>2013-07-25T08:11:03Z</time>
      </trkpt>
      <trkpt lat="44.89125" lon="6.08142">
        <ele>2227.03</ele>
        <time>2013-07-25T08:11:21Z</time>
      </trkpt>
      <trkpt lat="44.89128" lon="6.08151">
        <ele>2228.95</ele>
        <time>2013-07-25T08:11:38Z</time>
      </trkpt>
      <trkpt lat="44.8913" lon="6.08142">
        <ele>2229.92</ele>
        <time>2013-07-25T08:11:54Z</time>
      </trkpt>
      <trkpt lat="44.89131" lon="6.08139">
        <ele>2231.36</ele>
        <time>2013-07-25T08:12:03Z</time>
      </trkpt>
      <trkpt lat="44.8913" lon="6.08125">
        <ele>2231.36</ele>
        <time>2013-07-25T08:12:22Z</time>
      </trkpt>
      <trkpt lat="44.89132" lon="6.08111">
        <ele>2233.76</ele>
        <time>2013-07-25T08:12:38Z</time>
      </trkpt>
      <trkpt lat="44.89132" lon="6.08107">
        <ele>2234.72</ele>
        <time>2013-07-25T08:12:57Z</time>
      </trkpt>
      <trkpt lat="44.89135" lon="6.08096">
        <ele>2236.16</ele>
        <time>2013-07-25T08:13:15Z</time>
      </trkpt>
      <trkpt lat="44.89138" lon="6.08087">
        <ele>2237.13</ele>
        <time>2013-07-25T08:13:36Z</time>
      </trkpt>
      <trkpt lat="44.89141" lon="6.08077">
        <ele>2239.05</ele>
        <time>2013-07-25T08:13:52Z</time>
      </trkpt>
      <trkpt lat="44.89143" lon="6.08066">
        <ele>2240.97</ele>
        <time>2013-07-25T08:14:08Z</time>
      </trkpt>
      <trkpt lat="44.89146" lon="6.08057">
        <ele>2242.89</ele>
        <time>2013-07-25T08:14:24Z</time>
      </trkpt>
      <trkpt lat="44.89149" lon="6.08052">
        <ele>2244.33</ele>
        <time>2013-07-25T08:14:38Z</time>
      </trkpt>
      <trkpt lat="44.89148" lon="6.08046">
        <ele>2245.78</ele>
        <time>2013-07-25T08:14:56Z</time>
      </trkpt>
      <trkpt lat="44.8915" lon="6.08042">
        <ele>2248.66</ele>
        <time>2013-07-25T08:15:11Z</time>
      </trkpt>
      <trkpt lat="44.89157" lon="6.08051">
        <ele>2249.14</ele>
        <time>2013-07-25T08:15:27Z</time>
      </trkpt>
      <trkpt lat="44.89159" lon="6.08066">
        <ele>2250.1</ele>
        <time>2013-07-25T08:15:47Z</time>
      </trkpt>
      <trkpt lat="44.89161" lon="6.0806">
        <ele>2252.03</ele>
        <time>2013-07-25T08:16:02Z</time>
      </trkpt>
      <trkpt lat="44.89165" lon="6.08048">
        <ele>2252.99</ele>
        <time>2013-07-25T08:16:17Z</time>
      </trkpt>
      <trkpt lat="44.89166" lon="6.08039">
        <ele>2253.47</ele>
        <time>2013-07-25T08:16:29Z</time>
      </trkpt>
      <trkpt lat="44.89166" lon="6.08031">
        <ele>2255.39</ele>
        <time>2013-07-25T08:16:44Z</time>
      </trkpt>
      <trkpt lat="44.89165" lon="6.0802">
        <ele>2256.83</ele>
        <time>2013-07-25T08:17:03Z</time>
      </trkpt>
      <trkpt lat="44.89165" lon="6.0801">
        <ele>2259.24</ele>
        <time>2013-07-25T08:17:19Z</time>
      </trkpt>
      <trkpt lat="44.89168" lon="6.08011">
        <ele>2260.68</ele>
        <time>2013-07-25T08:17:39Z</time>
      </trkpt>
      <trkpt lat="44.89174" lon="6.08013">
        <ele>2261.64</ele>
        <time>2013-07-25T08:17:53Z</time>
      </trkpt>
      <trkpt lat="44.89186" lon="6.08018">
        <ele>2264.04</ele>
        <time>2013-07-25T08:18:13Z</time>
      </trkpt>
      <trkpt lat="44.89193" lon="6.08017">
        <ele>2265.96</ele>
        <time>2013-07-25T08:18:33Z</time>
      </trkpt>
      <trkpt lat="44.89198" lon="6.08013">
        <ele>2268.85</ele>
        <time>2013-07-25T08:18:54Z</time>
      </trkpt>
      <trkpt lat="44.89206" lon="6.08013">
        <ele>2271.25</ele>
        <time>2013-07-25T08:19:14Z</time>
      </trkpt>
      <trkpt lat="44.89212" lon="6.08009">
        <ele>2273.17</ele>
        <time>2013-07-25T08:19:30Z</time>
      </trkpt>
      <trkpt lat="44.8922" lon="6.08004">
        <ele>2274.14</ele>
        <time>2013-07-25T08:19:48Z</time>
      </trkpt>
      <trkpt lat="44.89223" lon="6.08001">
        <ele>2277.02</ele>
        <time>2013-07-25T08:20:02Z</time>
      </trkpt>
      <trkpt lat="44.89231" lon="6.07995">
        <ele>2277.98</ele>
        <time>2013-07-25T08:20:18Z</time>
      </trkpt>
      <trkpt lat="44.89235" lon="6.07994">
        <ele>2279.42</ele>
        <time>2013-07-25T08:20:34Z</time>
      </trkpt>
      <trkpt lat="44.89238" lon="6.07992">
        <ele>2279.9</ele>
        <time>2013-07-25T08:21:26Z</time>
      </trkpt>
      <trkpt lat="44.89244" lon="6.07986">
        <ele>2282.79</ele>
        <time>2013-07-25T08:21:44Z</time>
      </trkpt>
      <trkpt lat="44.8925" lon="6.07981">
        <ele>2284.23</ele>
        <time>2013-07-25T08:21:59Z</time>
      </trkpt>
      <trkpt lat="44.89254" lon="6.07976">
        <ele>2285.67</ele>
        <time>2013-07-25T08:22:17Z</time>
      </trkpt>
      <trkpt lat="44.89258" lon="6.07967">
        <ele>2286.15</ele>
        <time>2013-07-25T08:22:32Z</time>
      </trkpt>
      <trkpt lat="44.89264" lon="6.07958">
        <ele>2286.15</ele>
        <time>2013-07-25T08:22:47Z</time>
      </trkpt>
      <trkpt lat="44.89264" lon="6.07958">
        <ele>2285.67</ele>
        <time>2013-07-25T08:23:34Z</time>
      </trkpt>
      <trkpt lat="44.89264" lon="6.07957">
        <ele>2287.11</ele>
        <time>2013-07-25T08:23:43Z</time>
      </trkpt>
      <trkpt lat="44.89258" lon="6.07948">
        <ele>2286.15</ele>
        <time>2013-07-25T08:23:55Z</time>
      </trkpt>
      <trkpt lat="44.89255" lon="6.07941">
        <ele>2286.63</ele>
        <time>2013-07-25T08:24:09Z</time>
      </trkpt>
      <trkpt lat="44.89253" lon="6.07937">
        <ele>2286.63</ele>
        <time>2013-07-25T08:24:24Z</time>
      </trkpt>
      <trkpt lat="44.89251" lon="6.07936">
        <ele>2286.15</ele>
        <time>2013-07-25T08:24:40Z</time>
      </trkpt>
      <trkpt lat="44.89251" lon="6.07934">
        <ele>2286.63</ele>
        <time>2013-07-25T08:24:58Z</time>
      </trkpt>
      <trkpt lat="44.89252" lon="6.07936">
        <ele>2287.59</ele>
        <time>2013-07-25T08:28:21Z</time>
      </trkpt>
      <trkpt lat="44.89252" lon="6.07936">
        <ele>2288.08</ele>
        <time>2013-07-25T08:30:32Z</time>
      </trkpt>
      <trkpt lat="44.89253" lon="6.07934">
        <ele>2288.08</ele>
        <time>2013-07-25T08:32:23Z</time>
      </trkpt>
      <trkpt lat="44.89253" lon="6.07933">
        <ele>2288.56</ele>
        <time>2013-07-25T08:32:48Z</time>
      </trkpt>
      <trkpt lat="44.89252" lon="6.07934">
        <ele>2290</ele>
        <time>2013-07-25T08:34:56Z</time>
      </trkpt>
      <trkpt lat="44.89252" lon="6.07934">
        <ele>2290</ele>
        <time>2013-07-25T08:36:20Z</time>
      </trkpt>
      <trkpt lat="44.89252" lon="6.07933">
        <ele>2291.44</ele>
        <time>2013-07-25T08:39:19Z</time>
      </trkpt>
      <trkpt lat="44.89252" lon="6.07932">
        <ele>2291.92</ele>
        <time>2013-07-25T08:44:22Z</time>
      </trkpt>
      <trkpt lat="44.89253" lon="6.07934">
        <ele>2292.4</ele>
        <time>2013-07-25T08:50:47Z</time>
      </trkpt>
      <trkpt lat="44.89254" lon="6.07934">
        <ele>2293.36</ele>
        <time>2013-07-25T08:51:19Z</time>
      </trkpt>
      <trkpt lat="44.89253" lon="6.07935">
        <ele>2293.36</ele>
        <time>2013-07-25T08:51:39Z</time>
      </trkpt>
      <trkpt lat="44.89251" lon="6.07935">
        <ele>2292.88</ele>
        <time>2013-07-25T08:51:55Z</time>
      </trkpt>
      <trkpt lat="44.89253" lon="6.07935">
        <ele>2293.84</ele>
        <time>2013-07-25T08:52:11Z</time>
      </trkpt>
      <trkpt lat="44.89255" lon="6.07936">
        <ele>2293.84</ele>
        <time>2013-07-25T08:52:45Z</time>
      </trkpt>
      <trkpt lat="44.89254" lon="6.07937">
        <ele>2293.84</ele>
        <time>2013-07-25T08:53:38Z</time>
      </trkpt>
      <trkpt lat="44.89257" lon="6.07937">
        <ele>2293.84</ele>
        <time>2013-07-25T08:53:59Z</time>
      </trkpt>
      <trkpt lat="44.89259" lon="6.07934">
        <ele>2293.36</ele>
        <time>2013-07-25T08:54:36Z</time>
      </trkpt>
      <trkpt lat="44.89268" lon="6.07942">
        <ele>2291.92</ele>
        <time>2013-07-25T08:54:56Z</time>
      </trkpt>
      <trkpt lat="44.89277" lon="6.07949">
        <ele>2290.48</ele>
        <time>2013-07-25T08:55:11Z</time>
      </trkpt>
      <trkpt lat="44.89286" lon="6.07949">
        <ele>2289.04</ele>
        <time>2013-07-25T08:55:39Z</time>
      </trkpt>
      <trkpt lat="44.89282" lon="6.07935">
        <ele>2286.63</ele>
        <time>2013-07-25T08:55:50Z</time>
      </trkpt>
      <trkpt lat="44.89279" lon="6.07924">
        <ele>2285.67</ele>
        <time>2013-07-25T08:55:59Z</time>
      </trkpt>
      <trkpt lat="44.89281" lon="6.07903">
        <ele>2283.27</ele>
        <time>2013-07-25T08:56:15Z</time>
      </trkpt>
      <trkpt lat="44.89282" lon="6.07886">
        <ele>2280.87</ele>
        <time>2013-07-25T08:56:30Z</time>
      </trkpt>
      <trkpt lat="44.89284" lon="6.07875">
        <ele>2278.94</ele>
        <time>2013-07-25T08:56:44Z</time>
      </trkpt>
      <trkpt lat="44.89285" lon="6.0787">
        <ele>2277.5</ele>
        <time>2013-07-25T08:56:58Z</time>
      </trkpt>
      <trkpt lat="44.89286" lon="6.07874">
        <ele>2276.54</ele>
        <time>2013-07-25T08:57:15Z</time>
      </trkpt>
      <trkpt lat="44.89286" lon="6.07874">
        <ele>2276.06</ele>
        <time>2013-07-25T08:57:50Z</time>
      </trkpt>
      <trkpt lat="44.89292" lon="6.07882">
        <ele>2274.62</ele>
        <time>2013-07-25T08:57:59Z</time>
      </trkpt>
      <trkpt lat="44.89297" lon="6.07885">
        <ele>2273.66</ele>
        <time>2013-07-25T08:58:03Z</time>
      </trkpt>
      <trkpt lat="44.893" lon="6.07889">
        <ele>2272.69</ele>
        <time>2013-07-25T08:58:08Z</time>
      </trkpt>
      <trkpt lat="44.89314" lon="6.07897">
        <ele>2269.33</ele>
        <time>2013-07-25T08:58:24Z</time>
      </trkpt>
      <trkpt lat="44.89324" lon="6.07902">
        <ele>2267.41</ele>
        <time>2013-07-25T08:58:35Z</time>
      </trkpt>
      <trkpt lat="44.8933" lon="6.07902">
        <ele>2266.45</ele>
        <time>2013-07-25T08:58:41Z</time>
      </trkpt>
      <trkpt lat="44.89336" lon="6.07906">
        <ele>2265</ele>
        <time>2013-07-25T08:58:55Z</time>
      </trkpt>
      <trkpt lat="44.89348" lon="6.07905">
        <ele>2262.12</ele>
        <time>2013-07-25T08:59:08Z</time>
      </trkpt>
      <trkpt lat="44.89349" lon="6.07905">
        <ele>2262.12</ele>
        <time>2013-07-25T08:59:09Z</time>
      </trkpt>
      <trkpt lat="44.89359" lon="6.0791">
        <ele>2260.68</ele>
        <time>2013-07-25T08:59:19Z</time>
      </trkpt>
      <trkpt lat="44.89367" lon="6.07909">
        <ele>2258.75</ele>
        <time>2013-07-25T08:59:26Z</time>
      </trkpt>
      <trkpt lat="44.89385" lon="6.07913">
        <ele>2255.87</ele>
        <time>2013-07-25T08:59:42Z</time>
      </trkpt>
      <trkpt lat="44.89401" lon="6.07918">
        <ele>2252.51</ele>
        <time>2013-07-25T08:59:58Z</time>
      </trkpt>
      <trkpt lat="44.89403" lon="6.07918">
        <ele>2252.03</ele>
        <time>2013-07-25T09:00:00Z</time>
      </trkpt>
      <trkpt lat="44.89416" lon="6.07915">
        <ele>2248.66</ele>
        <time>2013-07-25T09:00:13Z</time>
      </trkpt>
      <trkpt lat="44.89417" lon="6.07915">
        <ele>2247.7</ele>
        <time>2013-07-25T09:00:15Z</time>
      </trkpt>
      <trkpt lat="44.89421" lon="6.07912">
        <ele>2245.78</ele>
        <time>2013-07-25T09:00:23Z</time>
      </trkpt>
      <trkpt lat="44.8942" lon="6.0791">
        <ele>2245.3</ele>
        <time>2013-07-25T09:00:26Z</time>
      </trkpt>
      <trkpt lat="44.89418" lon="6.07905">
        <ele>2242.89</ele>
        <time>2013-07-25T09:00:41Z</time>
      </trkpt>
      <trkpt lat="44.89404" lon="6.07889">
        <ele>2240.49</ele>
        <time>2013-07-25T09:00:57Z</time>
      </trkpt>
      <trkpt lat="44.89389" lon="6.07876">
        <ele>2238.09</ele>
        <time>2013-07-25T09:01:13Z</time>
      </trkpt>
      <trkpt lat="44.89387" lon="6.07874">
        <ele>2237.61</ele>
        <time>2013-07-25T09:01:15Z</time>
      </trkpt>
      <trkpt lat="44.89385" lon="6.07869">
        <ele>2237.13</ele>
        <time>2013-07-25T09:01:18Z</time>
      </trkpt>
      <trkpt lat="44.89381" lon="6.07865">
        <ele>2236.64</ele>
        <time>2013-07-25T09:01:22Z</time>
      </trkpt>
      <trkpt lat="44.89374" lon="6.07846">
        <ele>2233.76</ele>
        <time>2013-07-25T09:01:39Z</time>
      </trkpt>
      <trkpt lat="44.8937" lon="6.07827">
        <ele>2230.88</ele>
        <time>2013-07-25T09:01:57Z</time>
      </trkpt>
      <trkpt lat="44.89367" lon="6.07808">
        <ele>2228.47</ele>
        <time>2013-07-25T09:02:15Z</time>
      </trkpt>
      <trkpt lat="44.89368" lon="6.07801">
        <ele>2226.55</ele>
        <time>2013-07-25T09:02:28Z</time>
      </trkpt>
      <trkpt lat="44.89372" lon="6.07806">
        <ele>2225.59</ele>
        <time>2013-07-25T09:02:34Z</time>
      </trkpt>
      <trkpt lat="44.8938" lon="6.07812">
        <ele>2223.67</ele>
        <time>2013-07-25T09:02:44Z</time>
      </trkpt>
      <trkpt lat="44.89389" lon="6.07827">
        <ele>2222.22</ele>
        <time>2013-07-25T09:03:00Z</time>
      </trkpt>
      <trkpt lat="44.89391" lon="6.07827">
        <ele>2221.74</ele>
        <time>2013-07-25T09:03:02Z</time>
      </trkpt>
      <trkpt lat="44.89401" lon="6.07835">
        <ele>2219.82</ele>
        <time>2013-07-25T09:03:19Z</time>
      </trkpt>
      <trkpt lat="44.89402" lon="6.07835">
        <ele>2220.78</ele>
        <time>2013-07-25T09:03:22Z</time>
      </trkpt>
      <trkpt lat="44.8941" lon="6.07842">
        <ele>2218.38</ele>
        <time>2013-07-25T09:03:31Z</time>
      </trkpt>
      <trkpt lat="44.89426" lon="6.07846">
        <ele>2215.01</ele>
        <time>2013-07-25T09:03:48Z</time>
      </trkpt>
      <trkpt lat="44.89436" lon="6.0785">
        <ele>2212.13</ele>
        <time>2013-07-25T09:04:01Z</time>
      </trkpt>
      <trkpt lat="44.8945" lon="6.07855">
        <ele>2209.73</ele>
        <time>2013-07-25T09:04:17Z</time>
      </trkpt>
      <trkpt lat="44.89458" lon="6.07859">
        <ele>2207.81</ele>
        <time>2013-07-25T09:04:30Z</time>
      </trkpt>
      <trkpt lat="44.89467" lon="6.07863">
        <ele>2204.92</ele>
        <time>2013-07-25T09:04:42Z</time>
      </trkpt>
      <trkpt lat="44.8948" lon="6.07879">
        <ele>2204.44</ele>
        <time>2013-07-25T09:04:59Z</time>
      </trkpt>
      <trkpt lat="44.89482" lon="6.0788">
        <ele>2203.96</ele>
        <time>2013-07-25T09:05:02Z</time>
      </trkpt>
      <trkpt lat="44.89495" lon="6.07884">
        <ele>2201.56</ele>
        <time>2013-07-25T09:05:19Z</time>
      </trkpt>
      <trkpt lat="44.89502" lon="6.07888">
        <ele>2199.15</ele>
        <time>2013-07-25T09:05:30Z</time>
      </trkpt>
      <trkpt lat="44.8951" lon="6.07895">
        <ele>2197.71</ele>
        <time>2013-07-25T09:05:46Z</time>
      </trkpt>
      <trkpt lat="44.89511" lon="6.07896">
        <ele>2197.71</ele>
        <time>2013-07-25T09:06:29Z</time>
      </trkpt>
      <trkpt lat="44.89511" lon="6.07895">
        <ele>2197.71</ele>
        <time>2013-07-25T09:06:56Z</time>
      </trkpt>
      <trkpt lat="44.89518" lon="6.07899">
        <ele>2196.75</ele>
        <time>2013-07-25T09:07:10Z</time>
      </trkpt>
      <trkpt lat="44.89532" lon="6.07909">
        <ele>2194.35</ele>
        <time>2013-07-25T09:07:27Z</time>
      </trkpt>
      <trkpt lat="44.89539" lon="6.07914">
        <ele>2193.39</ele>
        <time>2013-07-25T09:07:36Z</time>
      </trkpt>
      <trkpt lat="44.89541" lon="6.07915">
        <ele>2192.9</ele>
        <time>2013-07-25T09:07:38Z</time>
      </trkpt>
      <trkpt lat="44.89543" lon="6.07917">
        <ele>2192.9</ele>
        <time>2013-07-25T09:08:02Z</time>
      </trkpt>
      <trkpt lat="44.89551" lon="6.07926">
        <ele>2191.46</ele>
        <time>2013-07-25T09:08:26Z</time>
      </trkpt>
      <trkpt lat="44.8956" lon="6.07931">
        <ele>2188.1</ele>
        <time>2013-07-25T09:08:42Z</time>
      </trkpt>
      <trkpt lat="44.89562" lon="6.07933">
        <ele>2188.1</ele>
        <time>2013-07-25T09:08:46Z</time>
      </trkpt>
      <trkpt lat="44.89568" lon="6.07934">
        <ele>2186.66</ele>
        <time>2013-07-25T09:08:53Z</time>
      </trkpt>
      <trkpt lat="44.89577" lon="6.0794">
        <ele>2184.73</ele>
        <time>2013-07-25T09:09:09Z</time>
      </trkpt>
      <trkpt lat="44.89591" lon="6.07953">
        <ele>2182.81</ele>
        <time>2013-07-25T09:09:26Z</time>
      </trkpt>
      <trkpt lat="44.89596" lon="6.07958">
        <ele>2181.37</ele>
        <time>2013-07-25T09:09:49Z</time>
      </trkpt>
      <trkpt lat="44.89598" lon="6.07959">
        <ele>2180.89</ele>
        <time>2013-07-25T09:09:52Z</time>
      </trkpt>
      <trkpt lat="44.89603" lon="6.0796">
        <ele>2180.89</ele>
        <time>2013-07-25T09:09:57Z</time>
      </trkpt>
      <trkpt lat="44.8961" lon="6.07957">
        <ele>2180.89</ele>
        <time>2013-07-25T09:10:18Z</time>
      </trkpt>
      <trkpt lat="44.8961" lon="6.07957">
        <ele>2179.45</ele>
        <time>2013-07-25T09:10:55Z</time>
      </trkpt>
      <trkpt lat="44.89617" lon="6.07963">
        <ele>2178.97</ele>
        <time>2013-07-25T09:11:10Z</time>
      </trkpt>
      <trkpt lat="44.89619" lon="6.07965">
        <ele>2178.48</ele>
        <time>2013-07-25T09:11:28Z</time>
      </trkpt>
      <trkpt lat="44.89622" lon="6.07967">
        <ele>2177.04</ele>
        <time>2013-07-25T09:12:02Z</time>
      </trkpt>
      <trkpt lat="44.89623" lon="6.07968">
        <ele>2177.52</ele>
        <time>2013-07-25T09:12:10Z</time>
      </trkpt>
      <trkpt lat="44.89632" lon="6.07977">
        <ele>2173.68</ele>
        <time>2013-07-25T09:12:23Z</time>
      </trkpt>
      <trkpt lat="44.89644" lon="6.07991">
        <ele>2170.31</ele>
        <time>2013-07-25T09:12:37Z</time>
      </trkpt>
      <trkpt lat="44.89644" lon="6.07992">
        <ele>2170.79</ele>
        <time>2013-07-25T09:12:38Z</time>
      </trkpt>
      <trkpt lat="44.89653" lon="6.08002">
        <ele>2168.39</ele>
        <time>2013-07-25T09:12:48Z</time>
      </trkpt>
      <trkpt lat="44.89665" lon="6.08012">
        <ele>2165.99</ele>
        <time>2013-07-25T09:13:02Z</time>
      </trkpt>
      <trkpt lat="44.8967" lon="6.08015">
        <ele>2165.51</ele>
        <time>2013-07-25T09:13:25Z</time>
      </trkpt>
      <trkpt lat="44.89669" lon="6.08015">
        <ele>2165.03</ele>
        <time>2013-07-25T09:14:03Z</time>
      </trkpt>
      <trkpt lat="44.89668" lon="6.08013">
        <ele>2164.55</ele>
        <time>2013-07-25T09:14:47Z</time>
      </trkpt>
      <trkpt lat="44.89666" lon="6.08011">
        <ele>2163.58</ele>
        <time>2013-07-25T09:15:16Z</time>
      </trkpt>
      <trkpt lat="44.89667" lon="6.08013">
        <ele>2165.51</ele>
        <time>2013-07-25T09:16:17Z</time>
      </trkpt>
      <trkpt lat="44.89667" lon="6.08017">
        <ele>2165.03</ele>
        <time>2013-07-25T09:16:34Z</time>
      </trkpt>
      <trkpt lat="44.89668" lon="6.08015">
        <ele>2164.55</ele>
        <time>2013-07-25T09:17:07Z</time>
      </trkpt>
      <trkpt lat="44.89668" lon="6.08015">
        <ele>2164.55</ele>
        <time>2013-07-25T09:17:08Z</time>
      </trkpt>
      <trkpt lat="44.89663" lon="6.08005">
        <ele>2163.1</ele>
        <time>2013-07-25T09:17:24Z</time>
      </trkpt>
      <trkpt lat="44.89659" lon="6.07999">
        <ele>2162.14</ele>
        <time>2013-07-25T09:17:46Z</time>
      </trkpt>
      <trkpt lat="44.89658" lon="6.07997">
        <ele>2162.14</ele>
        <time>2013-07-25T09:17:47Z</time>
      </trkpt>
      <trkpt lat="44.89652" lon="6.07975">
        <ele>2159.74</ele>
        <time>2013-07-25T09:18:03Z</time>
      </trkpt>
      <trkpt lat="44.8965" lon="6.0797">
        <ele>2159.26</ele>
        <time>2013-07-25T09:18:07Z</time>
      </trkpt>
      <trkpt lat="44.89637" lon="6.07954">
        <ele>2156.86</ele>
        <time>2013-07-25T09:18:24Z</time>
      </trkpt>
      <trkpt lat="44.89634" lon="6.07946">
        <ele>2155.89</ele>
        <time>2013-07-25T09:18:31Z</time>
      </trkpt>
      <trkpt lat="44.89629" lon="6.07941">
        <ele>2154.93</ele>
        <time>2013-07-25T09:18:37Z</time>
      </trkpt>
      <trkpt lat="44.89625" lon="6.07931">
        <ele>2151.09</ele>
        <time>2013-07-25T09:18:50Z</time>
      </trkpt>
      <trkpt lat="44.89623" lon="6.07927">
        <ele>2150.61</ele>
        <time>2013-07-25T09:19:09Z</time>
      </trkpt>
      <trkpt lat="44.89621" lon="6.07922">
        <ele>2149.16</ele>
        <time>2013-07-25T09:19:14Z</time>
      </trkpt>
      <trkpt lat="44.89622" lon="6.07922">
        <ele>2149.65</ele>
        <time>2013-07-25T09:19:16Z</time>
      </trkpt>
      <trkpt lat="44.89627" lon="6.07924">
        <ele>2148.68</ele>
        <time>2013-07-25T09:19:20Z</time>
      </trkpt>
      <trkpt lat="44.89634" lon="6.07928">
        <ele>2148.2</ele>
        <time>2013-07-25T09:19:29Z</time>
      </trkpt>
      <trkpt lat="44.89639" lon="6.07927">
        <ele>2147.72</ele>
        <time>2013-07-25T09:19:34Z</time>
      </trkpt>
      <trkpt lat="44.89641" lon="6.07929">
        <ele>2147.24</ele>
        <time>2013-07-25T09:19:36Z</time>
      </trkpt>
      <trkpt lat="44.89655" lon="6.07936">
        <ele>2143.88</ele>
        <time>2013-07-25T09:19:53Z</time>
      </trkpt>
      <trkpt lat="44.89651" lon="6.0793">
        <ele>2142.92</ele>
        <time>2013-07-25T09:20:06Z</time>
      </trkpt>
      <trkpt lat="44.89649" lon="6.07927">
        <ele>2142.44</ele>
        <time>2013-07-25T09:20:09Z</time>
      </trkpt>
      <trkpt lat="44.89646" lon="6.07923">
        <ele>2140.99</ele>
        <time>2013-07-25T09:20:13Z</time>
      </trkpt>
      <trkpt lat="44.89638" lon="6.07912">
        <ele>2139.07</ele>
        <time>2013-07-25T09:20:25Z</time>
      </trkpt>
      <trkpt lat="44.89625" lon="6.07901">
        <ele>2136.19</ele>
        <time>2013-07-25T09:20:42Z</time>
      </trkpt>
      <trkpt lat="44.89619" lon="6.07894">
        <ele>2134.74</ele>
        <time>2013-07-25T09:20:57Z</time>
      </trkpt>
      <trkpt lat="44.89621" lon="6.07894">
        <ele>2135.23</ele>
        <time>2013-07-25T09:21:21Z</time>
      </trkpt>
      <trkpt lat="44.89627" lon="6.07895">
        <ele>2133.78</ele>
        <time>2013-07-25T09:21:56Z</time>
      </trkpt>
      <trkpt lat="44.89629" lon="6.07895">
        <ele>2132.34</ele>
        <time>2013-07-25T09:21:59Z</time>
      </trkpt>
      <trkpt lat="44.89633" lon="6.07895">
        <ele>2131.38</ele>
        <time>2013-07-25T09:22:04Z</time>
      </trkpt>
      <trkpt lat="44.89638" lon="6.07897">
        <ele>2129.94</ele>
        <time>2013-07-25T09:22:12Z</time>
      </trkpt>
      <trkpt lat="44.89646" lon="6.07901">
        <ele>2128.98</ele>
        <time>2013-07-25T09:22:28Z</time>
      </trkpt>
      <trkpt lat="44.89659" lon="6.07904">
        <ele>2125.61</ele>
        <time>2013-07-25T09:22:43Z</time>
      </trkpt>
      <trkpt lat="44.89669" lon="6.07906">
        <ele>2123.21</ele>
        <time>2013-07-25T09:22:58Z</time>
      </trkpt>
      <trkpt lat="44.89675" lon="6.07909">
        <ele>2123.69</ele>
        <time>2013-07-25T09:23:16Z</time>
      </trkpt>
      <trkpt lat="44.89681" lon="6.07907">
        <ele>2120.32</ele>
        <time>2013-07-25T09:23:28Z</time>
      </trkpt>
      <trkpt lat="44.89691" lon="6.0791">
        <ele>2119.36</ele>
        <time>2013-07-25T09:23:41Z</time>
      </trkpt>
      <trkpt lat="44.89692" lon="6.07911">
        <ele>2119.36</ele>
        <time>2013-07-25T09:23:43Z</time>
      </trkpt>
      <trkpt lat="44.89698" lon="6.07914">
        <ele>2118.4</ele>
        <time>2013-07-25T09:23:50Z</time>
      </trkpt>
      <trkpt lat="44.89703" lon="6.07917">
        <ele>2116.48</ele>
        <time>2013-07-25T09:24:04Z</time>
      </trkpt>
      <trkpt lat="44.8971" lon="6.07921">
        <ele>2115.52</ele>
        <time>2013-07-25T09:24:17Z</time>
      </trkpt>
      <trkpt lat="44.89716" lon="6.07927">
        <ele>2113.6</ele>
        <time>2013-07-25T09:24:26Z</time>
      </trkpt>
      <trkpt lat="44.89725" lon="6.0794">
        <ele>2111.19</ele>
        <time>2013-07-25T09:24:41Z</time>
      </trkpt>
      <trkpt lat="44.89728" lon="6.07945">
        <ele>2110.23</ele>
        <time>2013-07-25T09:24:48Z</time>
      </trkpt>
      <trkpt lat="44.89733" lon="6.07949">
        <ele>2108.79</ele>
        <time>2013-07-25T09:25:06Z</time>
      </trkpt>
      <trkpt lat="44.89731" lon="6.07945">
        <ele>2107.83</ele>
        <time>2013-07-25T09:25:14Z</time>
      </trkpt>
      <trkpt lat="44.89731" lon="6.07941">
        <ele>2106.87</ele>
        <time>2013-07-25T09:25:17Z</time>
      </trkpt>
      <trkpt lat="44.89727" lon="6.07933">
        <ele>2106.87</ele>
        <time>2013-07-25T09:25:24Z</time>
      </trkpt>
      <trkpt lat="44.89723" lon="6.07916">
        <ele>2104.46</ele>
        <time>2013-07-25T09:25:39Z</time>
      </trkpt>
      <trkpt lat="44.89718" lon="6.07909">
        <ele>2103.5</ele>
        <time>2013-07-25T09:25:54Z</time>
      </trkpt>
      <trkpt lat="44.89717" lon="6.07905">
        <ele>2102.06</ele>
        <time>2013-07-25T09:26:45Z</time>
      </trkpt>
      <trkpt lat="44.89713" lon="6.07901">
        <ele>2101.58</ele>
        <time>2013-07-25T09:27:10Z</time>
      </trkpt>
      <trkpt lat="44.89711" lon="6.07898">
        <ele>2100.14</ele>
        <time>2013-07-25T09:27:22Z</time>
      </trkpt>
      <trkpt lat="44.89701" lon="6.07882">
        <ele>2098.21</ele>
        <time>2013-07-25T09:27:37Z</time>
      </trkpt>
      <trkpt lat="44.89697" lon="6.07876">
        <ele>2097.73</ele>
        <time>2013-07-25T09:27:43Z</time>
      </trkpt>
      <trkpt lat="44.89696" lon="6.07874">
        <ele>2096.77</ele>
        <time>2013-07-25T09:27:45Z</time>
      </trkpt>
      <trkpt lat="44.89692" lon="6.07873">
        <ele>2096.29</ele>
        <time>2013-07-25T09:27:50Z</time>
      </trkpt>
      <trkpt lat="44.89681" lon="6.07859">
        <ele>2094.85</ele>
        <time>2013-07-25T09:28:04Z</time>
      </trkpt>
      <trkpt lat="44.89675" lon="6.07847">
        <ele>2091.97</ele>
        <time>2013-07-25T09:28:15Z</time>
      </trkpt>
      <trkpt lat="44.89669" lon="6.07838">
        <ele>2090.52</ele>
        <time>2013-07-25T09:28:29Z</time>
      </trkpt>
      <trkpt lat="44.89665" lon="6.07828">
        <ele>2088.6</ele>
        <time>2013-07-25T09:28:43Z</time>
      </trkpt>
      <trkpt lat="44.89666" lon="6.07829">
        <ele>2087.64</ele>
        <time>2013-07-25T09:28:45Z</time>
      </trkpt>
      <trkpt lat="44.89678" lon="6.07838">
        <ele>2084.76</ele>
        <time>2013-07-25T09:29:01Z</time>
      </trkpt>
      <trkpt lat="44.8969" lon="6.07842">
        <ele>2081.39</ele>
        <time>2013-07-25T09:29:17Z</time>
      </trkpt>
      <trkpt lat="44.89703" lon="6.0785">
        <ele>2078.03</ele>
        <time>2013-07-25T09:29:34Z</time>
      </trkpt>
      <trkpt lat="44.89705" lon="6.07851">
        <ele>2077.07</ele>
        <time>2013-07-25T09:29:36Z</time>
      </trkpt>
      <trkpt lat="44.8971" lon="6.07851">
        <ele>2075.14</ele>
        <time>2013-07-25T09:29:58Z</time>
      </trkpt>
      <trkpt lat="44.89706" lon="6.07846">
        <ele>2073.22</ele>
        <time>2013-07-25T09:30:20Z</time>
      </trkpt>
      <trkpt lat="44.89699" lon="6.07835">
        <ele>2071.3</ele>
        <time>2013-07-25T09:30:32Z</time>
      </trkpt>
      <trkpt lat="44.89698" lon="6.07833">
        <ele>2069.86</ele>
        <time>2013-07-25T09:30:34Z</time>
      </trkpt>
      <trkpt lat="44.8969" lon="6.07822">
        <ele>2070.34</ele>
        <time>2013-07-25T09:30:48Z</time>
      </trkpt>
      <trkpt lat="44.89689" lon="6.0782">
        <ele>2068.89</ele>
        <time>2013-07-25T09:31:14Z</time>
      </trkpt>
      <trkpt lat="44.89681" lon="6.07808">
        <ele>2066.97</ele>
        <time>2013-07-25T09:31:28Z</time>
      </trkpt>
      <trkpt lat="44.89691" lon="6.0781">
        <ele>2064.57</ele>
        <time>2013-07-25T09:31:41Z</time>
      </trkpt>
      <trkpt lat="44.89702" lon="6.07815">
        <ele>2061.2</ele>
        <time>2013-07-25T09:31:55Z</time>
      </trkpt>
      <trkpt lat="44.89702" lon="6.07815">
        <ele>2061.2</ele>
        <time>2013-07-25T09:31:56Z</time>
      </trkpt>
      <trkpt lat="44.89707" lon="6.07818">
        <ele>2060.24</ele>
        <time>2013-07-25T09:32:13Z</time>
      </trkpt>
      <trkpt lat="44.8971" lon="6.0782">
        <ele>2059.28</ele>
        <time>2013-07-25T09:32:17Z</time>
      </trkpt>
      <trkpt lat="44.89717" lon="6.07825">
        <ele>2055.92</ele>
        <time>2013-07-25T09:32:33Z</time>
      </trkpt>
      <trkpt lat="44.89716" lon="6.07819">
        <ele>2053.99</ele>
        <time>2013-07-25T09:32:39Z</time>
      </trkpt>
      <trkpt lat="44.89724" lon="6.07824">
        <ele>2053.03</ele>
        <time>2013-07-25T09:32:55Z</time>
      </trkpt>
      <trkpt lat="44.89737" lon="6.07832">
        <ele>2050.15</ele>
        <time>2013-07-25T09:33:11Z</time>
      </trkpt>
      <trkpt lat="44.89747" lon="6.07842">
        <ele>2048.23</ele>
        <time>2013-07-25T09:33:26Z</time>
      </trkpt>
      <trkpt lat="44.8975" lon="6.07845">
        <ele>2047.26</ele>
        <time>2013-07-25T09:33:30Z</time>
      </trkpt>
      <trkpt lat="44.89761" lon="6.0785">
        <ele>2043.9</ele>
        <time>2013-07-25T09:33:43Z</time>
      </trkpt>
      <trkpt lat="44.89762" lon="6.0785">
        <ele>2043.42</ele>
        <time>2013-07-25T09:33:44Z</time>
      </trkpt>
      <trkpt lat="44.89767" lon="6.07855">
        <ele>2042.46</ele>
        <time>2013-07-25T09:33:51Z</time>
      </trkpt>
      <trkpt lat="44.8977" lon="6.07854">
        <ele>2040.54</ele>
        <time>2013-07-25T09:34:04Z</time>
      </trkpt>
      <trkpt lat="44.89771" lon="6.07855">
        <ele>2040.54</ele>
        <time>2013-07-25T09:34:34Z</time>
      </trkpt>
      <trkpt lat="44.89765" lon="6.07847">
        <ele>2039.09</ele>
        <time>2013-07-25T09:34:57Z</time>
      </trkpt>
      <trkpt lat="44.89765" lon="6.07846">
        <ele>2039.09</ele>
        <time>2013-07-25T09:34:58Z</time>
      </trkpt>
      <trkpt lat="44.89756" lon="6.07831">
        <ele>2038.13</ele>
        <time>2013-07-25T09:35:15Z</time>
      </trkpt>
      <trkpt lat="44.89745" lon="6.07812">
        <ele>2035.25</ele>
        <time>2013-07-25T09:35:32Z</time>
      </trkpt>
      <trkpt lat="44.89743" lon="6.07807">
        <ele>2034.77</ele>
        <time>2013-07-25T09:35:39Z</time>
      </trkpt>
      <trkpt lat="44.89737" lon="6.07799">
        <ele>2034.29</ele>
        <time>2013-07-25T09:35:49Z</time>
      </trkpt>
      <trkpt lat="44.89729" lon="6.07786">
        <ele>2030.44</ele>
        <time>2013-07-25T09:36:06Z</time>
      </trkpt>
      <trkpt lat="44.89731" lon="6.07785">
        <ele>2029.96</ele>
        <time>2013-07-25T09:36:09Z</time>
      </trkpt>
      <trkpt lat="44.89744" lon="6.07788">
        <ele>2027.56</ele>
        <time>2013-07-25T09:36:25Z</time>
      </trkpt>
      <trkpt lat="44.89751" lon="6.07794">
        <ele>2025.64</ele>
        <time>2013-07-25T09:36:35Z</time>
      </trkpt>
      <trkpt lat="44.89764" lon="6.078">
        <ele>2021.79</ele>
        <time>2013-07-25T09:36:49Z</time>
      </trkpt>
      <trkpt lat="44.8977" lon="6.07806">
        <ele>2020.83</ele>
        <time>2013-07-25T09:36:58Z</time>
      </trkpt>
      <trkpt lat="44.89774" lon="6.07813">
        <ele>2020.35</ele>
        <time>2013-07-25T09:37:18Z</time>
      </trkpt>
      <trkpt lat="44.89779" lon="6.07818">
        <ele>2018.91</ele>
        <time>2013-07-25T09:37:24Z</time>
      </trkpt>
      <trkpt lat="44.89787" lon="6.07827">
        <ele>2016.98</ele>
        <time>2013-07-25T09:37:36Z</time>
      </trkpt>
      <trkpt lat="44.89799" lon="6.0784">
        <ele>2013.14</ele>
        <time>2013-07-25T09:37:53Z</time>
      </trkpt>
      <trkpt lat="44.898" lon="6.0784">
        <ele>2012.66</ele>
        <time>2013-07-25T09:37:54Z</time>
      </trkpt>
      <trkpt lat="44.89811" lon="6.07853">
        <ele>2010.73</ele>
        <time>2013-07-25T09:38:10Z</time>
      </trkpt>
      <trkpt lat="44.89813" lon="6.07857">
        <ele>2009.29</ele>
        <time>2013-07-25T09:38:25Z</time>
      </trkpt>
      <trkpt lat="44.89812" lon="6.07858">
        <ele>2008.33</ele>
        <time>2013-07-25T09:38:50Z</time>
      </trkpt>
      <trkpt lat="44.89813" lon="6.07858">
        <ele>2007.85</ele>
        <time>2013-07-25T09:40:23Z</time>
      </trkpt>
      <trkpt lat="44.89814" lon="6.07856">
        <ele>2007.85</ele>
        <time>2013-07-25T09:43:02Z</time>
      </trkpt>
      <trkpt lat="44.89814" lon="6.07854">
        <ele>2005.45</ele>
        <time>2013-07-25T09:43:31Z</time>
      </trkpt>
      <trkpt lat="44.89812" lon="6.07848">
        <ele>2004.01</ele>
        <time>2013-07-25T09:43:38Z</time>
      </trkpt>
      <trkpt lat="44.89802" lon="6.07822">
        <ele>2001.12</ele>
        <time>2013-07-25T09:43:54Z</time>
      </trkpt>
      <trkpt lat="44.89798" lon="6.07795">
        <ele>1997.76</ele>
        <time>2013-07-25T09:44:09Z</time>
      </trkpt>
      <trkpt lat="44.89789" lon="6.07775">
        <ele>1994.39</ele>
        <time>2013-07-25T09:44:23Z</time>
      </trkpt>
      <trkpt lat="44.89779" lon="6.07758">
        <ele>1992.95</ele>
        <time>2013-07-25T09:44:37Z</time>
      </trkpt>
      <trkpt lat="44.89777" lon="6.07751">
        <ele>1991.51</ele>
        <time>2013-07-25T09:44:42Z</time>
      </trkpt>
      <trkpt lat="44.89778" lon="6.07745">
        <ele>1989.59</ele>
        <time>2013-07-25T09:44:48Z</time>
      </trkpt>
      <trkpt lat="44.89783" lon="6.07746">
        <ele>1988.62</ele>
        <time>2013-07-25T09:44:52Z</time>
      </trkpt>
      <trkpt lat="44.89784" lon="6.07747">
        <ele>1988.14</ele>
        <time>2013-07-25T09:44:54Z</time>
      </trkpt>
      <trkpt lat="44.8979" lon="6.07753">
        <ele>1986.22</ele>
        <time>2013-07-25T09:45:01Z</time>
      </trkpt>
      <trkpt lat="44.89803" lon="6.0776">
        <ele>1982.86</ele>
        <time>2013-07-25T09:45:13Z</time>
      </trkpt>
      <trkpt lat="44.89814" lon="6.0777">
        <ele>1979.49</ele>
        <time>2013-07-25T09:45:27Z</time>
      </trkpt>
      <trkpt lat="44.89811" lon="6.07764">
        <ele>1978.53</ele>
        <time>2013-07-25T09:45:34Z</time>
      </trkpt>
      <trkpt lat="44.89801" lon="6.07741">
        <ele>1975.17</ele>
        <time>2013-07-25T09:45:52Z</time>
      </trkpt>
      <trkpt lat="44.89796" lon="6.07732">
        <ele>1973.24</ele>
        <time>2013-07-25T09:46:06Z</time>
      </trkpt>
      <trkpt lat="44.89797" lon="6.07732">
        <ele>1972.76</ele>
        <time>2013-07-25T09:46:10Z</time>
      </trkpt>
      <trkpt lat="44.89804" lon="6.07736">
        <ele>1970.84</ele>
        <time>2013-07-25T09:46:20Z</time>
      </trkpt>
      <trkpt lat="44.89808" lon="6.07737">
        <ele>1970.36</ele>
        <time>2013-07-25T09:46:24Z</time>
      </trkpt>
      <trkpt lat="44.89812" lon="6.07744">
        <ele>1969.88</ele>
        <time>2013-07-25T09:46:29Z</time>
      </trkpt>
      <trkpt lat="44.89816" lon="6.07746">
        <ele>1969.4</ele>
        <time>2013-07-25T09:46:34Z</time>
      </trkpt>
      <trkpt lat="44.89822" lon="6.07751">
        <ele>1967.48</ele>
        <time>2013-07-25T09:46:41Z</time>
      </trkpt>
      <trkpt lat="44.89823" lon="6.07754">
        <ele>1966.51</ele>
        <time>2013-07-25T09:46:43Z</time>
      </trkpt>
      <trkpt lat="44.89832" lon="6.07763">
        <ele>1965.07</ele>
        <time>2013-07-25T09:46:52Z</time>
      </trkpt>
      <trkpt lat="44.89836" lon="6.07768">
        <ele>1964.59</ele>
        <time>2013-07-25T09:46:56Z</time>
      </trkpt>
      <trkpt lat="44.89841" lon="6.07772">
        <ele>1962.19</ele>
        <time>2013-07-25T09:47:01Z</time>
      </trkpt>
      <trkpt lat="44.89845" lon="6.07779">
        <ele>1962.19</ele>
        <time>2013-07-25T09:47:07Z</time>
      </trkpt>
      <trkpt lat="44.89852" lon="6.07785">
        <ele>1959.78</ele>
        <time>2013-07-25T09:47:16Z</time>
      </trkpt>
      <trkpt lat="44.89861" lon="6.07796">
        <ele>1957.38</ele>
        <time>2013-07-25T09:47:30Z</time>
      </trkpt>
      <trkpt lat="44.89869" lon="6.07808">
        <ele>1955.46</ele>
        <time>2013-07-25T09:47:45Z</time>
      </trkpt>
      <trkpt lat="44.8987" lon="6.07808">
        <ele>1955.46</ele>
        <time>2013-07-25T09:47:46Z</time>
      </trkpt>
      <trkpt lat="44.89873" lon="6.07814">
        <ele>1954.5</ele>
        <time>2013-07-25T09:47:50Z</time>
      </trkpt>
      <trkpt lat="44.89882" lon="6.07824">
        <ele>1952.09</ele>
        <time>2013-07-25T09:48:01Z</time>
      </trkpt>
      <trkpt lat="44.8989" lon="6.07833">
        <ele>1950.17</ele>
        <time>2013-07-25T09:48:10Z</time>
      </trkpt>
      <trkpt lat="44.89907" lon="6.07852">
        <ele>1946.81</ele>
        <time>2013-07-25T09:48:27Z</time>
      </trkpt>
      <trkpt lat="44.89917" lon="6.07867">
        <ele>1943.44</ele>
        <time>2013-07-25T09:48:42Z</time>
      </trkpt>
      <trkpt lat="44.89923" lon="6.07874">
        <ele>1942.48</ele>
        <time>2013-07-25T09:48:50Z</time>
      </trkpt>
      <trkpt lat="44.89939" lon="6.07888">
        <ele>1938.64</ele>
        <time>2013-07-25T09:49:07Z</time>
      </trkpt>
      <trkpt lat="44.89952" lon="6.07898">
        <ele>1935.27</ele>
        <time>2013-07-25T09:49:24Z</time>
      </trkpt>
      <trkpt lat="44.89956" lon="6.07902">
        <ele>1935.27</ele>
        <time>2013-07-25T09:49:28Z</time>
      </trkpt>
      <trkpt lat="44.89961" lon="6.07904">
        <ele>1934.31</ele>
        <time>2013-07-25T09:49:32Z</time>
      </trkpt>
      <trkpt lat="44.89973" lon="6.0791">
        <ele>1931.43</ele>
        <time>2013-07-25T09:49:47Z</time>
      </trkpt>
      <trkpt lat="44.89975" lon="6.0791">
        <ele>1929.98</ele>
        <time>2013-07-25T09:49:49Z</time>
      </trkpt>
      <trkpt lat="44.89976" lon="6.07912">
        <ele>1930.46</ele>
        <time>2013-07-25T09:49:51Z</time>
      </trkpt>
      <trkpt lat="44.89987" lon="6.07923">
        <ele>1927.1</ele>
        <time>2013-07-25T09:50:05Z</time>
      </trkpt>
      <trkpt lat="44.89991" lon="6.07926">
        <ele>1925.66</ele>
        <time>2013-07-25T09:50:10Z</time>
      </trkpt>
      <trkpt lat="44.89997" lon="6.07931">
        <ele>1925.18</ele>
        <time>2013-07-25T09:50:16Z</time>
      </trkpt>
      <trkpt lat="44.90009" lon="6.07939">
        <ele>1921.81</ele>
        <time>2013-07-25T09:50:30Z</time>
      </trkpt>
      <trkpt lat="44.90017" lon="6.07945">
        <ele>1919.41</ele>
        <time>2013-07-25T09:50:41Z</time>
      </trkpt>
      <trkpt lat="44.90024" lon="6.07951">
        <ele>1918.93</ele>
        <time>2013-07-25T09:50:50Z</time>
      </trkpt>
      <trkpt lat="44.90029" lon="6.07954">
        <ele>1917.97</ele>
        <time>2013-07-25T09:51:16Z</time>
      </trkpt>
      <trkpt lat="44.9003" lon="6.07955">
        <ele>1917.49</ele>
        <time>2013-07-25T09:51:38Z</time>
      </trkpt>
      <trkpt lat="44.90042" lon="6.07961">
        <ele>1914.12</ele>
        <time>2013-07-25T09:51:54Z</time>
      </trkpt>
      <trkpt lat="44.90046" lon="6.07964">
        <ele>1913.16</ele>
        <time>2013-07-25T09:52:14Z</time>
      </trkpt>
      <trkpt lat="44.90046" lon="6.07964">
        <ele>1913.16</ele>
        <time>2013-07-25T09:52:20Z</time>
      </trkpt>
      <trkpt lat="44.90052" lon="6.07969">
        <ele>1911.24</ele>
        <time>2013-07-25T09:52:28Z</time>
      </trkpt>
      <trkpt lat="44.90057" lon="6.07976">
        <ele>1910.28</ele>
        <time>2013-07-25T09:52:35Z</time>
      </trkpt>
      <trkpt lat="44.90058" lon="6.07979">
        <ele>1909.8</ele>
        <time>2013-07-25T09:52:37Z</time>
      </trkpt>
      <trkpt lat="44.90066" lon="6.07992">
        <ele>1907.87</ele>
        <time>2013-07-25T09:52:51Z</time>
      </trkpt>
      <trkpt lat="44.90074" lon="6.08009">
        <ele>1905.95</ele>
        <time>2013-07-25T09:53:07Z</time>
      </trkpt>
      <trkpt lat="44.9008" lon="6.08015">
        <ele>1904.03</ele>
        <time>2013-07-25T09:53:18Z</time>
      </trkpt>
      <trkpt lat="44.90082" lon="6.08016">
        <ele>1903.07</ele>
        <time>2013-07-25T09:53:20Z</time>
      </trkpt>
      <trkpt lat="44.90089" lon="6.08036">
        <ele>1902.11</ele>
        <time>2013-07-25T09:53:37Z</time>
      </trkpt>
      <trkpt lat="44.90097" lon="6.08039">
        <ele>1899.7</ele>
        <time>2013-07-25T09:53:51Z</time>
      </trkpt>
      <trkpt lat="44.90099" lon="6.08043">
        <ele>1899.7</ele>
        <time>2013-07-25T09:53:54Z</time>
      </trkpt>
      <trkpt lat="44.90108" lon="6.08055">
        <ele>1896.82</ele>
        <time>2013-07-25T09:54:10Z</time>
      </trkpt>
      <trkpt lat="44.90117" lon="6.0807">
        <ele>1894.9</ele>
        <time>2013-07-25T09:54:25Z</time>
      </trkpt>
      <trkpt lat="44.90123" lon="6.08084">
        <ele>1892.49</ele>
        <time>2013-07-25T09:54:39Z</time>
      </trkpt>
      <trkpt lat="44.90129" lon="6.08094">
        <ele>1889.61</ele>
        <time>2013-07-25T09:54:54Z</time>
      </trkpt>
      <trkpt lat="44.90137" lon="6.08108">
        <ele>1886.24</ele>
        <time>2013-07-25T09:55:09Z</time>
      </trkpt>
      <trkpt lat="44.90137" lon="6.08119">
        <ele>1883.36</ele>
        <time>2013-07-25T09:55:22Z</time>
      </trkpt>
      <trkpt lat="44.90139" lon="6.08118">
        <ele>1883.36</ele>
        <time>2013-07-25T09:55:25Z</time>
      </trkpt>
      <trkpt lat="44.90145" lon="6.0811">
        <ele>1880.96</ele>
        <time>2013-07-25T09:55:34Z</time>
      </trkpt>
      <trkpt lat="44.90148" lon="6.08097">
        <ele>1879.51</ele>
        <time>2013-07-25T09:55:45Z</time>
      </trkpt>
      <trkpt lat="44.90149" lon="6.08091">
        <ele>1880.48</ele>
        <time>2013-07-25T09:55:51Z</time>
      </trkpt>
      <trkpt lat="44.90149" lon="6.08086">
        <ele>1879.51</ele>
        <time>2013-07-25T09:55:54Z</time>
      </trkpt>
      <trkpt lat="44.90154" lon="6.08075">
        <ele>1875.67</ele>
        <time>2013-07-25T09:56:10Z</time>
      </trkpt>
      <trkpt lat="44.90154" lon="6.08075">
        <ele>1875.67</ele>
        <time>2013-07-25T09:56:11Z</time>
      </trkpt>
      <trkpt lat="44.90158" lon="6.08079">
        <ele>1874.23</ele>
        <time>2013-07-25T09:56:16Z</time>
      </trkpt>
      <trkpt lat="44.90161" lon="6.0808">
        <ele>1873.27</ele>
        <time>2013-07-25T09:56:20Z</time>
      </trkpt>
      <trkpt lat="44.90172" lon="6.08096">
        <ele>1870.86</ele>
        <time>2013-07-25T09:56:37Z</time>
      </trkpt>
      <trkpt lat="44.90173" lon="6.08107">
        <ele>1869.9</ele>
        <time>2013-07-25T09:56:47Z</time>
      </trkpt>
      <trkpt lat="44.90169" lon="6.08114">
        <ele>1868.46</ele>
        <time>2013-07-25T09:56:54Z</time>
      </trkpt>
      <trkpt lat="44.90167" lon="6.08131">
        <ele>1866.54</ele>
        <time>2013-07-25T09:57:07Z</time>
      </trkpt>
      <trkpt lat="44.90167" lon="6.08133">
        <ele>1865.09</ele>
        <time>2013-07-25T09:57:09Z</time>
      </trkpt>
      <trkpt lat="44.90167" lon="6.08141">
        <ele>1864.13</ele>
        <time>2013-07-25T09:57:15Z</time>
      </trkpt>
      <trkpt lat="44.90164" lon="6.08151">
        <ele>1863.17</ele>
        <time>2013-07-25T09:57:28Z</time>
      </trkpt>
      <trkpt lat="44.90164" lon="6.08159">
        <ele>1861.73</ele>
        <time>2013-07-25T09:57:44Z</time>
      </trkpt>
      <trkpt lat="44.90162" lon="6.08168">
        <ele>1860.29</ele>
        <time>2013-07-25T09:57:52Z</time>
      </trkpt>
      <trkpt lat="44.90158" lon="6.0818">
        <ele>1859.81</ele>
        <time>2013-07-25T09:58:03Z</time>
      </trkpt>
      <trkpt lat="44.9015" lon="6.08193">
        <ele>1858.37</ele>
        <time>2013-07-25T09:58:16Z</time>
      </trkpt>
      <trkpt lat="44.90146" lon="6.08196">
        <ele>1858.37</ele>
        <time>2013-07-25T09:58:21Z</time>
      </trkpt>
      <trkpt lat="44.9014" lon="6.08204">
        <ele>1856.92</ele>
        <time>2013-07-25T09:58:34Z</time>
      </trkpt>
      <trkpt lat="44.90139" lon="6.08204">
        <ele>1857.4</ele>
        <time>2013-07-25T09:58:35Z</time>
      </trkpt>
      <trkpt lat="44.90137" lon="6.0821">
        <ele>1855.96</ele>
        <time>2013-07-25T09:58:39Z</time>
      </trkpt>
      <trkpt lat="44.90132" lon="6.08217">
        <ele>1855.96</ele>
        <time>2013-07-25T09:58:51Z</time>
      </trkpt>
      <trkpt lat="44.90137" lon="6.08219">
        <ele>1854.04</ele>
        <time>2013-07-25T09:59:12Z</time>
      </trkpt>
      <trkpt lat="44.9014" lon="6.0822">
        <ele>1850.19</ele>
        <time>2013-07-25T09:59:24Z</time>
      </trkpt>
      <trkpt lat="44.90146" lon="6.08224">
        <ele>1849.23</ele>
        <time>2013-07-25T09:59:34Z</time>
      </trkpt>
      <trkpt lat="44.90157" lon="6.08232">
        <ele>1847.31</ele>
        <time>2013-07-25T09:59:48Z</time>
      </trkpt>
      <trkpt lat="44.90161" lon="6.08234">
        <ele>1845.87</ele>
        <time>2013-07-25T10:00:02Z</time>
      </trkpt>
      <trkpt lat="44.90166" lon="6.08236">
        <ele>1844.43</ele>
        <time>2013-07-25T10:00:17Z</time>
      </trkpt>
      <trkpt lat="44.90173" lon="6.08244">
        <ele>1842.98</ele>
        <time>2013-07-25T10:00:30Z</time>
      </trkpt>
      <trkpt lat="44.90183" lon="6.08249">
        <ele>1840.58</ele>
        <time>2013-07-25T10:00:44Z</time>
      </trkpt>
      <trkpt lat="44.90192" lon="6.08252">
        <ele>1839.62</ele>
        <time>2013-07-25T10:00:55Z</time>
      </trkpt>
      <trkpt lat="44.90197" lon="6.08255">
        <ele>1839.62</ele>
        <time>2013-07-25T10:01:00Z</time>
      </trkpt>
      <trkpt lat="44.90201" lon="6.0826">
        <ele>1839.14</ele>
        <time>2013-07-25T10:01:04Z</time>
      </trkpt>
      <trkpt lat="44.90205" lon="6.08274">
        <ele>1836.26</ele>
        <time>2013-07-25T10:01:20Z</time>
      </trkpt>
      <trkpt lat="44.90206" lon="6.08279">
        <ele>1835.77</ele>
        <time>2013-07-25T10:01:23Z</time>
      </trkpt>
      <trkpt lat="44.90211" lon="6.08287">
        <ele>1834.81</ele>
        <time>2013-07-25T10:01:40Z</time>
      </trkpt>
      <trkpt lat="44.90213" lon="6.08287">
        <ele>1833.85</ele>
        <time>2013-07-25T10:01:42Z</time>
      </trkpt>
      <trkpt lat="44.90214" lon="6.08295">
        <ele>1831.93</ele>
        <time>2013-07-25T10:01:56Z</time>
      </trkpt>
      <trkpt lat="44.90217" lon="6.08309">
        <ele>1830.49</ele>
        <time>2013-07-25T10:02:10Z</time>
      </trkpt>
      <trkpt lat="44.90219" lon="6.08311">
        <ele>1831.93</ele>
        <time>2013-07-25T10:02:13Z</time>
      </trkpt>
      <trkpt lat="44.90223" lon="6.08316">
        <ele>1830.49</ele>
        <time>2013-07-25T10:02:29Z</time>
      </trkpt>
      <trkpt lat="44.90235" lon="6.08323">
        <ele>1828.56</ele>
        <time>2013-07-25T10:02:43Z</time>
      </trkpt>
      <trkpt lat="44.90248" lon="6.08324">
        <ele>1825.68</ele>
        <time>2013-07-25T10:02:57Z</time>
      </trkpt>
      <trkpt lat="44.90259" lon="6.08324">
        <ele>1825.2</ele>
        <time>2013-07-25T10:03:10Z</time>
      </trkpt>
      <trkpt lat="44.90261" lon="6.08325">
        <ele>1824.72</ele>
        <time>2013-07-25T10:03:28Z</time>
      </trkpt>
      <trkpt lat="44.90263" lon="6.08324">
        <ele>1824.72</ele>
        <time>2013-07-25T10:03:31Z</time>
      </trkpt>
      <trkpt lat="44.90275" lon="6.08328">
        <ele>1822.8</ele>
        <time>2013-07-25T10:03:47Z</time>
      </trkpt>
      <trkpt lat="44.90281" lon="6.08331">
        <ele>1820.87</ele>
        <time>2013-07-25T10:04:05Z</time>
      </trkpt>
      <trkpt lat="44.90292" lon="6.08337">
        <ele>1818.95</ele>
        <time>2013-07-25T10:04:32Z</time>
      </trkpt>
      <trkpt lat="44.90299" lon="6.08344">
        <ele>1816.07</ele>
        <time>2013-07-25T10:04:42Z</time>
      </trkpt>
      <trkpt lat="44.90309" lon="6.08354">
        <ele>1815.59</ele>
        <time>2013-07-25T10:04:57Z</time>
      </trkpt>
      <trkpt lat="44.90314" lon="6.08357">
        <ele>1813.18</ele>
        <time>2013-07-25T10:05:13Z</time>
      </trkpt>
      <trkpt lat="44.90318" lon="6.0836">
        <ele>1812.22</ele>
        <time>2013-07-25T10:05:18Z</time>
      </trkpt>
      <trkpt lat="44.90323" lon="6.08362">
        <ele>1810.3</ele>
        <time>2013-07-25T10:05:24Z</time>
      </trkpt>
      <trkpt lat="44.90331" lon="6.08372">
        <ele>1809.34</ele>
        <time>2013-07-25T10:05:41Z</time>
      </trkpt>
      <trkpt lat="44.90333" lon="6.08377">
        <ele>1806.45</ele>
        <time>2013-07-25T10:05:51Z</time>
      </trkpt>
      <trkpt lat="44.90343" lon="6.08387">
        <ele>1805.01</ele>
        <time>2013-07-25T10:06:08Z</time>
      </trkpt>
      <trkpt lat="44.90347" lon="6.08391">
        <ele>1804.05</ele>
        <time>2013-07-25T10:06:12Z</time>
      </trkpt>
      <trkpt lat="44.90349" lon="6.08394">
        <ele>1803.57</ele>
        <time>2013-07-25T10:06:15Z</time>
      </trkpt>
      <trkpt lat="44.90359" lon="6.08406">
        <ele>1801.17</ele>
        <time>2013-07-25T10:06:30Z</time>
      </trkpt>
      <trkpt lat="44.9036" lon="6.08403">
        <ele>1799.73</ele>
        <time>2013-07-25T10:06:44Z</time>
      </trkpt>
      <trkpt lat="44.90361" lon="6.08392">
        <ele>1798.28</ele>
        <time>2013-07-25T10:07:02Z</time>
      </trkpt>
      <trkpt lat="44.90356" lon="6.08379">
        <ele>1795.88</ele>
        <time>2013-07-25T10:07:15Z</time>
      </trkpt>
      <trkpt lat="44.90349" lon="6.08366">
        <ele>1794.92</ele>
        <time>2013-07-25T10:07:30Z</time>
      </trkpt>
      <trkpt lat="44.90349" lon="6.08364">
        <ele>1793.96</ele>
        <time>2013-07-25T10:07:32Z</time>
      </trkpt>
      <trkpt lat="44.90344" lon="6.08344">
        <ele>1792.52</ele>
        <time>2013-07-25T10:07:48Z</time>
      </trkpt>
      <trkpt lat="44.90343" lon="6.08341">
        <ele>1792.52</ele>
        <time>2013-07-25T10:07:51Z</time>
      </trkpt>
      <trkpt lat="44.90337" lon="6.08329">
        <ele>1790.11</ele>
        <time>2013-07-25T10:08:06Z</time>
      </trkpt>
      <trkpt lat="44.90332" lon="6.08319">
        <ele>1788.67</ele>
        <time>2013-07-25T10:08:21Z</time>
      </trkpt>
      <trkpt lat="44.9033" lon="6.08313">
        <ele>1787.23</ele>
        <time>2013-07-25T10:08:29Z</time>
      </trkpt>
      <trkpt lat="44.90322" lon="6.08301">
        <ele>1785.79</ele>
        <time>2013-07-25T10:08:43Z</time>
      </trkpt>
      <trkpt lat="44.90317" lon="6.08293">
        <ele>1784.82</ele>
        <time>2013-07-25T10:08:57Z</time>
      </trkpt>
      <trkpt lat="44.90316" lon="6.08291">
        <ele>1784.82</ele>
        <time>2013-07-25T10:09:00Z</time>
      </trkpt>
      <trkpt lat="44.90313" lon="6.08287">
        <ele>1783.38</ele>
        <time>2013-07-25T10:09:05Z</time>
      </trkpt>
      <trkpt lat="44.90312" lon="6.08279">
        <ele>1781.46</ele>
        <time>2013-07-25T10:09:20Z</time>
      </trkpt>
      <trkpt lat="44.90312" lon="6.08282">
        <ele>1779.06</ele>
        <time>2013-07-25T10:09:34Z</time>
      </trkpt>
      <trkpt lat="44.90322" lon="6.08284">
        <ele>1776.17</ele>
        <time>2013-07-25T10:09:50Z</time>
      </trkpt>
      <trkpt lat="44.9033" lon="6.08286">
        <ele>1774.25</ele>
        <time>2013-07-25T10:10:05Z</time>
      </trkpt>
      <trkpt lat="44.90335" lon="6.08286">
        <ele>1771.85</ele>
        <time>2013-07-25T10:10:13Z</time>
      </trkpt>
      <trkpt lat="44.90344" lon="6.08289">
        <ele>1769.44</ele>
        <time>2013-07-25T10:10:27Z</time>
      </trkpt>
      <trkpt lat="44.90344" lon="6.08281">
        <ele>1767.04</ele>
        <time>2013-07-25T10:10:42Z</time>
      </trkpt>
      <trkpt lat="44.90341" lon="6.08272">
        <ele>1764.16</ele>
        <time>2013-07-25T10:10:55Z</time>
      </trkpt>
      <trkpt lat="44.90339" lon="6.0827">
        <ele>1764.16</ele>
        <time>2013-07-25T10:10:58Z</time>
      </trkpt>
      <trkpt lat="44.90333" lon="6.0826">
        <ele>1762.23</ele>
        <time>2013-07-25T10:11:12Z</time>
      </trkpt>
      <trkpt lat="44.90335" lon="6.08259">
        <ele>1760.31</ele>
        <time>2013-07-25T10:11:25Z</time>
      </trkpt>
      <trkpt lat="44.90342" lon="6.08267">
        <ele>1757.91</ele>
        <time>2013-07-25T10:11:39Z</time>
      </trkpt>
      <trkpt lat="44.90347" lon="6.08267">
        <ele>1756.47</ele>
        <time>2013-07-25T10:11:47Z</time>
      </trkpt>
      <trkpt lat="44.90355" lon="6.08272">
        <ele>1755.5</ele>
        <time>2013-07-25T10:12:00Z</time>
      </trkpt>
      <trkpt lat="44.90361" lon="6.08282">
        <ele>1754.54</ele>
        <time>2013-07-25T10:12:09Z</time>
      </trkpt>
      <trkpt lat="44.90363" lon="6.08283">
        <ele>1753.58</ele>
        <time>2013-07-25T10:12:11Z</time>
      </trkpt>
      <trkpt lat="44.90373" lon="6.0829">
        <ele>1751.66</ele>
        <time>2013-07-25T10:12:24Z</time>
      </trkpt>
      <trkpt lat="44.90373" lon="6.08286">
        <ele>1750.7</ele>
        <time>2013-07-25T10:12:36Z</time>
      </trkpt>
      <trkpt lat="44.90373" lon="6.08284">
        <ele>1750.22</ele>
        <time>2013-07-25T10:12:39Z</time>
      </trkpt>
      <trkpt lat="44.90371" lon="6.08278">
        <ele>1748.78</ele>
        <time>2013-07-25T10:12:45Z</time>
      </trkpt>
      <trkpt lat="44.90371" lon="6.08275">
        <ele>1747.81</ele>
        <time>2013-07-25T10:12:50Z</time>
      </trkpt>
      <trkpt lat="44.9037" lon="6.08268">
        <ele>1746.37</ele>
        <time>2013-07-25T10:13:01Z</time>
      </trkpt>
      <trkpt lat="44.9037" lon="6.08266">
        <ele>1745.41</ele>
        <time>2013-07-25T10:13:03Z</time>
      </trkpt>
      <trkpt lat="44.9037" lon="6.08258">
        <ele>1743.01</ele>
        <time>2013-07-25T10:13:20Z</time>
      </trkpt>
      <trkpt lat="44.90368" lon="6.08248">
        <ele>1740.6</ele>
        <time>2013-07-25T10:13:33Z</time>
      </trkpt>
      <trkpt lat="44.90367" lon="6.08247">
        <ele>1740.6</ele>
        <time>2013-07-25T10:14:15Z</time>
      </trkpt>
      <trkpt lat="44.90367" lon="6.08247">
        <ele>1741.57</ele>
        <time>2013-07-25T10:14:42Z</time>
      </trkpt>
      <trkpt lat="44.90363" lon="6.08242">
        <ele>1740.6</ele>
        <time>2013-07-25T10:14:47Z</time>
      </trkpt>
      <trkpt lat="44.9036" lon="6.08237">
        <ele>1739.64</ele>
        <time>2013-07-25T10:14:52Z</time>
      </trkpt>
      <trkpt lat="44.90352" lon="6.08222">
        <ele>1736.76</ele>
        <time>2013-07-25T10:15:06Z</time>
      </trkpt>
      <trkpt lat="44.90352" lon="6.0822">
        <ele>1736.28</ele>
        <time>2013-07-25T10:15:08Z</time>
      </trkpt>
      <trkpt lat="44.90347" lon="6.08209">
        <ele>1733.39</ele>
        <time>2013-07-25T10:15:19Z</time>
      </trkpt>
      <trkpt lat="44.90343" lon="6.08194">
        <ele>1731.95</ele>
        <time>2013-07-25T10:15:33Z</time>
      </trkpt>
      <trkpt lat="44.90343" lon="6.08192">
        <ele>1731.47</ele>
        <time>2013-07-25T10:15:36Z</time>
      </trkpt>
      <trkpt lat="44.90343" lon="6.08187">
        <ele>1729.55</ele>
        <time>2013-07-25T10:15:54Z</time>
      </trkpt>
      <trkpt lat="44.90342" lon="6.08186">
        <ele>1729.07</ele>
        <time>2013-07-25T10:16:40Z</time>
      </trkpt>
      <trkpt lat="44.90341" lon="6.08184">
        <ele>1729.07</ele>
        <time>2013-07-25T10:16:42Z</time>
      </trkpt>
      <trkpt lat="44.9034" lon="6.08174">
        <ele>1726.67</ele>
        <time>2013-07-25T10:16:54Z</time>
      </trkpt>
      <trkpt lat="44.9034" lon="6.08174">
        <ele>1726.67</ele>
        <time>2013-07-25T10:16:55Z</time>
      </trkpt>
      <trkpt lat="44.90349" lon="6.08174">
        <ele>1723.3</ele>
        <time>2013-07-25T10:17:07Z</time>
      </trkpt>
      <trkpt lat="44.9035" lon="6.08174">
        <ele>1722.82</ele>
        <time>2013-07-25T10:17:08Z</time>
      </trkpt>
      <trkpt lat="44.90358" lon="6.08179">
        <ele>1719.94</ele>
        <time>2013-07-25T10:17:19Z</time>
      </trkpt>
      <trkpt lat="44.90359" lon="6.08174">
        <ele>1718.01</ele>
        <time>2013-07-25T10:17:25Z</time>
      </trkpt>
      <trkpt lat="44.90359" lon="6.08171">
        <ele>1717.53</ele>
        <time>2013-07-25T10:17:27Z</time>
      </trkpt>
      <trkpt lat="44.9036" lon="6.08164">
        <ele>1714.17</ele>
        <time>2013-07-25T10:17:36Z</time>
      </trkpt>
      <trkpt lat="44.90363" lon="6.08166">
        <ele>1713.21</ele>
        <time>2013-07-25T10:17:40Z</time>
      </trkpt>
      <trkpt lat="44.90372" lon="6.08179">
        <ele>1709.36</ele>
        <time>2013-07-25T10:17:54Z</time>
      </trkpt>
      <trkpt lat="44.90378" lon="6.08184">
        <ele>1708.88</ele>
        <time>2013-07-25T10:18:02Z</time>
      </trkpt>
      <trkpt lat="44.90387" lon="6.08182">
        <ele>1705.04</ele>
        <time>2013-07-25T10:18:17Z</time>
      </trkpt>
      <trkpt lat="44.90396" lon="6.08187">
        <ele>1701.67</ele>
        <time>2013-07-25T10:18:28Z</time>
      </trkpt>
      <trkpt lat="44.90397" lon="6.08188">
        <ele>1701.67</ele>
        <time>2013-07-25T10:18:29Z</time>
      </trkpt>
      <trkpt lat="44.90403" lon="6.08189">
        <ele>1701.19</ele>
        <time>2013-07-25T10:18:37Z</time>
      </trkpt>
      <trkpt lat="44.9041" lon="6.08191">
        <ele>1698.31</ele>
        <time>2013-07-25T10:18:52Z</time>
      </trkpt>
      <trkpt lat="44.90404" lon="6.08181">
        <ele>1696.86</ele>
        <time>2013-07-25T10:19:05Z</time>
      </trkpt>
      <trkpt lat="44.90404" lon="6.0818">
        <ele>1696.38</ele>
        <time>2013-07-25T10:19:06Z</time>
      </trkpt>
      <trkpt lat="44.90399" lon="6.08171">
        <ele>1693.5</ele>
        <time>2013-07-25T10:19:20Z</time>
      </trkpt>
      <trkpt lat="44.90399" lon="6.08161">
        <ele>1691.1</ele>
        <time>2013-07-25T10:19:34Z</time>
      </trkpt>
      <trkpt lat="44.90399" lon="6.08157">
        <ele>1690.14</ele>
        <time>2013-07-25T10:19:53Z</time>
      </trkpt>
      <trkpt lat="44.90399" lon="6.08151">
        <ele>1690.14</ele>
        <time>2013-07-25T10:19:57Z</time>
      </trkpt>
      <trkpt lat="44.90399" lon="6.08146">
        <ele>1689.17</ele>
        <time>2013-07-25T10:20:00Z</time>
      </trkpt>
      <trkpt lat="44.90398" lon="6.08143">
        <ele>1688.69</ele>
        <time>2013-07-25T10:20:02Z</time>
      </trkpt>
      <trkpt lat="44.90398" lon="6.08134">
        <ele>1686.77</ele>
        <time>2013-07-25T10:20:09Z</time>
      </trkpt>
      <trkpt lat="44.90397" lon="6.08131">
        <ele>1685.81</ele>
        <time>2013-07-25T10:20:12Z</time>
      </trkpt>
      <trkpt lat="44.90397" lon="6.08126">
        <ele>1684.37</ele>
        <time>2013-07-25T10:20:17Z</time>
      </trkpt>
      <trkpt lat="44.90406" lon="6.08135">
        <ele>1681</ele>
        <time>2013-07-25T10:20:32Z</time>
      </trkpt>
      <trkpt lat="44.90406" lon="6.08134">
        <ele>1681.96</ele>
        <time>2013-07-25T10:20:33Z</time>
      </trkpt>
      <trkpt lat="44.90407" lon="6.08124">
        <ele>1679.08</ele>
        <time>2013-07-25T10:20:42Z</time>
      </trkpt>
      <trkpt lat="44.90406" lon="6.08118">
        <ele>1677.64</ele>
        <time>2013-07-25T10:21:06Z</time>
      </trkpt>
      <trkpt lat="44.90405" lon="6.08117">
        <ele>1677.16</ele>
        <time>2013-07-25T10:21:07Z</time>
      </trkpt>
      <trkpt lat="44.90406" lon="6.08108">
        <ele>1676.2</ele>
        <time>2013-07-25T10:21:14Z</time>
      </trkpt>
      <trkpt lat="44.90409" lon="6.08112">
        <ele>1674.27</ele>
        <time>2013-07-25T10:21:19Z</time>
      </trkpt>
      <trkpt lat="44.90414" lon="6.08117">
        <ele>1672.83</ele>
        <time>2013-07-25T10:21:25Z</time>
      </trkpt>
      <trkpt lat="44.90422" lon="6.0812">
        <ele>1670.91</ele>
        <time>2013-07-25T10:21:35Z</time>
      </trkpt>
      <trkpt lat="44.90419" lon="6.08109">
        <ele>1668.99</ele>
        <time>2013-07-25T10:21:44Z</time>
      </trkpt>
      <trkpt lat="44.90419" lon="6.08106">
        <ele>1668.02</ele>
        <time>2013-07-25T10:21:46Z</time>
      </trkpt>
      <trkpt lat="44.90419" lon="6.08104">
        <ele>1668.02</ele>
        <time>2013-07-25T10:21:48Z</time>
      </trkpt>
      <trkpt lat="44.90416" lon="6.08087">
        <ele>1664.66</ele>
        <time>2013-07-25T10:22:03Z</time>
      </trkpt>
      <trkpt lat="44.90416" lon="6.08079">
        <ele>1662.74</ele>
        <time>2013-07-25T10:22:17Z</time>
      </trkpt>
      <trkpt lat="44.90416" lon="6.08079">
        <ele>1663.22</ele>
        <time>2013-07-25T10:22:22Z</time>
      </trkpt>
      <trkpt lat="44.90423" lon="6.08086">
        <ele>1660.33</ele>
        <time>2013-07-25T10:22:31Z</time>
      </trkpt>
      <trkpt lat="44.90428" lon="6.08088">
        <ele>1659.37</ele>
        <time>2013-07-25T10:22:36Z</time>
      </trkpt>
      <trkpt lat="44.90432" lon="6.08093">
        <ele>1657.93</ele>
        <time>2013-07-25T10:22:42Z</time>
      </trkpt>
      <trkpt lat="44.90443" lon="6.08103">
        <ele>1655.53</ele>
        <time>2013-07-25T10:22:58Z</time>
      </trkpt>
      <trkpt lat="44.90442" lon="6.0809">
        <ele>1652.64</ele>
        <time>2013-07-25T10:23:11Z</time>
      </trkpt>
      <trkpt lat="44.90439" lon="6.08077">
        <ele>1650.24</ele>
        <time>2013-07-25T10:23:25Z</time>
      </trkpt>
      <trkpt lat="44.90438" lon="6.08062">
        <ele>1647.84</ele>
        <time>2013-07-25T10:23:38Z</time>
      </trkpt>
      <trkpt lat="44.90436" lon="6.08054">
        <ele>1645.91</ele>
        <time>2013-07-25T10:23:46Z</time>
      </trkpt>
      <trkpt lat="44.90433" lon="6.08041">
        <ele>1643.99</ele>
        <time>2013-07-25T10:23:59Z</time>
      </trkpt>
      <trkpt lat="44.90431" lon="6.08037">
        <ele>1642.07</ele>
        <time>2013-07-25T10:24:13Z</time>
      </trkpt>
      <trkpt lat="44.90431" lon="6.08037">
        <ele>1643.03</ele>
        <time>2013-07-25T10:24:48Z</time>
      </trkpt>
      <trkpt lat="44.9043" lon="6.08038">
        <ele>1642.07</ele>
        <time>2013-07-25T10:25:24Z</time>
      </trkpt>
      <trkpt lat="44.90434" lon="6.08041">
        <ele>1640.63</ele>
        <time>2013-07-25T10:25:33Z</time>
      </trkpt>
      <trkpt lat="44.9044" lon="6.08046">
        <ele>1639.67</ele>
        <time>2013-07-25T10:25:39Z</time>
      </trkpt>
      <trkpt lat="44.90449" lon="6.08054">
        <ele>1637.26</ele>
        <time>2013-07-25T10:25:53Z</time>
      </trkpt>
      <trkpt lat="44.90458" lon="6.0806">
        <ele>1635.82</ele>
        <time>2013-07-25T10:26:49Z</time>
      </trkpt>
      <trkpt lat="44.90463" lon="6.08064">
        <ele>1634.38</ele>
        <time>2013-07-25T10:27:09Z</time>
      </trkpt>
      <trkpt lat="44.9047" lon="6.08068">
        <ele>1633.9</ele>
        <time>2013-07-25T10:27:18Z</time>
      </trkpt>
      <trkpt lat="44.90468" lon="6.08059">
        <ele>1631.98</ele>
        <time>2013-07-25T10:27:24Z</time>
      </trkpt>
      <trkpt lat="44.90461" lon="6.08039">
        <ele>1629.09</ele>
        <time>2013-07-25T10:27:37Z</time>
      </trkpt>
      <trkpt lat="44.90457" lon="6.08021">
        <ele>1626.21</ele>
        <time>2013-07-25T10:27:54Z</time>
      </trkpt>
      <trkpt lat="44.90457" lon="6.08018">
        <ele>1625.25</ele>
        <time>2013-07-25T10:27:59Z</time>
      </trkpt>
      <trkpt lat="44.90461" lon="6.0802">
        <ele>1624.77</ele>
        <time>2013-07-25T10:28:03Z</time>
      </trkpt>
      <trkpt lat="44.9047" lon="6.08026">
        <ele>1623.32</ele>
        <time>2013-07-25T10:28:16Z</time>
      </trkpt>
      <trkpt lat="44.90484" lon="6.08037">
        <ele>1621.4</ele>
        <time>2013-07-25T10:28:31Z</time>
      </trkpt>
      <trkpt lat="44.9049" lon="6.08042">
        <ele>1620.44</ele>
        <time>2013-07-25T10:28:45Z</time>
      </trkpt>
      <trkpt lat="44.9049" lon="6.08041">
        <ele>1620.44</ele>
        <time>2013-07-25T10:28:53Z</time>
      </trkpt>
      <trkpt lat="44.90489" lon="6.08037">
        <ele>1619</ele>
        <time>2013-07-25T10:28:56Z</time>
      </trkpt>
      <trkpt lat="44.90486" lon="6.08028">
        <ele>1618.04</ele>
        <time>2013-07-25T10:29:02Z</time>
      </trkpt>
      <trkpt lat="44.90485" lon="6.08015">
        <ele>1614.67</ele>
        <time>2013-07-25T10:29:14Z</time>
      </trkpt>
      <trkpt lat="44.90487" lon="6.08018">
        <ele>1614.19</ele>
        <time>2013-07-25T10:29:17Z</time>
      </trkpt>
      <trkpt lat="44.90495" lon="6.08017">
        <ele>1612.75</ele>
        <time>2013-07-25T10:29:32Z</time>
      </trkpt>
      <trkpt lat="44.90495" lon="6.08015">
        <ele>1612.75</ele>
        <time>2013-07-25T10:29:33Z</time>
      </trkpt>
      <trkpt lat="44.90489" lon="6.08001">
        <ele>1610.35</ele>
        <time>2013-07-25T10:29:45Z</time>
      </trkpt>
      <trkpt lat="44.90486" lon="6.07992">
        <ele>1608.42</ele>
        <time>2013-07-25T10:29:59Z</time>
      </trkpt>
      <trkpt lat="44.90483" lon="6.0798">
        <ele>1606.02</ele>
        <time>2013-07-25T10:30:21Z</time>
      </trkpt>
      <trkpt lat="44.90479" lon="6.07965">
        <ele>1604.1</ele>
        <time>2013-07-25T10:30:34Z</time>
      </trkpt>
      <trkpt lat="44.90477" lon="6.07961">
        <ele>1604.1</ele>
        <time>2013-07-25T10:30:38Z</time>
      </trkpt>
      <trkpt lat="44.90476" lon="6.0795">
        <ele>1602.17</ele>
        <time>2013-07-25T10:30:50Z</time>
      </trkpt>
      <trkpt lat="44.90473" lon="6.07934">
        <ele>1600.25</ele>
        <time>2013-07-25T10:31:06Z</time>
      </trkpt>
      <trkpt lat="44.90466" lon="6.07921">
        <ele>1597.85</ele>
        <time>2013-07-25T10:31:20Z</time>
      </trkpt>
      <trkpt lat="44.90462" lon="6.0791">
        <ele>1595.93</ele>
        <time>2013-07-25T10:31:36Z</time>
      </trkpt>
      <trkpt lat="44.90462" lon="6.07909">
        <ele>1595.45</ele>
        <time>2013-07-25T10:31:39Z</time>
      </trkpt>
      <trkpt lat="44.90458" lon="6.079">
        <ele>1593.52</ele>
        <time>2013-07-25T10:31:49Z</time>
      </trkpt>
      <trkpt lat="44.90453" lon="6.0789">
        <ele>1591.6</ele>
        <time>2013-07-25T10:32:04Z</time>
      </trkpt>
      <trkpt lat="44.90449" lon="6.07884">
        <ele>1590.16</ele>
        <time>2013-07-25T10:32:19Z</time>
      </trkpt>
      <trkpt lat="44.90447" lon="6.07877">
        <ele>1588.72</ele>
        <time>2013-07-25T10:32:34Z</time>
      </trkpt>
      <trkpt lat="44.90447" lon="6.07874">
        <ele>1587.75</ele>
        <time>2013-07-25T10:32:37Z</time>
      </trkpt>
      <trkpt lat="44.90451" lon="6.07869">
        <ele>1585.83</ele>
        <time>2013-07-25T10:32:50Z</time>
      </trkpt>
      <trkpt lat="44.90446" lon="6.07861">
        <ele>1582.95</ele>
        <time>2013-07-25T10:33:05Z</time>
      </trkpt>
      <trkpt lat="44.90443" lon="6.07848">
        <ele>1581.51</ele>
        <time>2013-07-25T10:33:16Z</time>
      </trkpt>
      <trkpt lat="44.90435" lon="6.07837">
        <ele>1578.62</ele>
        <time>2013-07-25T10:33:30Z</time>
      </trkpt>
      <trkpt lat="44.90432" lon="6.07828">
        <ele>1576.22</ele>
        <time>2013-07-25T10:33:44Z</time>
      </trkpt>
      <trkpt lat="44.90429" lon="6.07823">
        <ele>1575.74</ele>
        <time>2013-07-25T10:33:52Z</time>
      </trkpt>
      <trkpt lat="44.90427" lon="6.0782">
        <ele>1573.82</ele>
        <time>2013-07-25T10:33:55Z</time>
      </trkpt>
      <trkpt lat="44.90423" lon="6.07814">
        <ele>1571.89</ele>
        <time>2013-07-25T10:34:10Z</time>
      </trkpt>
      <trkpt lat="44.9042" lon="6.07813">
        <ele>1571.41</ele>
        <time>2013-07-25T10:34:13Z</time>
      </trkpt>
      <trkpt lat="44.90413" lon="6.07811">
        <ele>1569.49</ele>
        <time>2013-07-25T10:34:28Z</time>
      </trkpt>
      <trkpt lat="44.90406" lon="6.07807">
        <ele>1567.57</ele>
        <time>2013-07-25T10:34:47Z</time>
      </trkpt>
      <trkpt lat="44.90406" lon="6.07806">
        <ele>1567.09</ele>
        <time>2013-07-25T10:34:48Z</time>
      </trkpt>
      <trkpt lat="44.90402" lon="6.07801">
        <ele>1566.12</ele>
        <time>2013-07-25T10:34:52Z</time>
      </trkpt>
      <trkpt lat="44.904" lon="6.07798">
        <ele>1566.12</ele>
        <time>2013-07-25T10:34:54Z</time>
      </trkpt>
      <trkpt lat="44.90396" lon="6.07794">
        <ele>1564.2</ele>
        <time>2013-07-25T10:35:01Z</time>
      </trkpt>
      <trkpt lat="44.90392" lon="6.07786">
        <ele>1560.84</ele>
        <time>2013-07-25T10:35:14Z</time>
      </trkpt>
      <trkpt lat="44.90387" lon="6.07788">
        <ele>1559.88</ele>
        <time>2013-07-25T10:35:31Z</time>
      </trkpt>
      <trkpt lat="44.90386" lon="6.0778">
        <ele>1557.95</ele>
        <time>2013-07-25T10:35:40Z</time>
      </trkpt>
      <trkpt lat="44.90392" lon="6.07769">
        <ele>1555.55</ele>
        <time>2013-07-25T10:35:51Z</time>
      </trkpt>
      <trkpt lat="44.90399" lon="6.07774">
        <ele>1554.11</ele>
        <time>2013-07-25T10:36:06Z</time>
      </trkpt>
      <trkpt lat="44.90402" lon="6.07774">
        <ele>1553.15</ele>
        <time>2013-07-25T10:36:10Z</time>
      </trkpt>
      <trkpt lat="44.90404" lon="6.07773">
        <ele>1553.15</ele>
        <time>2013-07-25T10:36:12Z</time>
      </trkpt>
      <trkpt lat="44.9041" lon="6.07773">
        <ele>1550.26</ele>
        <time>2013-07-25T10:36:22Z</time>
      </trkpt>
      <trkpt lat="44.90404" lon="6.07761">
        <ele>1547.86</ele>
        <time>2013-07-25T10:36:37Z</time>
      </trkpt>
      <trkpt lat="44.90408" lon="6.0776">
        <ele>1546.9</ele>
        <time>2013-07-25T10:36:43Z</time>
      </trkpt>
      <trkpt lat="44.9041" lon="6.07761">
        <ele>1546.9</ele>
        <time>2013-07-25T10:36:45Z</time>
      </trkpt>
      <trkpt lat="44.90413" lon="6.07761">
        <ele>1546.42</ele>
        <time>2013-07-25T10:36:49Z</time>
      </trkpt>
      <trkpt lat="44.90421" lon="6.07761">
        <ele>1543.05</ele>
        <time>2013-07-25T10:37:02Z</time>
      </trkpt>
      <trkpt lat="44.90428" lon="6.07758">
        <ele>1540.65</ele>
        <time>2013-07-25T10:37:14Z</time>
      </trkpt>
      <trkpt lat="44.90429" lon="6.07757">
        <ele>1540.65</ele>
        <time>2013-07-25T10:37:16Z</time>
      </trkpt>
      <trkpt lat="44.90434" lon="6.07753">
        <ele>1538.73</ele>
        <time>2013-07-25T10:37:23Z</time>
      </trkpt>
      <trkpt lat="44.90439" lon="6.07748">
        <ele>1536.8</ele>
        <time>2013-07-25T10:37:37Z</time>
      </trkpt>
      <trkpt lat="44.90438" lon="6.07745">
        <ele>1536.8</ele>
        <time>2013-07-25T10:37:41Z</time>
      </trkpt>
      <trkpt lat="44.90431" lon="6.0774">
        <ele>1533.92</ele>
        <time>2013-07-25T10:37:56Z</time>
      </trkpt>
      <trkpt lat="44.90423" lon="6.07738">
        <ele>1532</ele>
        <time>2013-07-25T10:38:07Z</time>
      </trkpt>
      <trkpt lat="44.9042" lon="6.07737">
        <ele>1533.44</ele>
        <time>2013-07-25T10:38:21Z</time>
      </trkpt>
      <trkpt lat="44.90415" lon="6.07737">
        <ele>1532.96</ele>
        <time>2013-07-25T10:38:38Z</time>
      </trkpt>
      <trkpt lat="44.90415" lon="6.07737">
        <ele>1532</ele>
        <time>2013-07-25T10:39:23Z</time>
      </trkpt>
      <trkpt lat="44.90416" lon="6.07731">
        <ele>1531.04</ele>
        <time>2013-07-25T10:39:44Z</time>
      </trkpt>
      <trkpt lat="44.90417" lon="6.07732">
        <ele>1530.08</ele>
        <time>2013-07-25T10:40:22Z</time>
      </trkpt>
      <trkpt lat="44.90418" lon="6.07732">
        <ele>1528.15</ele>
        <time>2013-07-25T10:40:38Z</time>
      </trkpt>
      <trkpt lat="44.90419" lon="6.07729">
        <ele>1528.63</ele>
        <time>2013-07-25T10:40:59Z</time>
      </trkpt>
      <trkpt lat="44.90414" lon="6.07731">
        <ele>1528.63</ele>
        <time>2013-07-25T10:41:51Z</time>
      </trkpt>
      <trkpt lat="44.90408" lon="6.07735">
        <ele>1529.11</ele>
        <time>2013-07-25T10:42:05Z</time>
      </trkpt>
      <trkpt lat="44.90405" lon="6.07737">
        <ele>1529.59</ele>
        <time>2013-07-25T10:42:24Z</time>
      </trkpt>
      <trkpt lat="44.90402" lon="6.0774">
        <ele>1529.59</ele>
        <time>2013-07-25T10:42:29Z</time>
      </trkpt>
      <trkpt lat="44.90396" lon="6.07745">
        <ele>1531.04</ele>
        <time>2013-07-25T10:42:44Z</time>
      </trkpt>
      <trkpt lat="44.90393" lon="6.07743">
        <ele>1531.04</ele>
        <time>2013-07-25T10:43:03Z</time>
      </trkpt>
      <trkpt lat="44.90393" lon="6.07743">
        <ele>1531.04</ele>
        <time>2013-07-25T10:43:14Z</time>
      </trkpt>
      <trkpt lat="44.90394" lon="6.07742">
        <ele>1530.08</ele>
        <time>2013-07-25T10:43:29Z</time>
      </trkpt>
      <trkpt lat="44.90391" lon="6.07741">
        <ele>1529.11</ele>
        <time>2013-07-25T10:43:43Z</time>
      </trkpt>
      <trkpt lat="44.90391" lon="6.07741">
        <ele>1525.75</ele>
        <time>2013-07-25T10:47:53Z</time>
      </trkpt>
      <trkpt lat="44.90392" lon="6.07741">
        <ele>1525.75</ele>
        <time>2013-07-25T10:49:56Z</time>
      </trkpt>
      <trkpt lat="44.90393" lon="6.07742">
        <ele>1524.79</ele>
        <time>2013-07-25T10:51:13Z</time>
      </trkpt>
      <trkpt lat="44.90392" lon="6.07743">
        <ele>1521.9</ele>
        <time>2013-07-25T10:55:28Z</time>
      </trkpt>
      <trkpt lat="44.90391" lon="6.07743">
        <ele>1521.42</ele>
        <time>2013-07-25T10:57:39Z</time>
      </trkpt>
      <trkpt lat="44.90391" lon="6.07742">
        <ele>1519.98</ele>
        <time>2013-07-25T11:00:33Z</time>
      </trkpt>
      <trkpt lat="44.9039" lon="6.07741">
        <ele>1516.62</ele>
        <time>2013-07-25T11:00:44Z</time>
      </trkpt>
      <trkpt lat="44.9039" lon="6.07741">
        <ele>1520.94</ele>
        <time>2013-07-25T11:00:45Z</time>
      </trkpt>
      <trkpt lat="44.9039" lon="6.07741">
        <ele>1515.66</ele>
        <time>2013-07-25T11:00:48Z</time>
      </trkpt>
      <trkpt lat="44.9039" lon="6.07741">
        <ele>1520.46</ele>
        <time>2013-07-25T11:00:49Z</time>
      </trkpt>
      <trkpt lat="44.9039" lon="6.07741">
        <ele>1517.58</ele>
        <time>2013-07-25T11:00:56Z</time>
      </trkpt>
      <trkpt lat="44.9039" lon="6.07741">
        <ele>1507</ele>
        <time>2013-07-25T11:02:01Z</time>
      </trkpt>
      <trkpt lat="44.9039" lon="6.07741">
        <ele>1519.5</ele>
        <time>2013-07-25T11:02:03Z</time>
      </trkpt>
      <trkpt lat="44.9039" lon="6.07741">
        <ele>1522.39</ele>
        <time>2013-07-25T11:02:06Z</time>
      </trkpt>
      <trkpt lat="44.9039" lon="6.07741">
        <ele>1520.46</ele>
        <time>2013-07-25T11:02:07Z</time>
      </trkpt>
      <trkpt lat="44.9039" lon="6.07741">
        <ele>1517.58</ele>
        <time>2013-07-25T11:02:12Z</time>
      </trkpt>
      <trkpt lat="44.9039" lon="6.07741">
        <ele>1521.42</ele>
        <time>2013-07-25T11:02:14Z</time>
      </trkpt>
      <trkpt lat="44.904" lon="6.07743">
        <ele>1519.5</ele>
        <time>2013-07-25T11:02:18Z</time>
      </trkpt>
      <trkpt lat="44.90387" lon="6.07739">
        <ele>1519.02</ele>
        <time>2013-07-25T11:02:36Z</time>
      </trkpt>
      <trkpt lat="44.90369" lon="6.07722">
        <ele>1522.39</ele>
        <time>2013-07-25T11:05:36Z</time>
      </trkpt>
      <trkpt lat="44.90377" lon="6.07735">
        <ele>1522.87</ele>
        <time>2013-07-25T11:06:21Z</time>
      </trkpt>
      <trkpt lat="44.90377" lon="6.07735">
        <ele>1523.83</ele>
        <time>2013-07-25T11:06:29Z</time>
      </trkpt>
      <trkpt lat="44.90377" lon="6.07735">
        <ele>1522.39</ele>
        <time>2013-07-25T11:06:31Z</time>
      </trkpt>
      <trkpt lat="44.90383" lon="6.07735">
        <ele>1522.87</ele>
        <time>2013-07-25T11:07:49Z</time>
      </trkpt>
      <trkpt lat="44.90387" lon="6.07733">
        <ele>1525.27</ele>
        <time>2013-07-25T11:09:44Z</time>
      </trkpt>
      <trkpt lat="44.9039" lon="6.07731">
        <ele>1524.79</ele>
        <time>2013-07-25T11:10:10Z</time>
      </trkpt>
      <trkpt lat="44.90388" lon="6.07729">
        <ele>1525.27</ele>
        <time>2013-07-25T11:10:40Z</time>
      </trkpt>
      <trkpt lat="44.90388" lon="6.0773">
        <ele>1526.23</ele>
        <time>2013-07-25T11:11:20Z</time>
      </trkpt>
      <trkpt lat="44.90388" lon="6.0773">
        <ele>1526.23</ele>
        <time>2013-07-25T11:11:50Z</time>
      </trkpt>
      <trkpt lat="44.90392" lon="6.07729">
        <ele>1525.27</ele>
        <time>2013-07-25T11:12:18Z</time>
      </trkpt>
      <trkpt lat="44.90395" lon="6.07729">
        <ele>1525.75</ele>
        <time>2013-07-25T11:12:40Z</time>
      </trkpt>
      <trkpt lat="44.90395" lon="6.0773">
        <ele>1527.19</ele>
        <time>2013-07-25T11:13:29Z</time>
      </trkpt>
      <trkpt lat="44.90397" lon="6.07729">
        <ele>1526.23</ele>
        <time>2013-07-25T11:13:51Z</time>
      </trkpt>
      <trkpt lat="44.90402" lon="6.07726">
        <ele>1525.27</ele>
        <time>2013-07-25T11:14:10Z</time>
      </trkpt>
      <trkpt lat="44.90421" lon="6.07719">
        <ele>1521.9</ele>
        <time>2013-07-25T11:14:28Z</time>
      </trkpt>
      <trkpt lat="44.90437" lon="6.07712">
        <ele>1519.98</ele>
        <time>2013-07-25T11:14:44Z</time>
      </trkpt>
      <trkpt lat="44.90447" lon="6.07711">
        <ele>1517.58</ele>
        <time>2013-07-25T11:14:58Z</time>
      </trkpt>
      <trkpt lat="44.90453" lon="6.07709">
        <ele>1516.14</ele>
        <time>2013-07-25T11:15:06Z</time>
      </trkpt>
      <trkpt lat="44.90459" lon="6.07708">
        <ele>1515.66</ele>
        <time>2013-07-25T11:15:10Z</time>
      </trkpt>
      <trkpt lat="44.90471" lon="6.07703">
        <ele>1514.69</ele>
        <time>2013-07-25T11:15:24Z</time>
      </trkpt>
      <trkpt lat="44.90483" lon="6.07696">
        <ele>1513.25</ele>
        <time>2013-07-25T11:15:35Z</time>
      </trkpt>
      <trkpt lat="44.90487" lon="6.07692">
        <ele>1512.77</ele>
        <time>2013-07-25T11:15:39Z</time>
      </trkpt>
      <trkpt lat="44.90498" lon="6.07686">
        <ele>1511.33</ele>
        <time>2013-07-25T11:15:54Z</time>
      </trkpt>
      <trkpt lat="44.90498" lon="6.07686">
        <ele>1510.85</ele>
        <time>2013-07-25T11:15:55Z</time>
      </trkpt>
      <trkpt lat="44.90502" lon="6.07682">
        <ele>1510.85</ele>
        <time>2013-07-25T11:16:00Z</time>
      </trkpt>
      <trkpt lat="44.90505" lon="6.07679">
        <ele>1509.89</ele>
        <time>2013-07-25T11:16:03Z</time>
      </trkpt>
      <trkpt lat="44.9051" lon="6.07672">
        <ele>1509.41</ele>
        <time>2013-07-25T11:16:10Z</time>
      </trkpt>
      <trkpt lat="44.90519" lon="6.07649">
        <ele>1507.97</ele>
        <time>2013-07-25T11:16:26Z</time>
      </trkpt>
      <trkpt lat="44.90519" lon="6.07648">
        <ele>1508.45</ele>
        <time>2013-07-25T11:16:27Z</time>
      </trkpt>
      <trkpt lat="44.90525" lon="6.07636">
        <ele>1506.52</ele>
        <time>2013-07-25T11:16:37Z</time>
      </trkpt>
      <trkpt lat="44.90529" lon="6.07629">
        <ele>1506.04</ele>
        <time>2013-07-25T11:16:43Z</time>
      </trkpt>
      <trkpt lat="44.90536" lon="6.07618">
        <ele>1503.64</ele>
        <time>2013-07-25T11:16:54Z</time>
      </trkpt>
      <trkpt lat="44.9054" lon="6.07611">
        <ele>1503.64</ele>
        <time>2013-07-25T11:17:00Z</time>
      </trkpt>
      <trkpt lat="44.90542" lon="6.07605">
        <ele>1502.2</ele>
        <time>2013-07-25T11:17:16Z</time>
      </trkpt>
      <trkpt lat="44.90543" lon="6.07609">
        <ele>1502.2</ele>
        <time>2013-07-25T11:17:30Z</time>
      </trkpt>
      <trkpt lat="44.90542" lon="6.07607">
        <ele>1501.24</ele>
        <time>2013-07-25T11:17:50Z</time>
      </trkpt>
      <trkpt lat="44.90544" lon="6.07607">
        <ele>1501.24</ele>
        <time>2013-07-25T11:18:11Z</time>
      </trkpt>
      <trkpt lat="44.90549" lon="6.07608">
        <ele>1500.76</ele>
        <time>2013-07-25T11:18:26Z</time>
      </trkpt>
      <trkpt lat="44.9055" lon="6.07608">
        <ele>1500.76</ele>
        <time>2013-07-25T11:18:28Z</time>
      </trkpt>
      <trkpt lat="44.90563" lon="6.07613">
        <ele>1499.79</ele>
        <time>2013-07-25T11:18:44Z</time>
      </trkpt>
      <trkpt lat="44.90578" lon="6.07611">
        <ele>1497.87</ele>
        <time>2013-07-25T11:19:00Z</time>
      </trkpt>
      <trkpt lat="44.90581" lon="6.07604">
        <ele>1496.43</ele>
        <time>2013-07-25T11:19:18Z</time>
      </trkpt>
      <trkpt lat="44.9058" lon="6.07604">
        <ele>1495.95</ele>
        <time>2013-07-25T11:19:25Z</time>
      </trkpt>
      <trkpt lat="44.90587" lon="6.07589">
        <ele>1494.03</ele>
        <time>2013-07-25T11:19:39Z</time>
      </trkpt>
      <trkpt lat="44.90592" lon="6.0758">
        <ele>1493.06</ele>
        <time>2013-07-25T11:19:47Z</time>
      </trkpt>
      <trkpt lat="44.90599" lon="6.07561">
        <ele>1490.18</ele>
        <time>2013-07-25T11:20:03Z</time>
      </trkpt>
      <trkpt lat="44.90595" lon="6.07549">
        <ele>1488.74</ele>
        <time>2013-07-25T11:20:15Z</time>
      </trkpt>
      <trkpt lat="44.90589" lon="6.07537">
        <ele>1486.82</ele>
        <time>2013-07-25T11:20:24Z</time>
      </trkpt>
      <trkpt lat="44.90579" lon="6.07515">
        <ele>1484.41</ele>
        <time>2013-07-25T11:20:42Z</time>
      </trkpt>
      <trkpt lat="44.90573" lon="6.07501">
        <ele>1482.49</ele>
        <time>2013-07-25T11:20:58Z</time>
      </trkpt>
      <trkpt lat="44.90568" lon="6.07492">
        <ele>1482.01</ele>
        <time>2013-07-25T11:21:12Z</time>
      </trkpt>
      <trkpt lat="44.9056" lon="6.07476">
        <ele>1481.05</ele>
        <time>2013-07-25T11:21:23Z</time>
      </trkpt>
      <trkpt lat="44.90562" lon="6.07465">
        <ele>1479.13</ele>
        <time>2013-07-25T11:21:38Z</time>
      </trkpt>
      <trkpt lat="44.90564" lon="6.07464">
        <ele>1479.13</ele>
        <time>2013-07-25T11:22:01Z</time>
      </trkpt>
      <trkpt lat="44.90563" lon="6.07461">
        <ele>1478.65</ele>
        <time>2013-07-25T11:22:07Z</time>
      </trkpt>
      <trkpt lat="44.90564" lon="6.07457">
        <ele>1478.16</ele>
        <time>2013-07-25T11:22:10Z</time>
      </trkpt>
      <trkpt lat="44.90566" lon="6.07438">
        <ele>1476.24</ele>
        <time>2013-07-25T11:22:23Z</time>
      </trkpt>
      <trkpt lat="44.90568" lon="6.07429">
        <ele>1475.28</ele>
        <time>2013-07-25T11:22:29Z</time>
      </trkpt>
      <trkpt lat="44.90572" lon="6.07422">
        <ele>1474.32</ele>
        <time>2013-07-25T11:22:34Z</time>
      </trkpt>
      <trkpt lat="44.90573" lon="6.07414">
        <ele>1473.36</ele>
        <time>2013-07-25T11:22:40Z</time>
      </trkpt>
      <trkpt lat="44.90574" lon="6.07399">
        <ele>1470.47</ele>
        <time>2013-07-25T11:22:53Z</time>
      </trkpt>
      <trkpt lat="44.90574" lon="6.07394">
        <ele>1470.95</ele>
        <time>2013-07-25T11:22:57Z</time>
      </trkpt>
      <trkpt lat="44.90572" lon="6.0739">
        <ele>1469.51</ele>
        <time>2013-07-25T11:23:00Z</time>
      </trkpt>
      <trkpt lat="44.90567" lon="6.07377">
        <ele>1467.59</ele>
        <time>2013-07-25T11:23:10Z</time>
      </trkpt>
      <trkpt lat="44.90562" lon="6.07367">
        <ele>1467.11</ele>
        <time>2013-07-25T11:23:17Z</time>
      </trkpt>
      <trkpt lat="44.90559" lon="6.07359">
        <ele>1466.63</ele>
        <time>2013-07-25T11:23:22Z</time>
      </trkpt>
      <trkpt lat="44.90557" lon="6.07356">
        <ele>1466.63</ele>
        <time>2013-07-25T11:23:24Z</time>
      </trkpt>
      <trkpt lat="44.90555" lon="6.07351">
        <ele>1466.63</ele>
        <time>2013-07-25T11:23:27Z</time>
      </trkpt>
      <trkpt lat="44.90551" lon="6.0734">
        <ele>1465.67</ele>
        <time>2013-07-25T11:23:34Z</time>
      </trkpt>
      <trkpt lat="44.90544" lon="6.07326">
        <ele>1464.71</ele>
        <time>2013-07-25T11:23:47Z</time>
      </trkpt>
      <trkpt lat="44.9054" lon="6.07321">
        <ele>1465.19</ele>
        <time>2013-07-25T11:23:52Z</time>
      </trkpt>
      <trkpt lat="44.90535" lon="6.07317">
        <ele>1464.71</ele>
        <time>2013-07-25T11:23:57Z</time>
      </trkpt>
      <trkpt lat="44.90536" lon="6.07304">
        <ele>1462.78</ele>
        <time>2013-07-25T11:24:06Z</time>
      </trkpt>
      <trkpt lat="44.90543" lon="6.07283">
        <ele>1461.34</ele>
        <time>2013-07-25T11:24:23Z</time>
      </trkpt>
      <trkpt lat="44.90547" lon="6.07269">
        <ele>1459.9</ele>
        <time>2013-07-25T11:24:33Z</time>
      </trkpt>
      <trkpt lat="44.90548" lon="6.07261">
        <ele>1458.94</ele>
        <time>2013-07-25T11:24:38Z</time>
      </trkpt>
      <trkpt lat="44.90552" lon="6.0724">
        <ele>1456.53</ele>
        <time>2013-07-25T11:24:54Z</time>
      </trkpt>
      <trkpt lat="44.90556" lon="6.07225">
        <ele>1455.09</ele>
        <time>2013-07-25T11:25:06Z</time>
      </trkpt>
      <trkpt lat="44.90564" lon="6.07202">
        <ele>1452.21</ele>
        <time>2013-07-25T11:25:23Z</time>
      </trkpt>
      <trkpt lat="44.90573" lon="6.07178">
        <ele>1449.32</ele>
        <time>2013-07-25T11:25:39Z</time>
      </trkpt>
      <trkpt lat="44.90586" lon="6.07164">
        <ele>1447.88</ele>
        <time>2013-07-25T11:25:54Z</time>
      </trkpt>
      <trkpt lat="44.90584" lon="6.07164">
        <ele>1447.88</ele>
        <time>2013-07-25T11:26:02Z</time>
      </trkpt>
      <trkpt lat="44.90581" lon="6.0716">
        <ele>1447.88</ele>
        <time>2013-07-25T11:26:07Z</time>
      </trkpt>
      <trkpt lat="44.90584" lon="6.07144">
        <ele>1445.96</ele>
        <time>2013-07-25T11:26:19Z</time>
      </trkpt>
      <trkpt lat="44.90585" lon="6.07138">
        <ele>1445</ele>
        <time>2013-07-25T11:26:23Z</time>
      </trkpt>
      <trkpt lat="44.90588" lon="6.07117">
        <ele>1443.08</ele>
        <time>2013-07-25T11:26:38Z</time>
      </trkpt>
      <trkpt lat="44.90592" lon="6.07104">
        <ele>1442.11</ele>
        <time>2013-07-25T11:26:47Z</time>
      </trkpt>
      <trkpt lat="44.90597" lon="6.07089">
        <ele>1439.71</ele>
        <time>2013-07-25T11:26:57Z</time>
      </trkpt>
      <trkpt lat="44.90599" lon="6.07067">
        <ele>1438.27</ele>
        <time>2013-07-25T11:27:11Z</time>
      </trkpt>
      <trkpt lat="44.906" lon="6.07042">
        <ele>1436.83</ele>
        <time>2013-07-25T11:27:26Z</time>
      </trkpt>
      <trkpt lat="44.90604" lon="6.07033">
        <ele>1434.91</ele>
        <time>2013-07-25T11:27:33Z</time>
      </trkpt>
      <trkpt lat="44.90609" lon="6.07006">
        <ele>1432.02</ele>
        <time>2013-07-25T11:27:50Z</time>
      </trkpt>
      <trkpt lat="44.9061" lon="6.06993">
        <ele>1431.06</ele>
        <time>2013-07-25T11:27:59Z</time>
      </trkpt>
      <trkpt lat="44.90609" lon="6.06984">
        <ele>1430.58</ele>
        <time>2013-07-25T11:28:05Z</time>
      </trkpt>
      <trkpt lat="44.90607" lon="6.06973">
        <ele>1429.14</ele>
        <time>2013-07-25T11:28:14Z</time>
      </trkpt>
      <trkpt lat="44.90612" lon="6.06966">
        <ele>1428.66</ele>
        <time>2013-07-25T11:28:18Z</time>
      </trkpt>
      <trkpt lat="44.90609" lon="6.06946">
        <ele>1427.7</ele>
        <time>2013-07-25T11:28:27Z</time>
      </trkpt>
      <trkpt lat="44.90607" lon="6.06941">
        <ele>1427.7</ele>
        <time>2013-07-25T11:28:31Z</time>
      </trkpt>
      <trkpt lat="44.90606" lon="6.06929">
        <ele>1426.25</ele>
        <time>2013-07-25T11:28:40Z</time>
      </trkpt>
      <trkpt lat="44.90615" lon="6.06904">
        <ele>1424.33</ele>
        <time>2013-07-25T11:28:55Z</time>
      </trkpt>
      <trkpt lat="44.90623" lon="6.06879">
        <ele>1422.41</ele>
        <time>2013-07-25T11:29:12Z</time>
      </trkpt>
      <trkpt lat="44.90626" lon="6.06862">
        <ele>1420.97</ele>
        <time>2013-07-25T11:29:25Z</time>
      </trkpt>
      <trkpt lat="44.90628" lon="6.06859">
        <ele>1419.52</ele>
        <time>2013-07-25T11:29:28Z</time>
      </trkpt>
      <trkpt lat="44.9064" lon="6.06835">
        <ele>1417.6</ele>
        <time>2013-07-25T11:29:44Z</time>
      </trkpt>
      <trkpt lat="44.90641" lon="6.06826">
        <ele>1416.16</ele>
        <time>2013-07-25T11:29:50Z</time>
      </trkpt>
      <trkpt lat="44.90642" lon="6.06815">
        <ele>1414.72</ele>
        <time>2013-07-25T11:29:57Z</time>
      </trkpt>
      <trkpt lat="44.90642" lon="6.06802">
        <ele>1413.76</ele>
        <time>2013-07-25T11:30:05Z</time>
      </trkpt>
      <trkpt lat="44.90643" lon="6.06794">
        <ele>1412.79</ele>
        <time>2013-07-25T11:30:10Z</time>
      </trkpt>
      <trkpt lat="44.90643" lon="6.06782">
        <ele>1410.87</ele>
        <time>2013-07-25T11:30:18Z</time>
      </trkpt>
      <trkpt lat="44.90644" lon="6.06778">
        <ele>1410.39</ele>
        <time>2013-07-25T11:30:21Z</time>
      </trkpt>
      <trkpt lat="44.90645" lon="6.0677">
        <ele>1410.39</ele>
        <time>2013-07-25T11:30:26Z</time>
      </trkpt>
      <trkpt lat="44.90648" lon="6.06764">
        <ele>1408.95</ele>
        <time>2013-07-25T11:30:31Z</time>
      </trkpt>
      <trkpt lat="44.90647" lon="6.06759">
        <ele>1409.43</ele>
        <time>2013-07-25T11:30:34Z</time>
      </trkpt>
      <trkpt lat="44.90647" lon="6.06732">
        <ele>1406.55</ele>
        <time>2013-07-25T11:30:49Z</time>
      </trkpt>
      <trkpt lat="44.90646" lon="6.06704">
        <ele>1404.14</ele>
        <time>2013-07-25T11:31:06Z</time>
      </trkpt>
      <trkpt lat="44.90647" lon="6.06701">
        <ele>1404.14</ele>
        <time>2013-07-25T11:31:08Z</time>
      </trkpt>
      <trkpt lat="44.9065" lon="6.06693">
        <ele>1402.7</ele>
        <time>2013-07-25T11:31:13Z</time>
      </trkpt>
      <trkpt lat="44.90651" lon="6.06679">
        <ele>1402.7</ele>
        <time>2013-07-25T11:31:22Z</time>
      </trkpt>
      <trkpt lat="44.90651" lon="6.06676">
        <ele>1402.22</ele>
        <time>2013-07-25T11:31:24Z</time>
      </trkpt>
      <trkpt lat="44.90651" lon="6.06667">
        <ele>1400.78</ele>
        <time>2013-07-25T11:31:30Z</time>
      </trkpt>
      <trkpt lat="44.90652" lon="6.06656">
        <ele>1399.82</ele>
        <time>2013-07-25T11:31:37Z</time>
      </trkpt>
      <trkpt lat="44.90655" lon="6.06633">
        <ele>1398.86</ele>
        <time>2013-07-25T11:31:51Z</time>
      </trkpt>
      <trkpt lat="44.90661" lon="6.06617">
        <ele>1397.41</ele>
        <time>2013-07-25T11:32:05Z</time>
      </trkpt>
      <trkpt lat="44.90671" lon="6.06589">
        <ele>1394.53</ele>
        <time>2013-07-25T11:32:23Z</time>
      </trkpt>
      <trkpt lat="44.90681" lon="6.06569">
        <ele>1392.61</ele>
        <time>2013-07-25T11:32:36Z</time>
      </trkpt>
      <trkpt lat="44.9069" lon="6.06541">
        <ele>1390.68</ele>
        <time>2013-07-25T11:32:54Z</time>
      </trkpt>
      <trkpt lat="44.90691" lon="6.06522">
        <ele>1388.76</ele>
        <time>2013-07-25T11:33:05Z</time>
      </trkpt>
      <trkpt lat="44.90693" lon="6.06514">
        <ele>1387.8</ele>
        <time>2013-07-25T11:33:10Z</time>
      </trkpt>
      <trkpt lat="44.90696" lon="6.06489">
        <ele>1386.84</ele>
        <time>2013-07-25T11:33:25Z</time>
      </trkpt>
      <trkpt lat="44.90698" lon="6.06483">
        <ele>1385.88</ele>
        <time>2013-07-25T11:33:29Z</time>
      </trkpt>
      <trkpt lat="44.90705" lon="6.06466">
        <ele>1384.92</ele>
        <time>2013-07-25T11:33:42Z</time>
      </trkpt>
      <trkpt lat="44.90708" lon="6.06446">
        <ele>1383.47</ele>
        <time>2013-07-25T11:33:57Z</time>
      </trkpt>
      <trkpt lat="44.90713" lon="6.06427">
        <ele>1381.07</ele>
        <time>2013-07-25T11:34:08Z</time>
      </trkpt>
      <trkpt lat="44.90716" lon="6.06404">
        <ele>1378.67</ele>
        <time>2013-07-25T11:34:22Z</time>
      </trkpt>
      <trkpt lat="44.90718" lon="6.06395">
        <ele>1378.19</ele>
        <time>2013-07-25T11:34:28Z</time>
      </trkpt>
      <trkpt lat="44.90722" lon="6.06371">
        <ele>1376.26</ele>
        <time>2013-07-25T11:34:43Z</time>
      </trkpt>
      <trkpt lat="44.90723" lon="6.06365">
        <ele>1375.3</ele>
        <time>2013-07-25T11:34:46Z</time>
      </trkpt>
      <trkpt lat="44.90723" lon="6.06359">
        <ele>1375.78</ele>
        <time>2013-07-25T11:34:50Z</time>
      </trkpt>
      <trkpt lat="44.90724" lon="6.06354">
        <ele>1374.34</ele>
        <time>2013-07-25T11:34:53Z</time>
      </trkpt>
      <trkpt lat="44.90725" lon="6.06347">
        <ele>1374.34</ele>
        <time>2013-07-25T11:34:58Z</time>
      </trkpt>
      <trkpt lat="44.90727" lon="6.06325">
        <ele>1371.46</ele>
        <time>2013-07-25T11:35:13Z</time>
      </trkpt>
      <trkpt lat="44.90727" lon="6.06317">
        <ele>1370.5</ele>
        <time>2013-07-25T11:35:18Z</time>
      </trkpt>
      <trkpt lat="44.90729" lon="6.06289">
        <ele>1369.05</ele>
        <time>2013-07-25T11:35:34Z</time>
      </trkpt>
      <trkpt lat="44.9073" lon="6.06264">
        <ele>1368.09</ele>
        <time>2013-07-25T11:35:48Z</time>
      </trkpt>
      <trkpt lat="44.90731" lon="6.06255">
        <ele>1367.61</ele>
        <time>2013-07-25T11:35:54Z</time>
      </trkpt>
      <trkpt lat="44.90732" lon="6.06248">
        <ele>1366.17</ele>
        <time>2013-07-25T11:36:00Z</time>
      </trkpt>
      <trkpt lat="44.90733" lon="6.06244">
        <ele>1364.73</ele>
        <time>2013-07-25T11:36:02Z</time>
      </trkpt>
      <trkpt lat="44.90732" lon="6.06233">
        <ele>1364.25</ele>
        <time>2013-07-25T11:36:09Z</time>
      </trkpt>
      <trkpt lat="44.90732" lon="6.06224">
        <ele>1363.77</ele>
        <time>2013-07-25T11:36:15Z</time>
      </trkpt>
      <trkpt lat="44.90732" lon="6.06217">
        <ele>1362.81</ele>
        <time>2013-07-25T11:36:18Z</time>
      </trkpt>
      <trkpt lat="44.90732" lon="6.06212">
        <ele>1362.33</ele>
        <time>2013-07-25T11:36:21Z</time>
      </trkpt>
      <trkpt lat="44.90731" lon="6.06206">
        <ele>1362.33</ele>
        <time>2013-07-25T11:36:24Z</time>
      </trkpt>
      <trkpt lat="44.90732" lon="6.06191">
        <ele>1361.36</ele>
        <time>2013-07-25T11:36:33Z</time>
      </trkpt>
      <trkpt lat="44.90736" lon="6.06169">
        <ele>1358</ele>
        <time>2013-07-25T11:36:47Z</time>
      </trkpt>
      <trkpt lat="44.90745" lon="6.06142">
        <ele>1356.56</ele>
        <time>2013-07-25T11:37:04Z</time>
      </trkpt>
      <trkpt lat="44.90746" lon="6.06138">
        <ele>1356.56</ele>
        <time>2013-07-25T11:37:07Z</time>
      </trkpt>
      <trkpt lat="44.90747" lon="6.0612">
        <ele>1353.67</ele>
        <time>2013-07-25T11:37:22Z</time>
      </trkpt>
      <trkpt lat="44.90748" lon="6.06117">
        <ele>1354.15</ele>
        <time>2013-07-25T11:37:37Z</time>
      </trkpt>
      <trkpt lat="44.9075" lon="6.06093">
        <ele>1352.71</ele>
        <time>2013-07-25T11:37:52Z</time>
      </trkpt>
      <trkpt lat="44.90751" lon="6.06089">
        <ele>1351.75</ele>
        <time>2013-07-25T11:37:54Z</time>
      </trkpt>
      <trkpt lat="44.90757" lon="6.06061">
        <ele>1349.35</ele>
        <time>2013-07-25T11:38:10Z</time>
      </trkpt>
      <trkpt lat="44.90757" lon="6.06038">
        <ele>1347.91</ele>
        <time>2013-07-25T11:38:24Z</time>
      </trkpt>
      <trkpt lat="44.90756" lon="6.06021">
        <ele>1345.98</ele>
        <time>2013-07-25T11:38:36Z</time>
      </trkpt>
      <trkpt lat="44.90757" lon="6.06017">
        <ele>1345.5</ele>
        <time>2013-07-25T11:38:39Z</time>
      </trkpt>
      <trkpt lat="44.90757" lon="6.06012">
        <ele>1345.5</ele>
        <time>2013-07-25T11:38:42Z</time>
      </trkpt>
      <trkpt lat="44.90759" lon="6.06007">
        <ele>1344.54</ele>
        <time>2013-07-25T11:38:46Z</time>
      </trkpt>
      <trkpt lat="44.90759" lon="6.05993">
        <ele>1344.06</ele>
        <time>2013-07-25T11:38:55Z</time>
      </trkpt>
      <trkpt lat="44.90759" lon="6.05988">
        <ele>1343.58</ele>
        <time>2013-07-25T11:38:58Z</time>
      </trkpt>
      <trkpt lat="44.9076" lon="6.0598">
        <ele>1342.62</ele>
        <time>2013-07-25T11:39:02Z</time>
      </trkpt>
      <trkpt lat="44.90762" lon="6.05955">
        <ele>1340.7</ele>
        <time>2013-07-25T11:39:17Z</time>
      </trkpt>
      <trkpt lat="44.90765" lon="6.05924">
        <ele>1338.77</ele>
        <time>2013-07-25T11:39:34Z</time>
      </trkpt>
      <trkpt lat="44.90764" lon="6.05906">
        <ele>1337.33</ele>
        <time>2013-07-25T11:39:46Z</time>
      </trkpt>
      <trkpt lat="44.90765" lon="6.05901">
        <ele>1336.37</ele>
        <time>2013-07-25T11:39:49Z</time>
      </trkpt>
      <trkpt lat="44.90761" lon="6.05883">
        <ele>1334.93</ele>
        <time>2013-07-25T11:40:02Z</time>
      </trkpt>
      <trkpt lat="44.9076" lon="6.05868">
        <ele>1333.49</ele>
        <time>2013-07-25T11:40:10Z</time>
      </trkpt>
      <trkpt lat="44.90759" lon="6.05865">
        <ele>1333.49</ele>
        <time>2013-07-25T11:40:12Z</time>
      </trkpt>
      <trkpt lat="44.90759" lon="6.05857">
        <ele>1333.01</ele>
        <time>2013-07-25T11:40:16Z</time>
      </trkpt>
      <trkpt lat="44.90758" lon="6.05842">
        <ele>1332.04</ele>
        <time>2013-07-25T11:40:25Z</time>
      </trkpt>
      <trkpt lat="44.90758" lon="6.05838">
        <ele>1331.56</ele>
        <time>2013-07-25T11:40:27Z</time>
      </trkpt>
      <trkpt lat="44.90758" lon="6.05828">
        <ele>1330.6</ele>
        <time>2013-07-25T11:40:33Z</time>
      </trkpt>
      <trkpt lat="44.90759" lon="6.05803">
        <ele>1329.16</ele>
        <time>2013-07-25T11:40:48Z</time>
      </trkpt>
      <trkpt lat="44.9076" lon="6.05795">
        <ele>1328.68</ele>
        <time>2013-07-25T11:40:53Z</time>
      </trkpt>
      <trkpt lat="44.90759" lon="6.05784">
        <ele>1327.72</ele>
        <time>2013-07-25T11:40:59Z</time>
      </trkpt>
      <trkpt lat="44.90759" lon="6.05775">
        <ele>1327.24</ele>
        <time>2013-07-25T11:41:04Z</time>
      </trkpt>
      <trkpt lat="44.90758" lon="6.05756">
        <ele>1326.28</ele>
        <time>2013-07-25T11:41:15Z</time>
      </trkpt>
      <trkpt lat="44.90764" lon="6.05736">
        <ele>1324.83</ele>
        <time>2013-07-25T11:41:28Z</time>
      </trkpt>
      <trkpt lat="44.90768" lon="6.05726">
        <ele>1324.35</ele>
        <time>2013-07-25T11:41:37Z</time>
      </trkpt>
      <trkpt lat="44.90771" lon="6.05719">
        <ele>1323.87</ele>
        <time>2013-07-25T11:41:43Z</time>
      </trkpt>
      <trkpt lat="44.90772" lon="6.05696">
        <ele>1322.43</ele>
        <time>2013-07-25T11:41:57Z</time>
      </trkpt>
      <trkpt lat="44.9077" lon="6.05686">
        <ele>1321.95</ele>
        <time>2013-07-25T11:42:03Z</time>
      </trkpt>
      <trkpt lat="44.9077" lon="6.05676">
        <ele>1320.51</ele>
        <time>2013-07-25T11:42:08Z</time>
      </trkpt>
      <trkpt lat="44.9077" lon="6.05667">
        <ele>1319.55</ele>
        <time>2013-07-25T11:42:17Z</time>
      </trkpt>
      <trkpt lat="44.90771" lon="6.0566">
        <ele>1319.55</ele>
        <time>2013-07-25T11:42:21Z</time>
      </trkpt>
      <trkpt lat="44.90772" lon="6.05654">
        <ele>1318.59</ele>
        <time>2013-07-25T11:42:24Z</time>
      </trkpt>
      <trkpt lat="44.90774" lon="6.05626">
        <ele>1316.66</ele>
        <time>2013-07-25T11:42:39Z</time>
      </trkpt>
      <trkpt lat="44.90777" lon="6.05599">
        <ele>1314.74</ele>
        <time>2013-07-25T11:42:54Z</time>
      </trkpt>
      <trkpt lat="44.90778" lon="6.05586">
        <ele>1314.26</ele>
        <time>2013-07-25T11:43:03Z</time>
      </trkpt>
      <trkpt lat="44.90782" lon="6.05554">
        <ele>1312.34</ele>
        <time>2013-07-25T11:43:20Z</time>
      </trkpt>
      <trkpt lat="44.9078" lon="6.05534">
        <ele>1310.9</ele>
        <time>2013-07-25T11:43:33Z</time>
      </trkpt>
      <trkpt lat="44.90779" lon="6.05528">
        <ele>1310.41</ele>
        <time>2013-07-25T11:43:37Z</time>
      </trkpt>
      <trkpt lat="44.90777" lon="6.05502">
        <ele>1308.49</ele>
        <time>2013-07-25T11:43:53Z</time>
      </trkpt>
      <trkpt lat="44.90777" lon="6.05497">
        <ele>1308.01</ele>
        <time>2013-07-25T11:43:56Z</time>
      </trkpt>
      <trkpt lat="44.90774" lon="6.05482">
        <ele>1307.05</ele>
        <time>2013-07-25T11:44:04Z</time>
      </trkpt>
      <trkpt lat="44.90772" lon="6.05468">
        <ele>1306.09</ele>
        <time>2013-07-25T11:44:13Z</time>
      </trkpt>
      <trkpt lat="44.90771" lon="6.05461">
        <ele>1305.61</ele>
        <time>2013-07-25T11:44:17Z</time>
      </trkpt>
      <trkpt lat="44.90767" lon="6.05443">
        <ele>1304.65</ele>
        <time>2013-07-25T11:44:35Z</time>
      </trkpt>
      <trkpt lat="44.90767" lon="6.0544">
        <ele>1303.69</ele>
        <time>2013-07-25T11:45:32Z</time>
      </trkpt>
      <trkpt lat="44.90767" lon="6.0544">
        <ele>1303.2</ele>
        <time>2013-07-25T11:46:56Z</time>
      </trkpt>
      <trkpt lat="44.90767" lon="6.05441">
        <ele>1303.69</ele>
        <time>2013-07-25T11:49:07Z</time>
      </trkpt>
      <trkpt lat="44.90768" lon="6.05441">
        <ele>1303.69</ele>
        <time>2013-07-25T11:49:22Z</time>
      </trkpt>
      <trkpt lat="44.90772" lon="6.05441">
        <ele>1304.17</ele>
        <time>2013-07-25T11:49:47Z</time>
      </trkpt>
      <trkpt lat="44.90773" lon="6.05441">
        <ele>1303.2</ele>
        <time>2013-07-25T11:50:11Z</time>
      </trkpt>
      <trkpt lat="44.90779" lon="6.05435">
        <ele>1302.72</ele>
        <time>2013-07-25T11:50:44Z</time>
      </trkpt>
      <trkpt lat="44.90779" lon="6.05434">
        <ele>1303.2</ele>
        <time>2013-07-25T11:50:45Z</time>
      </trkpt>
      <trkpt lat="44.90796" lon="6.05427">
        <ele>1303.2</ele>
        <time>2013-07-25T11:51:00Z</time>
      </trkpt>
      <trkpt lat="44.90804" lon="6.05432">
        <ele>1303.2</ele>
        <time>2013-07-25T11:51:07Z</time>
      </trkpt>
      <trkpt lat="44.90811" lon="6.05433">
        <ele>1302.72</ele>
        <time>2013-07-25T11:51:12Z</time>
      </trkpt>
      <trkpt lat="44.90823" lon="6.05434">
        <ele>1302.72</ele>
        <time>2013-07-25T11:51:27Z</time>
      </trkpt>
      <trkpt lat="44.90823" lon="6.05435">
        <ele>1302.72</ele>
        <time>2013-07-25T11:51:57Z</time>
      </trkpt>
      <trkpt lat="44.90822" lon="6.05436">
        <ele>1302.72</ele>
        <time>2013-07-25T11:53:02Z</time>
      </trkpt>
      <trkpt lat="44.90829" lon="6.05443">
        <ele>1303.2</ele>
        <time>2013-07-25T11:53:09Z</time>
      </trkpt>
      <trkpt lat="44.90842" lon="6.05448">
        <ele>1302.72</ele>
        <time>2013-07-25T11:53:20Z</time>
      </trkpt>
      <trkpt lat="44.90857" lon="6.05446">
        <ele>1303.2</ele>
        <time>2013-07-25T11:53:36Z</time>
      </trkpt>
      <trkpt lat="44.90879" lon="6.05437">
        <ele>1302.24</ele>
        <time>2013-07-25T11:53:51Z</time>
      </trkpt>
      <trkpt lat="44.90902" lon="6.0543">
        <ele>1302.24</ele>
        <time>2013-07-25T11:54:04Z</time>
      </trkpt>
      <trkpt lat="44.90915" lon="6.05419">
        <ele>1302.24</ele>
        <time>2013-07-25T11:54:18Z</time>
      </trkpt>
      <trkpt lat="44.90926" lon="6.05407">
        <ele>1303.2</ele>
        <time>2013-07-25T11:54:34Z</time>
      </trkpt>
      <trkpt lat="44.90927" lon="6.05405">
        <ele>1303.69</ele>
        <time>2013-07-25T11:54:41Z</time>
      </trkpt>
      <trkpt lat="44.90932" lon="6.05406">
        <ele>1303.69</ele>
        <time>2013-07-25T11:54:46Z</time>
      </trkpt>
      <trkpt lat="44.90944" lon="6.0541">
        <ele>1305.13</ele>
        <time>2013-07-25T11:54:58Z</time>
      </trkpt>
      <trkpt lat="44.90947" lon="6.05414">
        <ele>1305.61</ele>
        <time>2013-07-25T11:55:04Z</time>
      </trkpt>
      <trkpt lat="44.90956" lon="6.05422">
        <ele>1306.57</ele>
        <time>2013-07-25T11:55:21Z</time>
      </trkpt>
      <trkpt lat="44.90961" lon="6.0542">
        <ele>1308.01</ele>
        <time>2013-07-25T11:55:30Z</time>
      </trkpt>
      <trkpt lat="44.90966" lon="6.05421">
        <ele>1308.01</ele>
        <time>2013-07-25T11:55:46Z</time>
      </trkpt>
      <trkpt lat="44.90966" lon="6.05422">
        <ele>1308.01</ele>
        <time>2013-07-25T11:56:10Z</time>
      </trkpt>
      <trkpt lat="44.90967" lon="6.05422">
        <ele>1308.01</ele>
        <time>2013-07-25T11:56:18Z</time>
      </trkpt>
      <trkpt lat="44.90967" lon="6.05422">
        <ele>1302.24</ele>
        <time>2013-07-25T11:56:28Z</time>
      </trkpt>
      <trkpt lat="44.90967" lon="6.05422">
        <ele>1304.65</ele>
        <time>2013-07-25T11:56:29Z</time>
      </trkpt>
      <trkpt lat="44.90967" lon="6.05422">
        <ele>1308.49</ele>
        <time>2013-07-25T11:56:32Z</time>
      </trkpt>
    </trkseg>
  </trk>
</gpx>